Time,TemperatureF,DewpointF,PressureIn,WindDirection,WindDirectionDegrees,WindSpeedMPH,WindSpeedGustMPH,Humidity,HourlyPrecipIn,Conditions,Clouds,dailyrainin,SoftwareType,DateUTC
2013-09-17 00:00:00,67.8,59.2,0.00,SW,225,6.9,13.2,74,0.00,,---,0.00,VWS V14.01,2013-09-17 05:00:00,
2013-09-17 00:01:00,68.0,59.4,0.00,SW,225,5.4,9.6,74,0.00,,---,0.00,VWS V14.01,2013-09-17 05:01:00,
2013-09-17 00:02:00,68.0,59.4,0.00,SW,225,7.8,9.6,74,0.00,,---,0.00,VWS V14.01,2013-09-17 05:02:00,
2013-09-17 00:03:00,68.0,59.4,0.00,SW,225,7.8,9.6,74,0.00,,---,0.00,VWS V14.01,2013-09-17 05:03:00,
2013-09-17 00:04:00,68.0,59.4,0.00,SW,225,7.8,9.6,74,0.00,,---,0.00,VWS V14.01,2013-09-17 05:04:00,
2013-09-17 00:05:00,68.0,59.4,0.00,South,180,6.0,9.6,74,0.00,,---,0.00,VWS V14.01,2013-09-17 05:05:00,
2013-09-17 00:06:00,68.3,59.3,0.00,SW,225,9.6,9.6,73,0.00,,---,0.00,VWS V14.01,2013-09-17 05:06:00,
2013-09-17 00:07:00,68.3,59.3,0.00,WSW,248,6.3,9.6,73,0.00,,---,0.00,VWS V14.01,2013-09-17 05:07:00,
2013-09-17 00:08:00,68.5,58.7,0.00,SW,225,7.6,9.6,71,0.00,,---,0.00,VWS V14.01,2013-09-17 05:08:00,
2013-09-17 00:09:00,68.7,58.9,0.00,South,180,12.3,12.3,71,0.00,,---,0.00,VWS V14.01,2013-09-17 05:09:00,
2013-09-17 00:10:00,69.0,59.7,0.00,SW,225,5.4,12.3,72,0.00,,---,0.00,VWS V14.01,2013-09-17 05:10:00,
2013-09-17 00:11:00,69.6,60.2,0.00,SSW,202,7.6,12.3,72,0.00,,---,0.00,VWS V14.01,2013-09-17 05:11:00,
2013-09-17 00:12:00,70.1,60.3,0.00,South,180,5.6,12.3,71,0.00,,---,0.00,VWS V14.01,2013-09-17 05:12:00,
2013-09-17 00:13:00,70.7,60.8,0.00,SSW,202,6.5,12.3,71,0.00,,---,0.00,VWS V14.01,2013-09-17 05:13:00,
2013-09-17 00:14:00,71.2,60.5,0.00,South,180,5.8,12.3,69,0.00,,---,0.00,VWS V14.01,2013-09-17 05:14:00,
2013-09-17 00:15:00,71.4,60.3,0.00,South,180,9.6,12.3,68,0.00,,---,0.00,VWS V14.01,2013-09-17 05:15:00,
2013-09-17 00:16:00,71.4,60.3,0.00,South,180,7.4,9.6,68,0.00,,---,0.00,VWS V14.01,2013-09-17 05:16:00,
2013-09-17 00:17:00,71.7,59.8,0.00,SSW,202,9.6,9.6,66,0.00,,---,0.00,VWS V14.01,2013-09-17 05:17:00,
2013-09-17 00:19:00,71.7,59.8,0.00,SSW,202,9.6,9.6,66,0.00,,---,0.00,VWS V14.01,2013-09-17 05:19:00,
2013-09-17 00:20:00,71.7,59.8,0.00,South,180,6.5,9.6,66,0.00,,---,0.00,VWS V14.01,2013-09-17 05:20:00,
2013-09-17 00:21:00,71.9,60.0,0.00,South,180,4.0,9.6,66,0.00,,---,0.00,VWS V14.01,2013-09-17 05:21:00,
2013-09-17 00:22:00,71.9,60.0,0.00,SSW,202,5.6,9.8,66,0.00,,---,0.00,VWS V14.01,2013-09-17 05:22:00,
2013-09-17 00:23:00,72.3,60.3,0.00,SSW,202,3.6,9.8,66,0.00,,---,0.00,VWS V14.01,2013-09-17 05:23:00,
2013-09-17 00:24:00,72.5,60.0,0.00,SSE,158,5.6,9.8,65,0.00,,---,0.00,VWS V14.01,2013-09-17 05:24:00,
2013-09-17 00:25:00,72.6,59.8,0.00,South,180,6.3,9.8,64,0.00,,---,0.00,VWS V14.01,2013-09-17 05:25:00,
2013-09-17 00:26:00,72.6,59.8,0.00,South,180,5.8,9.8,64,0.00,,---,0.00,VWS V14.01,2013-09-17 05:26:00,
2013-09-17 00:27:00,72.6,59.8,0.00,South,180,4.3,9.8,64,0.00,,---,0.00,VWS V14.01,2013-09-17 05:27:00,
2013-09-17 00:29:00,73.7,61.2,0.00,SE,135,9.8,9.8,65,0.00,,---,0.00,VWS V14.01,2013-09-17 05:29:00,
2013-09-17 00:30:00,74.1,60.2,0.00,South,180,13.2,13.2,62,0.00,,---,0.00,VWS V14.01,2013-09-17 05:30:00,
2013-09-17 00:31:00,73.5,59.7,0.00,South,180,7.4,13.2,62,0.00,,---,0.00,VWS V14.01,2013-09-17 05:31:00,
2013-09-17 00:32:00,73.2,58.9,0.00,South,180,8.1,13.2,61,0.00,,---,0.00,VWS V14.01,2013-09-17 05:32:00,
2013-09-17 00:33:00,73.4,60.0,0.00,SW,225,7.6,13.2,63,0.00,,---,0.00,VWS V14.01,2013-09-17 05:33:00,
2013-09-17 00:34:00,73.7,59.9,0.00,SW,225,7.6,13.2,62,0.00,,---,0.00,VWS V14.01,2013-09-17 05:34:00,
2013-09-17 00:35:00,73.9,60.1,0.00,South,180,4.9,13.2,62,0.00,,---,0.00,VWS V14.01,2013-09-17 05:35:00,
2013-09-17 00:36:00,73.9,60.1,0.00,South,180,6.0,13.2,62,0.00,,---,0.00,VWS V14.01,2013-09-17 05:36:00,
2013-09-17 00:37:00,74.3,60.4,0.00,SW,225,3.8,13.2,62,0.00,,---,0.00,VWS V14.01,2013-09-17 05:37:00,
2013-09-17 00:38:00,74.8,60.5,0.00,SW,225,6.0,13.2,61,0.00,,---,0.00,VWS V14.01,2013-09-17 05:38:00,
2013-09-17 00:39:00,75.0,59.7,0.00,SSW,202,5.4,13.2,59,0.00,,---,0.00,VWS V14.01,2013-09-17 05:39:00,
2013-09-17 00:40:00,75.0,59.7,0.00,SW,225,4.3,13.2,59,0.00,,---,0.00,VWS V14.01,2013-09-17 05:40:00,
2013-09-17 00:41:00,75.0,59.7,0.00,SW,225,6.0,13.2,59,0.00,,---,0.00,VWS V14.01,2013-09-17 05:41:00,
2013-09-17 00:42:00,75.0,59.7,0.00,South,180,5.8,13.2,59,0.00,,---,0.00,VWS V14.01,2013-09-17 05:42:00,
2013-09-17 00:43:00,75.0,59.7,0.00,South,180,8.7,13.2,59,0.00,,---,0.00,VWS V14.01,2013-09-17 05:43:00,
2013-09-17 00:44:00,75.5,59.2,0.00,SSE,158,11.4,13.2,57,0.00,,---,0.00,VWS V14.01,2013-09-17 05:44:00,
2013-09-17 00:45:00,75.3,59.6,0.00,SSE,158,7.6,13.2,58,0.00,,---,0.00,VWS V14.01,2013-09-17 05:45:00,
2013-09-17 00:46:00,75.2,59.4,0.00,SSW,202,8.7,10.7,58,0.00,,---,0.00,VWS V14.01,2013-09-17 05:46:00,
2013-09-17 00:47:00,75.2,59.4,0.00,South,180,10.3,12.8,58,0.00,,---,0.00,VWS V14.01,2013-09-17 05:47:00,
2013-09-17 00:48:00,75.2,59.4,0.00,SW,225,8.5,12.8,58,0.00,,---,0.00,VWS V14.01,2013-09-17 05:48:00,
2013-09-17 00:49:00,75.5,60.2,0.00,SW,225,3.8,12.8,59,0.00,,---,0.00,VWS V14.01,2013-09-17 05:49:00,
2013-09-17 00:50:00,75.5,60.2,0.00,SW,225,6.0,12.8,59,0.00,,---,0.00,VWS V14.01,2013-09-17 05:50:00,
2013-09-17 00:51:00,75.9,59.1,0.00,SW,225,6.5,12.8,56,0.00,,---,0.00,VWS V14.01,2013-09-17 05:51:00,
2013-09-17 00:52:00,75.9,59.6,0.00,SW,225,5.4,12.8,57,0.00,,---,0.00,VWS V14.01,2013-09-17 05:52:00,
2013-09-17 00:53:00,76.1,59.2,0.00,South,180,6.5,12.8,56,0.00,,---,0.00,VWS V14.01,2013-09-17 05:53:00,
2013-09-17 00:54:00,76.1,59.2,0.00,SW,225,9.2,12.8,56,0.00,,---,0.00,VWS V14.01,2013-09-17 05:54:00,
2013-09-17 00:55:00,76.1,59.2,0.00,SW,225,8.1,12.8,56,0.00,,---,0.00,VWS V14.01,2013-09-17 05:55:00,
2013-09-17 00:56:00,76.2,59.4,0.00,South,180,6.0,12.8,56,0.00,,---,0.00,VWS V14.01,2013-09-17 05:56:00,
2013-09-17 00:57:00,76.2,59.9,0.00,South,180,8.1,12.8,57,0.00,,---,0.00,VWS V14.01,2013-09-17 05:57:00,
2013-09-17 00:58:00,76.2,59.4,0.00,SSE,158,10.7,12.8,56,0.00,,---,0.00,VWS V14.01,2013-09-17 05:58:00,
2013-09-17 00:59:00,76.2,58.9,0.00,South,180,6.3,13.0,55,0.00,,---,0.00,VWS V14.01,2013-09-17 05:59:00,
2013-09-17 01:00:00,76.2,59.4,0.00,South,180,10.3,13.9,56,0.00,,---,0.00,VWS V14.01,2013-09-17 06:00:00,
2013-09-17 01:01:00,76.1,58.7,0.00,SW,225,8.1,10.3,55,0.00,,---,0.00,VWS V14.01,2013-09-17 06:01:00,
2013-09-17 01:02:00,76.2,58.9,0.00,South,180,7.6,10.3,55,0.00,,---,0.00,VWS V14.01,2013-09-17 06:02:00,
2013-09-17 01:03:00,76.2,58.4,0.00,South,180,6.5,10.3,54,0.00,,---,0.00,VWS V14.01,2013-09-17 06:03:00,
2013-09-17 01:04:00,76.2,58.4,0.00,South,180,6.5,10.3,54,0.00,,---,0.00,VWS V14.01,2013-09-17 06:04:00,
2013-09-17 01:05:00,76.4,60.1,0.00,SSW,202,6.3,10.3,57,0.00,,---,0.00,VWS V14.01,2013-09-17 06:05:00,
2013-09-17 01:06:00,76.8,59.4,0.00,SSE,158,10.7,10.7,55,0.00,,---,0.00,VWS V14.01,2013-09-17 06:06:00,
2013-09-17 01:07:00,76.8,59.4,0.00,South,180,10.7,10.7,55,0.00,,---,0.00,VWS V14.01,2013-09-17 06:07:00,
2013-09-17 01:08:00,76.8,59.4,0.00,SE,135,10.3,10.7,55,0.00,,---,0.00,VWS V14.01,2013-09-17 06:08:00,
2013-09-17 01:09:00,77.1,59.7,0.00,South,180,5.6,10.7,55,0.00,,---,0.00,VWS V14.01,2013-09-17 06:09:00,
2013-09-17 01:10:00,77.1,59.7,0.00,SW,225,9.8,10.7,55,0.00,,---,0.00,VWS V14.01,2013-09-17 06:10:00,
2013-09-17 01:11:00,77.1,59.2,0.00,SW,225,7.8,10.7,54,0.00,,---,0.00,VWS V14.01,2013-09-17 06:11:00,
2013-09-17 01:12:00,77.1,59.2,0.00,South,180,13.0,13.0,54,0.00,,---,0.00,VWS V14.01,2013-09-17 06:12:00,
2013-09-17 01:13:00,77.0,58.5,0.00,South,180,8.5,13.0,53,0.00,,---,0.00,VWS V14.01,2013-09-17 06:13:00,
2013-09-17 01:14:00,77.0,58.5,0.00,South,180,10.1,13.0,53,0.00,,---,0.00,VWS V14.01,2013-09-17 06:14:00,
2013-09-17 01:15:00,77.0,58.5,0.00,South,180,7.8,13.0,53,0.00,,---,0.00,VWS V14.01,2013-09-17 06:15:00,
2013-09-17 01:16:00,76.8,58.4,0.00,South,180,8.7,10.5,53,0.00,,---,0.00,VWS V14.01,2013-09-17 06:16:00,
2013-09-17 01:17:00,77.0,58.5,0.00,South,180,7.8,10.5,53,0.00,,---,0.00,VWS V14.01,2013-09-17 06:17:00,
2013-09-17 01:18:00,77.1,58.7,0.00,South,180,10.5,10.5,53,0.00,,---,0.00,VWS V14.01,2013-09-17 06:18:00,
2013-09-17 01:19:00,77.0,58.5,0.00,South,180,7.8,12.3,53,0.00,,---,0.00,VWS V14.01,2013-09-17 06:19:00,
2013-09-17 01:20:00,77.1,59.2,0.00,South,180,8.1,12.3,54,0.00,,---,0.00,VWS V14.01,2013-09-17 06:20:00,
2013-09-17 01:21:00,77.0,58.5,0.00,SSW,202,13.2,13.2,53,0.00,,---,0.00,VWS V14.01,2013-09-17 06:21:00,
2013-09-17 01:22:00,76.4,58.6,0.00,South,180,7.6,15.9,54,0.00,,---,0.00,VWS V14.01,2013-09-17 06:22:00,
2013-09-17 01:23:00,76.8,58.9,0.00,South,180,10.5,15.9,54,0.00,,---,0.00,VWS V14.01,2013-09-17 06:23:00,
2013-09-17 01:24:00,77.1,59.2,0.00,South,180,8.5,15.9,54,0.00,,---,0.00,VWS V14.01,2013-09-17 06:24:00,
2013-09-17 01:25:00,77.1,59.2,0.00,SSW,202,12.3,15.9,54,0.00,,---,0.00,VWS V14.01,2013-09-17 06:25:00,
2013-09-17 01:26:00,77.1,59.2,0.00,South,180,8.1,15.9,54,0.00,,---,0.00,VWS V14.01,2013-09-17 06:26:00,
2013-09-17 01:27:00,77.1,58.7,0.00,South,180,11.9,15.9,53,0.00,,---,0.00,VWS V14.01,2013-09-17 06:27:00,
2013-09-17 01:28:00,77.1,58.7,0.00,SW,225,8.5,15.9,53,0.00,,---,0.00,VWS V14.01,2013-09-17 06:28:00,
2013-09-17 01:29:00,77.1,58.7,0.00,SW,225,7.2,15.9,53,0.00,,---,0.00,VWS V14.01,2013-09-17 06:29:00,
2013-09-17 01:30:00,77.5,59.6,0.00,South,180,9.4,15.9,54,0.00,,---,0.00,VWS V14.01,2013-09-17 06:30:00,
2013-09-17 01:31:00,77.7,58.7,0.00,SW,225,10.5,10.5,52,0.00,,---,0.00,VWS V14.01,2013-09-17 06:31:00,
2013-09-17 01:32:00,77.7,58.7,0.00,South,180,6.3,10.5,52,0.00,,---,0.00,VWS V14.01,2013-09-17 06:32:00,
2013-09-17 01:33:00,78.2,60.2,0.00,SSW,202,9.2,10.5,54,0.00,,---,0.00,VWS V14.01,2013-09-17 06:33:00,
2013-09-17 01:34:00,78.4,59.9,0.00,SW,225,6.0,11.0,53,0.00,,---,0.00,VWS V14.01,2013-09-17 06:34:00,
2013-09-17 01:35:00,78.4,59.3,0.00,South,180,7.4,11.0,52,0.00,,---,0.00,VWS V14.01,2013-09-17 06:35:00,
2013-09-17 01:36:00,78.4,59.3,0.00,SSW,202,10.1,11.0,52,0.00,,---,0.00,VWS V14.01,2013-09-17 06:36:00,
2013-09-17 01:37:00,78.2,59.2,0.00,SW,225,6.3,11.0,52,0.00,,---,0.00,VWS V14.01,2013-09-17 06:37:00,
2013-09-17 01:38:00,78.2,59.2,0.00,South,180,10.5,11.0,52,0.00,,---,0.00,VWS V14.01,2013-09-17 06:38:00,
2013-09-17 01:39:00,78.2,58.6,0.00,SSW,202,10.3,13.0,51,0.00,,---,0.00,VWS V14.01,2013-09-17 06:39:00,
2013-09-17 01:40:00,78.4,58.8,0.00,SW,225,7.6,13.0,51,0.00,,---,0.00,VWS V14.01,2013-09-17 06:40:00,
2013-09-17 01:41:00,78.4,58.8,0.00,SW,225,6.5,13.0,51,0.00,,---,0.00,VWS V14.01,2013-09-17 06:41:00,
2013-09-17 01:42:00,78.8,59.1,0.00,SSW,202,4.9,13.0,51,0.00,,---,0.00,VWS V14.01,2013-09-17 06:42:00,
2013-09-17 01:43:00,78.9,59.3,0.00,South,180,12.3,13.0,51,0.00,,---,0.00,VWS V14.01,2013-09-17 06:43:00,
2013-09-17 01:44:00,79.1,60.0,0.00,SW,225,6.5,13.0,52,0.00,,---,0.00,VWS V14.01,2013-09-17 06:44:00,
2013-09-17 01:45:00,79.1,58.9,0.00,SW,225,7.6,13.0,50,0.00,,---,0.00,VWS V14.01,2013-09-17 06:45:00,
2013-09-17 01:46:00,79.3,59.1,0.00,SW,225,7.2,7.6,50,0.00,,---,0.00,VWS V14.01,2013-09-17 06:46:00,
2013-09-17 01:47:00,79.3,59.6,0.00,SW,225,7.4,10.3,51,0.00,,---,0.00,VWS V14.01,2013-09-17 06:47:00,
2013-09-17 01:48:00,79.3,59.6,0.00,SW,225,8.7,10.3,51,0.00,,---,0.00,VWS V14.01,2013-09-17 06:48:00,
2013-09-17 01:49:00,79.5,59.8,0.00,SSW,202,9.4,10.3,51,0.00,,---,0.00,VWS V14.01,2013-09-17 06:49:00,
2013-09-17 01:50:00,79.5,59.8,0.00,South,180,5.6,10.3,51,0.00,,---,0.00,VWS V14.01,2013-09-17 06:50:00,
2013-09-17 01:51:00,79.8,59.0,0.00,South,180,7.8,10.3,49,0.00,,---,0.00,VWS V14.01,2013-09-17 06:51:00,
2013-09-17 01:52:00,79.8,59.0,0.00,South,180,8.1,10.3,49,0.00,,---,0.00,VWS V14.01,2013-09-17 06:52:00,
2013-09-17 01:53:00,79.5,58.7,0.00,South,180,6.3,10.3,49,0.00,,---,0.00,VWS V14.01,2013-09-17 06:53:00,
2013-09-17 01:54:00,79.7,58.8,0.00,SW,225,6.3,10.3,49,0.00,,---,0.00,VWS V14.01,2013-09-17 06:54:00,
2013-09-17 01:55:00,79.7,59.4,0.00,SSW,202,7.8,10.5,50,0.00,,---,0.00,VWS V14.01,2013-09-17 06:55:00,
2013-09-17 01:56:00,79.8,59.0,0.00,SW,225,11.0,11.0,49,0.00,,---,0.00,VWS V14.01,2013-09-17 06:56:00,
2013-09-17 01:57:00,80.0,59.2,0.00,SW,225,8.1,11.0,49,0.00,,---,0.00,VWS V14.01,2013-09-17 06:57:00,
2013-09-17 01:58:00,80.0,59.2,0.00,SW,225,5.4,11.0,49,0.00,,---,0.00,VWS V14.01,2013-09-17 06:58:00,
2013-09-17 01:59:00,80.2,59.3,0.00,SW,225,7.6,11.0,49,0.00,,---,0.00,VWS V14.01,2013-09-17 06:59:00,
2013-09-17 02:00:00,80.4,59.5,0.00,South,180,7.4,11.0,49,0.00,,---,0.00,VWS V14.01,2013-09-17 07:00:00,
2013-09-17 02:01:00,80.6,59.7,0.00,South,180,10.1,10.3,49,0.00,,---,0.00,VWS V14.01,2013-09-17 07:01:00,
2013-09-17 02:02:00,80.6,59.7,0.00,South,180,10.1,10.3,49,0.00,,---,0.00,VWS V14.01,2013-09-17 07:02:00,
2013-09-17 02:03:00,80.6,59.7,0.00,South,180,12.3,16.1,49,0.00,,---,0.00,VWS V14.01,2013-09-17 07:03:00,
2013-09-17 02:04:00,80.2,59.3,0.00,South,180,8.7,16.1,49,0.00,,---,0.00,VWS V14.01,2013-09-17 07:04:00,
2013-09-17 02:05:00,80.2,59.3,0.00,South,180,7.2,16.1,49,0.00,,---,0.00,VWS V14.01,2013-09-17 07:05:00,
2013-09-17 02:06:00,80.2,59.3,0.00,SW,225,8.1,16.1,49,0.00,,---,0.00,VWS V14.01,2013-09-17 07:06:00,
2013-09-17 02:07:00,80.4,58.9,0.00,SW,225,7.4,16.1,48,0.00,,---,0.00,VWS V14.01,2013-09-17 07:07:00,
2013-09-17 02:08:00,80.4,58.9,0.00,SW,225,6.3,16.1,48,0.00,,---,0.00,VWS V14.01,2013-09-17 07:08:00,
2013-09-17 02:09:00,80.7,59.2,0.00,SSW,202,9.0,16.1,48,0.00,,---,0.00,VWS V14.01,2013-09-17 07:09:00,
2013-09-17 02:10:00,80.7,59.2,0.00,SSE,158,8.7,16.1,48,0.00,,---,0.00,VWS V14.01,2013-09-17 07:10:00,
2013-09-17 02:11:00,80.6,59.1,0.00,South,180,8.7,16.1,48,0.00,,---,0.00,VWS V14.01,2013-09-17 07:11:00,
2013-09-17 02:12:00,80.6,59.1,0.00,SE,135,5.4,16.1,48,0.00,,---,0.00,VWS V14.01,2013-09-17 07:12:00,
2013-09-17 02:13:00,80.7,59.2,0.00,South,180,6.0,16.1,48,0.00,,---,0.00,VWS V14.01,2013-09-17 07:13:00,
2013-09-17 02:14:00,80.4,58.3,0.00,South,180,13.2,16.1,47,0.00,,---,0.00,VWS V14.01,2013-09-17 07:14:00,
2013-09-17 02:15:00,80.4,58.3,0.00,South,180,8.5,16.1,47,0.00,,---,0.00,VWS V14.01,2013-09-17 07:15:00,
2013-09-17 02:16:00,80.6,59.1,0.00,SW,225,10.1,10.7,48,0.00,,---,0.00,VWS V14.01,2013-09-17 07:16:00,
2013-09-17 02:17:00,80.7,59.2,0.00,South,180,13.9,13.9,48,0.00,,---,0.00,VWS V14.01,2013-09-17 07:17:00,
2013-09-17 02:18:00,80.2,58.8,0.00,SE,135,6.0,13.9,48,0.00,,---,0.00,VWS V14.01,2013-09-17 07:18:00,
2013-09-17 02:19:00,80.2,58.8,0.00,South,180,10.3,13.9,48,0.00,,---,0.00,VWS V14.01,2013-09-17 07:19:00,
2013-09-17 02:20:00,80.2,58.8,0.00,South,180,8.7,13.9,48,0.00,,---,0.00,VWS V14.01,2013-09-17 07:20:00,
2013-09-17 02:21:00,80.4,58.9,0.00,South,180,9.4,13.9,48,0.00,,---,0.00,VWS V14.01,2013-09-17 07:21:00,
2013-09-17 02:22:00,80.6,59.1,0.00,SSE,158,4.9,13.9,48,0.00,,---,0.00,VWS V14.01,2013-09-17 07:22:00,
2013-09-17 02:23:00,81.1,60.2,0.00,South,180,13.4,13.9,49,0.00,,---,0.00,VWS V14.01,2013-09-17 07:23:00,
2013-09-17 02:24:00,80.4,58.3,0.00,South,180,12.1,13.9,47,0.00,,---,0.00,VWS V14.01,2013-09-17 07:24:00,
2013-09-17 02:25:00,80.6,58.5,0.00,SSE,158,8.5,16.1,47,0.00,,---,0.00,VWS V14.01,2013-09-17 07:25:00,
2013-09-17 02:26:00,80.7,59.2,0.00,South,180,7.8,16.1,48,0.00,,---,0.00,VWS V14.01,2013-09-17 07:26:00,
2013-09-17 02:27:00,80.7,58.7,0.00,South,180,10.3,16.1,47,0.00,,---,0.00,VWS V14.01,2013-09-17 07:27:00,
2013-09-17 02:28:00,81.1,59.0,0.00,SW,225,6.3,16.1,47,0.00,,---,0.00,VWS V14.01,2013-09-17 07:28:00,
2013-09-17 02:29:00,81.1,59.0,0.00,South,180,7.4,16.1,47,0.00,,---,0.00,VWS V14.01,2013-09-17 07:29:00,
2013-09-17 02:30:00,81.1,59.0,0.00,SW,225,9.6,16.1,47,0.00,,---,0.00,VWS V14.01,2013-09-17 07:30:00,
2013-09-17 02:31:00,81.3,59.2,0.00,South,180,6.3,10.1,47,0.00,,---,0.00,VWS V14.01,2013-09-17 07:31:00,
2013-09-17 02:32:00,81.5,59.3,0.00,South,180,6.0,10.1,47,0.00,,---,0.00,VWS V14.01,2013-09-17 07:32:00,
2013-09-17 02:33:00,81.5,59.3,0.00,SW,225,7.6,10.1,47,0.00,,---,0.00,VWS V14.01,2013-09-17 07:33:00,
2013-09-17 02:34:00,81.5,59.3,0.00,SSW,202,8.7,10.1,47,0.00,,---,0.00,VWS V14.01,2013-09-17 07:34:00,
2013-09-17 02:35:00,81.5,59.3,0.00,South,180,13.0,13.0,47,0.00,,---,0.00,VWS V14.01,2013-09-17 07:35:00,
2013-09-17 02:36:00,81.8,59.6,0.00,South,180,13.2,15.2,47,0.00,,---,0.00,VWS V14.01,2013-09-17 07:36:00,
2013-09-17 02:37:00,81.5,59.3,0.00,South,180,12.5,15.2,47,0.00,,---,0.00,VWS V14.01,2013-09-17 07:37:00,
2013-09-17 02:38:00,81.1,58.4,0.00,SSE,158,12.3,16.6,46,0.00,,---,0.00,VWS V14.01,2013-09-17 07:38:00,
2013-09-17 02:39:00,80.9,58.2,0.00,South,180,9.6,16.6,46,0.00,,---,0.00,VWS V14.01,2013-09-17 07:39:00,
2013-09-17 02:40:00,81.1,59.0,0.00,South,180,10.1,16.6,47,0.00,,---,0.00,VWS V14.01,2013-09-17 07:40:00,
2013-09-17 02:41:00,81.3,59.2,0.00,South,180,5.8,16.6,47,0.00,,---,0.00,VWS V14.01,2013-09-17 07:41:00,
2013-09-17 02:42:00,81.6,59.5,0.00,South,180,10.1,16.6,47,0.00,,---,0.00,VWS V14.01,2013-09-17 07:42:00,
2013-09-17 02:43:00,81.3,58.5,0.00,South,180,7.8,16.6,46,0.00,,---,0.00,VWS V14.01,2013-09-17 07:43:00,
2013-09-17 02:44:00,81.5,58.7,0.00,South,180,13.2,16.6,46,0.00,,---,0.00,VWS V14.01,2013-09-17 07:44:00,
2013-09-17 02:45:00,81.3,58.5,0.00,South,180,10.5,16.6,46,0.00,,---,0.00,VWS V14.01,2013-09-17 07:45:00,
2013-09-17 02:46:00,81.1,58.4,0.00,South,180,8.5,12.8,46,0.00,,---,0.00,VWS V14.01,2013-09-17 07:46:00,
2013-09-17 02:47:00,81.1,58.4,0.00,South,180,12.8,12.8,46,0.00,,---,0.00,VWS V14.01,2013-09-17 07:47:00,
2013-09-17 02:49:00,81.5,58.7,0.00,South,180,14.8,14.8,46,0.00,,---,0.00,VWS V14.01,2013-09-17 07:49:00,
2013-09-17 02:51:00,81.1,58.4,0.00,South,180,8.5,14.8,46,0.00,,---,0.00,VWS V14.01,2013-09-17 07:51:00,
2013-09-17 02:52:00,81.5,58.7,0.00,South,180,12.1,14.8,46,0.00,,---,0.00,VWS V14.01,2013-09-17 07:52:00,
2013-09-17 02:53:00,81.5,58.7,0.00,South,180,12.3,14.8,46,0.00,,---,0.00,VWS V14.01,2013-09-17 07:53:00,
2013-09-17 02:54:00,81.6,58.9,0.00,SE,135,11.0,14.8,46,0.00,,---,0.00,VWS V14.01,2013-09-17 07:54:00,
2013-09-17 02:56:00,81.8,58.4,0.00,South,180,6.0,14.8,45,0.00,,---,0.00,VWS V14.01,2013-09-17 07:56:00,
2013-09-17 02:57:00,81.8,58.4,0.00,South,180,12.5,14.8,45,0.00,,---,0.00,VWS V14.01,2013-09-17 07:57:00,
2013-09-17 03:00:00,81.8,58.4,0.00,SW,225,10.7,14.8,45,0.00,,---,0.00,VWS V14.01,2013-09-17 08:00:00,
2013-09-17 03:01:00,81.8,58.4,0.00,South,180,11.0,13.2,45,0.00,,---,0.00,VWS V14.01,2013-09-17 08:01:00,
2013-09-17 03:02:00,82.0,58.6,0.00,South,180,10.1,13.2,45,0.00,,---,0.00,VWS V14.01,2013-09-17 08:02:00,
2013-09-17 03:03:00,82.0,58.6,0.00,South,180,10.1,13.2,45,0.00,,---,0.00,VWS V14.01,2013-09-17 08:03:00,
2013-09-17 03:04:00,82.0,58.6,0.00,SSW,202,10.3,13.2,45,0.00,,---,0.00,VWS V14.01,2013-09-17 08:04:00,
2013-09-17 03:05:00,82.0,58.6,0.00,SSW,202,10.3,13.2,45,0.00,,---,0.00,VWS V14.01,2013-09-17 08:05:00,
2013-09-17 03:06:00,82.0,58.6,0.00,South,180,9.6,13.2,45,0.00,,---,0.00,VWS V14.01,2013-09-17 08:06:00,
2013-09-17 03:07:00,82.0,58.6,0.00,South,180,9.8,13.2,45,0.00,,---,0.00,VWS V14.01,2013-09-17 08:07:00,
2013-09-17 03:08:00,82.5,58.5,0.00,SSE,158,16.6,16.6,44,0.00,,---,0.00,VWS V14.01,2013-09-17 08:08:00,
2013-09-17 03:09:00,82.4,58.3,0.00,South,180,8.1,16.6,44,0.00,,---,0.00,VWS V14.01,2013-09-17 08:09:00,
2013-09-17 03:10:00,82.0,58.0,0.00,SSE,158,12.8,16.6,44,0.00,,---,0.00,VWS V14.01,2013-09-17 08:10:00,
2013-09-17 03:11:00,82.0,58.0,0.00,South,180,14.8,19.0,44,0.00,,---,0.00,VWS V14.01,2013-09-17 08:11:00,
2013-09-17 03:13:00,82.0,58.0,0.00,South,180,14.8,19.0,44,0.00,,---,0.00,VWS V14.01,2013-09-17 08:13:00,
2013-09-17 03:14:00,82.5,58.5,0.00,South,180,9.6,19.0,44,0.00,,---,0.00,VWS V14.01,2013-09-17 08:14:00,
2013-09-17 03:15:00,82.5,58.5,0.00,South,180,13.2,19.0,44,0.00,,---,0.00,VWS V14.01,2013-09-17 08:15:00,
2013-09-17 03:16:00,82.4,58.9,0.00,South,180,9.8,15.2,45,0.00,,---,0.00,VWS V14.01,2013-09-17 08:16:00,
2013-09-17 03:17:00,82.4,58.3,0.00,SSW,202,10.5,15.2,44,0.00,,---,0.00,VWS V14.01,2013-09-17 08:17:00,
2013-09-17 03:18:00,82.4,57.6,0.00,South,180,11.0,15.2,43,0.00,,---,0.00,VWS V14.01,2013-09-17 08:18:00,
2013-09-17 03:19:00,82.2,57.5,0.00,South,180,12.1,15.2,43,0.00,,---,0.00,VWS V14.01,2013-09-17 08:19:00,
2013-09-17 03:20:00,82.2,57.5,0.00,South,180,12.1,15.2,43,0.00,,---,0.00,VWS V14.01,2013-09-17 08:20:00,
2013-09-17 03:21:00,82.7,58.6,0.00,South,180,7.6,15.2,44,0.00,,---,0.00,VWS V14.01,2013-09-17 08:21:00,
2013-09-17 03:22:00,82.9,58.8,0.00,SW,225,7.6,15.2,44,0.00,,---,0.00,VWS V14.01,2013-09-17 08:22:00,
2013-09-17 03:24:00,83.1,58.9,0.00,SW,225,8.1,15.2,44,0.00,,---,0.00,VWS V14.01,2013-09-17 08:24:00,
2013-09-17 03:25:00,83.3,58.5,0.00,SE,135,6.9,15.2,43,0.00,,---,0.00,VWS V14.01,2013-09-17 08:25:00,
2013-09-17 03:27:00,83.1,58.3,0.00,South,180,14.3,15.2,43,0.00,,---,0.00,VWS V14.01,2013-09-17 08:27:00,
2013-09-17 03:28:00,83.1,58.3,0.00,SSE,158,10.5,15.2,43,0.00,,---,0.00,VWS V14.01,2013-09-17 08:28:00,
2013-09-17 03:29:00,83.1,58.3,0.00,South,180,7.6,15.2,43,0.00,,---,0.00,VWS V14.01,2013-09-17 08:29:00,
2013-09-17 03:31:00,83.3,58.5,0.00,South,180,8.1,15.2,43,0.00,,---,0.00,VWS V14.01,2013-09-17 08:31:00,
2013-09-17 03:32:00,83.4,58.6,0.00,South,180,12.3,15.2,43,0.00,,---,0.00,VWS V14.01,2013-09-17 08:32:00,
2013-09-17 03:33:00,83.4,58.6,0.00,South,180,15.2,15.2,43,0.00,,---,0.00,VWS V14.01,2013-09-17 08:33:00,
2013-09-17 03:34:00,83.1,58.3,0.00,SW,225,10.7,15.2,43,0.00,,---,0.00,VWS V14.01,2013-09-17 08:34:00,
2013-09-17 03:35:00,83.3,58.5,0.00,South,180,10.5,15.2,43,0.00,,---,0.00,VWS V14.01,2013-09-17 08:35:00,
2013-09-17 03:36:00,83.3,58.5,0.00,South,180,8.5,15.2,43,0.00,,---,0.00,VWS V14.01,2013-09-17 08:36:00,
2013-09-17 03:37:00,83.3,58.5,0.00,SSW,202,9.8,15.2,43,0.00,,---,0.00,VWS V14.01,2013-09-17 08:37:00,
2013-09-17 03:39:00,83.4,58.6,0.00,SSW,202,11.0,15.2,43,0.00,,---,0.00,VWS V14.01,2013-09-17 08:39:00,
2013-09-17 03:40:00,83.8,58.3,0.00,South,180,7.4,15.2,42,0.00,,---,0.00,VWS V14.01,2013-09-17 08:40:00,
2013-09-17 03:41:00,83.8,58.3,0.00,SW,225,6.0,15.2,42,0.00,,---,0.00,VWS V14.01,2013-09-17 08:41:00,
2013-09-17 03:42:00,83.8,58.3,0.00,SW,225,6.0,15.2,42,0.00,,---,0.00,VWS V14.01,2013-09-17 08:42:00,
2013-09-17 03:43:00,84.2,58.6,0.00,SW,225,8.5,15.2,42,0.00,,---,0.00,VWS V14.01,2013-09-17 08:43:00,
2013-09-17 03:44:00,84.3,58.8,0.00,South,180,8.7,15.2,42,0.00,,---,0.00,VWS V14.01,2013-09-17 08:44:00,
2013-09-17 03:45:00,84.2,58.6,0.00,South,180,10.1,15.2,42,0.00,,---,0.00,VWS V14.01,2013-09-17 08:45:00,
2013-09-17 03:46:00,84.2,58.6,0.00,South,180,6.5,10.1,42,0.00,,---,0.00,VWS V14.01,2013-09-17 08:46:00,
2013-09-17 03:47:00,84.3,58.8,0.00,South,180,10.5,11.9,42,0.00,,---,0.00,VWS V14.01,2013-09-17 08:47:00,
2013-09-17 03:48:00,84.3,58.8,0.00,SSW,202,7.8,14.8,42,0.00,,---,0.00,VWS V14.01,2013-09-17 08:48:00,
2013-09-17 03:49:00,84.3,58.8,0.00,South,180,12.3,14.8,42,0.00,,---,0.00,VWS V14.01,2013-09-17 08:49:00,
2013-09-17 03:50:00,84.2,58.6,0.00,South,180,7.6,14.8,42,0.00,,---,0.00,VWS V14.01,2013-09-17 08:50:00,
2013-09-17 03:51:00,84.3,58.1,0.00,South,180,9.0,14.8,41,0.00,,---,0.00,VWS V14.01,2013-09-17 08:51:00,
2013-09-17 03:52:00,84.5,58.3,0.00,South,180,14.8,14.8,41,0.00,,---,0.00,VWS V14.01,2013-09-17 08:52:00,
2013-09-17 03:53:00,84.3,58.8,0.00,SSW,202,12.1,14.8,42,0.00,,---,0.00,VWS V14.01,2013-09-17 08:53:00,
2013-09-17 03:54:00,84.3,58.8,0.00,South,180,13.2,14.8,42,0.00,,---,0.00,VWS V14.01,2013-09-17 08:54:00,
2013-09-17 03:55:00,84.2,57.9,0.00,South,180,14.1,14.8,41,0.00,,---,0.00,VWS V14.01,2013-09-17 08:55:00,
2013-09-17 03:56:00,84.0,57.8,0.00,South,180,11.0,14.8,41,0.00,,---,0.00,VWS V14.01,2013-09-17 08:56:00,
2013-09-17 03:57:00,83.6,58.1,0.00,South,180,11.9,15.4,42,0.00,,---,0.00,VWS V14.01,2013-09-17 08:57:00,
2013-09-17 03:58:00,83.6,58.1,0.00,SW,225,8.5,15.4,42,0.00,,---,0.00,VWS V14.01,2013-09-17 08:58:00,
2013-09-17 03:59:00,83.6,58.1,0.00,SW,225,8.5,15.4,42,0.00,,---,0.00,VWS V14.01,2013-09-17 08:59:00,
2013-09-17 04:00:00,84.5,58.3,0.00,South,180,6.7,6.7,41,0.00,,---,0.00,VWS V14.01,2013-09-17 09:00:00,
2013-09-17 04:01:00,84.5,58.3,0.00,South,180,12.5,14.8,41,0.00,,---,0.00,VWS V14.01,2013-09-17 09:01:00,
2013-09-17 04:02:00,84.2,57.9,0.00,South,180,10.7,14.8,41,0.00,,---,0.00,VWS V14.01,2013-09-17 09:02:00,
2013-09-17 04:03:00,84.2,57.9,0.00,SW,225,12.8,14.8,41,0.00,,---,0.00,VWS V14.01,2013-09-17 09:03:00,
2013-09-17 04:04:00,84.3,57.4,0.00,SSW,202,9.8,14.8,40,0.00,,---,0.00,VWS V14.01,2013-09-17 09:04:00,
2013-09-17 04:05:00,84.3,57.4,0.00,SW,225,9.8,14.8,40,0.00,,---,0.00,VWS V14.01,2013-09-17 09:05:00,
2013-09-17 04:06:00,84.3,57.4,0.00,SSW,202,8.1,14.8,40,0.00,,---,0.00,VWS V14.01,2013-09-17 09:06:00,
2013-09-17 04:07:00,84.5,57.6,0.00,South,180,13.2,14.8,40,0.00,,---,0.00,VWS V14.01,2013-09-17 09:07:00,
2013-09-17 04:08:00,84.7,58.4,0.00,South,180,7.4,14.8,41,0.00,,---,0.00,VWS V14.01,2013-09-17 09:08:00,
2013-09-17 04:09:00,84.7,58.4,0.00,SW,225,7.6,14.8,41,0.00,,---,0.00,VWS V14.01,2013-09-17 09:09:00,
2013-09-17 04:10:00,84.9,57.9,0.00,South,180,8.7,14.8,40,0.00,,---,0.00,VWS V14.01,2013-09-17 09:10:00,
2013-09-17 04:11:00,84.7,57.7,0.00,SSW,202,10.5,14.8,40,0.00,,---,0.00,VWS V14.01,2013-09-17 09:11:00,
2013-09-17 04:12:00,84.7,57.7,0.00,SW,225,9.4,14.8,40,0.00,,---,0.00,VWS V14.01,2013-09-17 09:12:00,
2013-09-17 04:13:00,84.9,57.9,0.00,SW,225,8.1,14.8,40,0.00,,---,0.00,VWS V14.01,2013-09-17 09:13:00,
2013-09-17 04:14:00,85.2,58.2,0.00,South,180,10.1,14.8,40,0.00,,---,0.00,VWS V14.01,2013-09-17 09:14:00,
2013-09-17 04:15:00,85.2,58.9,0.00,SW,225,10.5,14.8,41,0.00,,---,0.00,VWS V14.01,2013-09-17 09:15:00,
2013-09-17 04:16:00,85.2,58.2,0.00,South,180,10.1,10.5,40,0.00,,---,0.00,VWS V14.01,2013-09-17 09:16:00,
2013-09-17 04:17:00,85.2,58.9,0.00,South,180,7.8,10.5,41,0.00,,---,0.00,VWS V14.01,2013-09-17 09:17:00,
2013-09-17 04:18:00,85.1,58.0,0.00,South,180,10.7,12.5,40,0.00,,---,0.00,VWS V14.01,2013-09-17 09:18:00,
2013-09-17 04:20:00,84.9,57.9,0.00,South,180,10.1,17.7,40,0.00,,---,0.00,VWS V14.01,2013-09-17 09:20:00,
2013-09-17 04:21:00,84.5,57.6,0.00,South,180,10.5,17.7,40,0.00,,---,0.00,VWS V14.01,2013-09-17 09:21:00,
2013-09-17 04:22:00,84.5,57.6,0.00,SW,225,10.5,17.7,40,0.00,,---,0.00,VWS V14.01,2013-09-17 09:22:00,
2013-09-17 04:23:00,84.7,57.7,0.00,South,180,6.5,17.7,40,0.00,,---,0.00,VWS V14.01,2013-09-17 09:23:00,
2013-09-17 04:24:00,84.5,57.6,0.00,South,180,10.5,17.7,40,0.00,,---,0.00,VWS V14.01,2013-09-17 09:24:00,
2013-09-17 04:25:00,84.5,57.6,0.00,South,180,10.5,17.7,40,0.00,,---,0.00,VWS V14.01,2013-09-17 09:25:00,
2013-09-17 04:26:00,84.7,57.7,0.00,SW,225,10.7,17.7,40,0.00,,---,0.00,VWS V14.01,2013-09-17 09:26:00,
2013-09-17 04:27:00,84.7,57.7,0.00,SSW,202,9.8,17.7,40,0.00,,---,0.00,VWS V14.01,2013-09-17 09:27:00,
2013-09-17 04:28:00,84.5,57.6,0.00,SW,225,7.8,17.7,40,0.00,,---,0.00,VWS V14.01,2013-09-17 09:28:00,
2013-09-17 04:29:00,84.9,57.9,0.00,SW,225,8.7,17.7,40,0.00,,---,0.00,VWS V14.01,2013-09-17 09:29:00,
2013-09-17 04:30:00,84.9,57.9,0.00,SSW,202,7.4,17.7,40,0.00,,---,0.00,VWS V14.01,2013-09-17 09:30:00,
2013-09-17 04:31:00,84.9,57.9,0.00,SSW,202,7.4,7.4,40,0.00,,---,0.00,VWS V14.01,2013-09-17 09:31:00,
2013-09-17 04:32:00,85.2,58.2,0.00,South,180,10.7,10.7,40,0.00,,---,0.00,VWS V14.01,2013-09-17 09:32:00,
2013-09-17 04:33:00,85.1,57.3,0.00,South,180,11.4,11.4,39,0.00,,---,0.00,VWS V14.01,2013-09-17 09:33:00,
2013-09-17 04:34:00,84.9,57.9,0.00,SSW,202,9.8,12.1,40,0.00,,---,0.00,VWS V14.01,2013-09-17 09:34:00,
2013-09-17 04:35:00,84.5,57.6,0.00,South,180,9.2,14.5,40,0.00,,---,0.00,VWS V14.01,2013-09-17 09:35:00,
2013-09-17 04:36:00,84.7,57.7,0.00,South,180,10.3,14.5,40,0.00,,---,0.00,VWS V14.01,2013-09-17 09:36:00,
2013-09-17 04:37:00,84.5,57.6,0.00,South,180,8.7,14.5,40,0.00,,---,0.00,VWS V14.01,2013-09-17 09:37:00,
2013-09-17 04:38:00,84.9,57.9,0.00,South,180,8.5,14.5,40,0.00,,---,0.00,VWS V14.01,2013-09-17 09:38:00,
2013-09-17 04:39:00,84.9,57.9,0.00,South,180,16.6,16.6,40,0.00,,---,0.00,VWS V14.01,2013-09-17 09:39:00,
2013-09-17 04:40:00,84.5,57.6,0.00,SW,225,10.5,16.6,40,0.00,,---,0.00,VWS V14.01,2013-09-17 09:40:00,
2013-09-17 04:42:00,84.7,57.7,0.00,South,180,15.2,16.6,40,0.00,,---,0.00,VWS V14.01,2013-09-17 09:42:00,
2013-09-17 04:43:00,84.7,57.7,0.00,South,180,12.5,16.6,40,0.00,,---,0.00,VWS V14.01,2013-09-17 09:43:00,
2013-09-17 04:44:00,84.7,57.7,0.00,South,180,10.5,16.6,40,0.00,,---,0.00,VWS V14.01,2013-09-17 09:44:00,
2013-09-17 04:45:00,84.7,57.7,0.00,South,180,12.3,16.6,40,0.00,,---,0.00,VWS V14.01,2013-09-17 09:45:00,
2013-09-17 04:46:00,84.7,57.7,0.00,South,180,13.4,13.4,40,0.00,,---,0.00,VWS V14.01,2013-09-17 09:46:00,
2013-09-17 04:47:00,84.7,57.7,0.00,South,180,10.3,13.4,40,0.00,,---,0.00,VWS V14.01,2013-09-17 09:47:00,
2013-09-17 04:48:00,84.7,57.7,0.00,SSW,202,7.8,13.4,40,0.00,,---,0.00,VWS V14.01,2013-09-17 09:48:00,
2013-09-17 04:49:00,84.7,57.7,0.00,SW,225,6.0,13.4,40,0.00,,---,0.00,VWS V14.01,2013-09-17 09:49:00,
2013-09-17 04:50:00,84.7,57.7,0.00,SSE,158,11.0,17.0,40,0.00,,---,0.00,VWS V14.01,2013-09-17 09:50:00,
2013-09-17 04:51:00,84.9,57.9,0.00,South,180,10.3,17.0,40,0.00,,---,0.00,VWS V14.01,2013-09-17 09:51:00,
2013-09-17 04:52:00,84.9,57.9,0.00,SSW,202,10.7,17.0,40,0.00,,---,0.00,VWS V14.01,2013-09-17 09:52:00,
2013-09-17 04:53:00,84.7,57.0,0.00,SSW,202,13.2,17.0,39,0.00,,---,0.00,VWS V14.01,2013-09-17 09:53:00,
2013-09-17 04:54:00,84.7,57.0,0.00,SSW,202,10.7,17.0,39,0.00,,---,0.00,VWS V14.01,2013-09-17 09:54:00,
2013-09-17 04:55:00,84.7,57.0,0.00,South,180,13.2,17.0,39,0.00,,---,0.00,VWS V14.01,2013-09-17 09:55:00,
2013-09-17 04:56:00,84.5,57.6,0.00,South,180,10.5,17.0,40,0.00,,---,0.00,VWS V14.01,2013-09-17 09:56:00,
2013-09-17 04:57:00,84.3,56.7,0.00,South,180,16.3,17.0,39,0.00,,---,0.00,VWS V14.01,2013-09-17 09:57:00,
2013-09-17 04:58:00,84.5,56.9,0.00,South,180,12.8,17.0,39,0.00,,---,0.00,VWS V14.01,2013-09-17 09:58:00,
2013-09-17 04:59:00,84.7,57.0,0.00,SW,225,11.4,17.0,39,0.00,,---,0.00,VWS V14.01,2013-09-17 09:59:00,
2013-09-17 05:00:00,84.7,57.0,0.00,South,180,13.4,17.0,39,0.00,,---,0.00,VWS V14.01,2013-09-17 10:00:00,
2013-09-17 05:01:00,84.5,56.9,0.00,South,180,10.7,13.4,39,0.00,,---,0.00,VWS V14.01,2013-09-17 10:01:00,
2013-09-17 05:02:00,84.3,56.7,0.00,South,180,8.5,13.4,39,0.00,,---,0.00,VWS V14.01,2013-09-17 10:02:00,
2013-09-17 05:03:00,84.5,56.9,0.00,South,180,10.3,13.4,39,0.00,,---,0.00,VWS V14.01,2013-09-17 10:03:00,
2013-09-17 05:04:00,84.7,57.0,0.00,South,180,12.1,13.4,39,0.00,,---,0.00,VWS V14.01,2013-09-17 10:04:00,
2013-09-17 05:05:00,84.7,57.0,0.00,South,180,7.6,13.4,39,0.00,,---,0.00,VWS V14.01,2013-09-17 10:05:00,
2013-09-17 05:06:00,84.9,57.2,0.00,South,180,9.8,13.4,39,0.00,,---,0.00,VWS V14.01,2013-09-17 10:06:00,
2013-09-17 05:07:00,84.7,57.0,0.00,SSE,158,11.0,13.4,39,0.00,,---,0.00,VWS V14.01,2013-09-17 10:07:00,
2013-09-17 05:08:00,84.7,57.0,0.00,South,180,13.2,13.4,39,0.00,,---,0.00,VWS V14.01,2013-09-17 10:08:00,
2013-09-17 05:09:00,84.7,57.0,0.00,SW,225,6.0,13.4,39,0.00,,---,0.00,VWS V14.01,2013-09-17 10:09:00,
2013-09-17 05:10:00,84.7,57.0,0.00,South,180,7.6,13.4,39,0.00,,---,0.00,VWS V14.01,2013-09-17 10:10:00,
2013-09-17 05:11:00,85.1,57.3,0.00,South,180,10.7,13.4,39,0.00,,---,0.00,VWS V14.01,2013-09-17 10:11:00,
2013-09-17 05:12:00,84.9,57.2,0.00,South,180,8.5,13.4,39,0.00,,---,0.00,VWS V14.01,2013-09-17 10:12:00,
2013-09-17 05:13:00,85.1,57.3,0.00,SSW,202,5.8,13.4,39,0.00,,---,0.00,VWS V14.01,2013-09-17 10:13:00,
2013-09-17 05:14:00,85.1,57.3,0.00,SSW,202,8.7,13.4,39,0.00,,---,0.00,VWS V14.01,2013-09-17 10:14:00,
2013-09-17 05:15:00,85.1,57.3,0.00,SSW,202,8.7,13.4,39,0.00,,---,0.00,VWS V14.01,2013-09-17 10:15:00,
2013-09-17 05:16:00,85.1,57.3,0.00,South,180,12.1,12.1,39,0.00,,---,0.00,VWS V14.01,2013-09-17 10:16:00,
2013-09-17 05:17:00,85.1,57.3,0.00,South,180,8.5,12.1,39,0.00,,---,0.00,VWS V14.01,2013-09-17 10:17:00,
2013-09-17 05:18:00,85.1,57.3,0.00,South,180,7.2,12.1,39,0.00,,---,0.00,VWS V14.01,2013-09-17 10:18:00,
2013-09-17 05:19:00,85.1,56.6,0.00,South,180,9.8,12.1,38,0.00,,---,0.00,VWS V14.01,2013-09-17 10:19:00,
2013-09-17 05:21:00,85.1,56.6,0.00,South,180,11.9,12.1,38,0.00,,---,0.00,VWS V14.01,2013-09-17 10:21:00,
2013-09-17 05:22:00,84.9,57.2,0.00,South,180,8.7,12.1,39,0.00,,---,0.00,VWS V14.01,2013-09-17 10:22:00,
2013-09-17 05:23:00,84.7,57.0,0.00,South,180,14.8,14.8,39,0.00,,---,0.00,VWS V14.01,2013-09-17 10:23:00,
2013-09-17 05:24:00,84.7,57.0,0.00,South,180,9.8,14.8,39,0.00,,---,0.00,VWS V14.01,2013-09-17 10:24:00,
2013-09-17 05:25:00,84.7,57.0,0.00,South,180,7.6,14.8,39,0.00,,---,0.00,VWS V14.01,2013-09-17 10:25:00,
2013-09-17 05:26:00,84.7,57.0,0.00,South,180,10.7,14.8,39,0.00,,---,0.00,VWS V14.01,2013-09-17 10:26:00,
2013-09-17 05:27:00,84.5,56.9,0.00,SSW,202,11.0,14.8,39,0.00,,---,0.00,VWS V14.01,2013-09-17 10:27:00,
2013-09-17 05:28:00,84.5,56.9,0.00,South,180,14.8,14.8,39,0.00,,---,0.00,VWS V14.01,2013-09-17 10:28:00,
2013-09-17 05:29:00,84.2,56.5,0.00,South,180,14.8,19.0,39,0.00,,---,0.00,VWS V14.01,2013-09-17 10:29:00,
2013-09-17 05:30:00,84.0,56.4,0.00,SSW,202,19.9,20.6,39,0.00,,---,0.00,VWS V14.01,2013-09-17 10:30:00,
2013-09-17 05:31:00,83.8,56.2,0.00,South,180,12.5,19.9,39,0.00,,---,0.00,VWS V14.01,2013-09-17 10:31:00,
2013-09-17 05:32:00,84.0,56.4,0.00,SSW,202,14.8,19.9,39,0.00,,---,0.00,VWS V14.01,2013-09-17 10:32:00,
2013-09-17 05:33:00,83.8,56.2,0.00,South,180,15.4,19.9,39,0.00,,---,0.00,VWS V14.01,2013-09-17 10:33:00,
2013-09-17 05:34:00,83.6,56.1,0.00,South,180,12.5,19.9,39,0.00,,---,0.00,VWS V14.01,2013-09-17 10:34:00,
2013-09-17 05:35:00,83.6,56.1,0.00,South,180,12.5,19.9,39,0.00,,---,0.00,VWS V14.01,2013-09-17 10:35:00,
2013-09-17 05:36:00,83.6,56.1,0.00,South,180,11.0,19.9,39,0.00,,---,0.00,VWS V14.01,2013-09-17 10:36:00,
2013-09-17 05:37:00,83.8,56.2,0.00,SW,225,10.3,19.9,39,0.00,,---,0.00,VWS V14.01,2013-09-17 10:37:00,
2013-09-17 05:38:00,83.8,56.2,0.00,SSE,158,12.8,19.9,39,0.00,,---,0.00,VWS V14.01,2013-09-17 10:38:00,
2013-09-17 05:39:00,84.0,56.4,0.00,South,180,9.8,19.9,39,0.00,,---,0.00,VWS V14.01,2013-09-17 10:39:00,
2013-09-17 05:40:00,84.2,56.5,0.00,South,180,17.2,19.9,39,0.00,,---,0.00,VWS V14.01,2013-09-17 10:40:00,
2013-09-17 05:42:00,84.2,56.5,0.00,SSE,158,10.3,19.9,39,0.00,,---,0.00,VWS V14.01,2013-09-17 10:42:00,
2013-09-17 05:44:00,83.4,55.2,0.00,South,180,17.2,19.9,38,0.00,,---,0.00,VWS V14.01,2013-09-17 10:44:00,
2013-09-17 05:45:00,83.6,56.1,0.00,South,180,13.0,19.9,39,0.00,,---,0.00,VWS V14.01,2013-09-17 10:45:00,
2013-09-17 05:46:00,83.6,56.1,0.00,SW,225,13.9,13.9,39,0.00,,---,0.00,VWS V14.01,2013-09-17 10:46:00,
2013-09-17 05:47:00,83.6,56.1,0.00,South,180,12.1,13.9,39,0.00,,---,0.00,VWS V14.01,2013-09-17 10:47:00,
2013-09-17 05:48:00,83.6,56.1,0.00,South,180,10.3,13.9,39,0.00,,---,0.00,VWS V14.01,2013-09-17 10:48:00,
2013-09-17 05:49:00,83.6,56.1,0.00,South,180,10.7,13.9,39,0.00,,---,0.00,VWS V14.01,2013-09-17 10:49:00,
2013-09-17 05:50:00,83.6,56.1,0.00,South,180,13.0,13.9,39,0.00,,---,0.00,VWS V14.01,2013-09-17 10:50:00,
2013-09-17 05:51:00,83.1,55.6,0.00,South,180,14.5,15.4,39,0.00,,---,0.00,VWS V14.01,2013-09-17 10:51:00,
2013-09-17 05:52:00,83.1,55.6,0.00,SSW,202,12.8,15.4,39,0.00,,---,0.00,VWS V14.01,2013-09-17 10:52:00,
2013-09-17 05:53:00,83.1,55.6,0.00,SSE,158,10.7,15.4,39,0.00,,---,0.00,VWS V14.01,2013-09-17 10:53:00,
2013-09-17 05:54:00,83.1,55.6,0.00,South,180,12.1,16.1,39,0.00,,---,0.00,VWS V14.01,2013-09-17 10:54:00,
2013-09-17 05:55:00,83.1,55.6,0.00,South,180,12.8,16.1,39,0.00,,---,0.00,VWS V14.01,2013-09-17 10:55:00,
2013-09-17 05:56:00,83.1,54.9,0.00,South,180,13.0,16.1,38,0.00,,---,0.00,VWS V14.01,2013-09-17 10:56:00,
2013-09-17 05:57:00,83.1,55.6,0.00,SSW,202,12.5,16.1,39,0.00,,---,0.00,VWS V14.01,2013-09-17 10:57:00,
2013-09-17 05:58:00,83.1,54.9,0.00,South,180,10.1,16.1,38,0.00,,---,0.00,VWS V14.01,2013-09-17 10:58:00,
2013-09-17 05:59:00,83.1,55.6,0.00,South,180,12.5,16.1,39,0.00,,---,0.00,VWS V14.01,2013-09-17 10:59:00,
2013-09-17 06:00:00,83.1,55.6,0.00,South,180,10.7,16.1,39,0.00,,---,0.00,VWS V14.01,2013-09-17 11:00:00,
2013-09-17 06:01:00,83.1,55.6,0.00,SW,225,10.5,10.7,39,0.00,,---,0.00,VWS V14.01,2013-09-17 11:01:00,
2013-09-17 06:02:00,83.3,55.8,0.00,SSW,202,8.7,10.7,39,0.00,,---,0.00,VWS V14.01,2013-09-17 11:02:00,
2013-09-17 06:03:00,83.1,55.6,0.00,SSW,202,8.1,13.0,39,0.00,,---,0.00,VWS V14.01,2013-09-17 11:03:00,
2013-09-17 06:04:00,83.1,55.6,0.00,South,180,7.2,13.0,39,0.00,,---,0.00,VWS V14.01,2013-09-17 11:04:00,
2013-09-17 06:05:00,83.1,55.6,0.00,SW,225,10.1,13.0,39,0.00,,---,0.00,VWS V14.01,2013-09-17 11:05:00,
2013-09-17 06:06:00,82.9,55.4,0.00,South,180,10.3,13.0,39,0.00,,---,0.00,VWS V14.01,2013-09-17 11:06:00,
2013-09-17 06:07:00,82.9,55.4,0.00,South,180,11.9,13.0,39,0.00,,---,0.00,VWS V14.01,2013-09-17 11:07:00,
2013-09-17 06:08:00,82.9,55.4,0.00,SSW,202,8.7,13.0,39,0.00,,---,0.00,VWS V14.01,2013-09-17 11:08:00,
2013-09-17 06:09:00,82.9,55.4,0.00,SW,225,7.8,13.0,39,0.00,,---,0.00,VWS V14.01,2013-09-17 11:09:00,
2013-09-17 06:10:00,82.9,55.4,0.00,South,180,12.8,14.5,39,0.00,,---,0.00,VWS V14.01,2013-09-17 11:10:00,
2013-09-17 06:11:00,82.9,55.4,0.00,SW,225,10.5,14.5,39,0.00,,---,0.00,VWS V14.01,2013-09-17 11:11:00,
2013-09-17 06:12:00,82.7,55.3,0.00,South,180,8.1,14.5,39,0.00,,---,0.00,VWS V14.01,2013-09-17 11:12:00,
2013-09-17 06:13:00,82.7,55.3,0.00,South,180,8.1,14.5,39,0.00,,---,0.00,VWS V14.01,2013-09-17 11:13:00,
2013-09-17 06:14:00,82.7,55.3,0.00,South,180,13.0,14.5,39,0.00,,---,0.00,VWS V14.01,2013-09-17 11:14:00,
2013-09-17 06:15:00,82.5,55.1,0.00,South,180,10.1,14.5,39,0.00,,---,0.00,VWS V14.01,2013-09-17 11:15:00,
2013-09-17 06:17:00,82.5,55.1,0.00,SSW,202,9.8,11.0,39,0.00,,---,0.00,VWS V14.01,2013-09-17 11:17:00,
2013-09-17 06:18:00,82.4,55.6,0.00,South,180,8.5,11.0,40,0.00,,---,0.00,VWS V14.01,2013-09-17 11:18:00,
2013-09-17 06:19:00,82.4,55.0,0.00,South,180,8.5,12.5,39,0.00,,---,0.00,VWS V14.01,2013-09-17 11:19:00,
2013-09-17 06:20:00,82.2,54.8,0.00,SW,225,11.0,12.5,39,0.00,,---,0.00,VWS V14.01,2013-09-17 11:20:00,
2013-09-17 06:21:00,82.4,55.0,0.00,South,180,7.6,12.5,39,0.00,,---,0.00,VWS V14.01,2013-09-17 11:21:00,
2013-09-17 06:22:00,82.4,55.0,0.00,South,180,9.8,12.5,39,0.00,,---,0.00,VWS V14.01,2013-09-17 11:22:00,
2013-09-17 06:23:00,82.2,55.5,0.00,South,180,6.5,12.5,40,0.00,,---,0.00,VWS V14.01,2013-09-17 11:23:00,
2013-09-17 06:24:00,82.2,54.8,0.00,South,180,8.7,12.5,39,0.00,,---,0.00,VWS V14.01,2013-09-17 11:24:00,
2013-09-17 06:25:00,82.2,54.8,0.00,South,180,7.8,12.5,39,0.00,,---,0.00,VWS V14.01,2013-09-17 11:25:00,
2013-09-17 06:26:00,82.2,54.8,0.00,SW,225,6.7,12.5,39,0.00,,---,0.00,VWS V14.01,2013-09-17 11:26:00,
2013-09-17 06:28:00,82.2,54.8,0.00,SW,225,6.7,12.5,39,0.00,,---,0.00,VWS V14.01,2013-09-17 11:28:00,
2013-09-17 06:29:00,81.8,55.2,0.00,South,180,8.5,12.5,40,0.00,,---,0.00,VWS V14.01,2013-09-17 11:29:00,
2013-09-17 06:30:00,81.6,55.0,0.00,South,180,6.3,12.5,40,0.00,,---,0.00,VWS V14.01,2013-09-17 11:30:00,
2013-09-17 06:31:00,81.6,55.0,0.00,South,180,8.5,9.8,40,0.00,,---,0.00,VWS V14.01,2013-09-17 11:31:00,
2013-09-17 06:32:00,81.6,55.0,0.00,South,180,8.5,9.8,40,0.00,,---,0.00,VWS V14.01,2013-09-17 11:32:00,
2013-09-17 06:33:00,81.5,54.8,0.00,South,180,8.5,9.8,40,0.00,,---,0.00,VWS V14.01,2013-09-17 11:33:00,
2013-09-17 06:34:00,81.3,55.4,0.00,South,180,10.3,10.5,41,0.00,,---,0.00,VWS V14.01,2013-09-17 11:34:00,
2013-09-17 06:35:00,81.1,55.2,0.00,South,180,8.1,10.5,41,0.00,,---,0.00,VWS V14.01,2013-09-17 11:35:00,
2013-09-17 06:36:00,80.9,55.0,0.00,South,180,9.8,10.5,41,0.00,,---,0.00,VWS V14.01,2013-09-17 11:36:00,
2013-09-17 06:37:00,80.9,55.0,0.00,South,180,10.1,11.9,41,0.00,,---,0.00,VWS V14.01,2013-09-17 11:37:00,
2013-09-17 06:38:00,80.7,54.9,0.00,South,180,10.7,12.5,41,0.00,,---,0.00,VWS V14.01,2013-09-17 11:38:00,
2013-09-17 06:39:00,80.7,54.9,0.00,South,180,12.8,15.2,41,0.00,,---,0.00,VWS V14.01,2013-09-17 11:39:00,
2013-09-17 06:40:00,80.6,54.7,0.00,South,180,10.7,15.2,41,0.00,,---,0.00,VWS V14.01,2013-09-17 11:40:00,
2013-09-17 06:41:00,80.4,54.5,0.00,South,180,14.5,15.7,41,0.00,,---,0.00,VWS V14.01,2013-09-17 11:41:00,
2013-09-17 06:42:00,80.2,54.4,0.00,South,180,10.3,15.7,41,0.00,,---,0.00,VWS V14.01,2013-09-17 11:42:00,
2013-09-17 06:44:00,80.2,54.4,0.00,South,180,8.7,15.7,41,0.00,,---,0.00,VWS V14.01,2013-09-17 11:44:00,
2013-09-17 06:45:00,80.2,54.4,0.00,South,180,10.1,15.7,41,0.00,,---,0.00,VWS V14.01,2013-09-17 11:45:00,
2013-09-17 06:46:00,80.0,54.9,0.00,SSW,202,11.0,11.0,42,0.00,,---,0.00,VWS V14.01,2013-09-17 11:46:00,
2013-09-17 06:47:00,80.0,54.9,0.00,South,180,12.3,13.0,42,0.00,,---,0.00,VWS V14.01,2013-09-17 11:47:00,
2013-09-17 06:48:00,80.0,54.9,0.00,South,180,10.1,13.0,42,0.00,,---,0.00,VWS V14.01,2013-09-17 11:48:00,
2013-09-17 06:49:00,79.8,54.7,0.00,South,180,7.6,13.0,42,0.00,,---,0.00,VWS V14.01,2013-09-17 11:49:00,
2013-09-17 06:50:00,79.7,54.6,0.00,SSE,158,8.7,13.0,42,0.00,,---,0.00,VWS V14.01,2013-09-17 11:50:00,
2013-09-17 06:51:00,79.7,54.6,0.00,South,180,8.5,13.0,42,0.00,,---,0.00,VWS V14.01,2013-09-17 11:51:00,
2013-09-17 06:52:00,79.7,54.6,0.00,South,180,7.8,13.0,42,0.00,,---,0.00,VWS V14.01,2013-09-17 11:52:00,
2013-09-17 06:53:00,79.7,54.6,0.00,South,180,8.5,13.0,42,0.00,,---,0.00,VWS V14.01,2013-09-17 11:53:00,
2013-09-17 06:54:00,79.7,54.6,0.00,South,180,6.5,13.0,42,0.00,,---,0.00,VWS V14.01,2013-09-17 11:54:00,
2013-09-17 06:55:00,79.3,54.2,0.00,South,180,7.6,13.0,42,0.00,,---,0.00,VWS V14.01,2013-09-17 11:55:00,
2013-09-17 06:56:00,79.3,54.2,0.00,South,180,7.6,13.0,42,0.00,,---,0.00,VWS V14.01,2013-09-17 11:56:00,
2013-09-17 06:57:00,79.1,54.7,0.00,South,180,10.1,13.0,43,0.00,,---,0.00,VWS V14.01,2013-09-17 11:57:00,
2013-09-17 06:58:00,79.1,54.7,0.00,South,180,6.0,13.0,43,0.00,,---,0.00,VWS V14.01,2013-09-17 11:58:00,
2013-09-17 06:59:00,79.1,54.7,0.00,South,180,8.1,13.0,43,0.00,,---,0.00,VWS V14.01,2013-09-17 11:59:00,
2013-09-17 07:01:00,78.9,54.6,0.00,SSW,202,7.4,13.0,43,0.00,,---,0.00,VWS V14.01,2013-09-17 12:01:00,
2013-09-17 07:02:00,78.8,54.4,0.00,SW,225,5.6,13.0,43,0.00,,---,0.00,VWS V14.01,2013-09-17 12:02:00,
2013-09-17 07:03:00,78.6,54.2,0.00,SSW,202,7.8,13.0,43,0.00,,---,0.00,VWS V14.01,2013-09-17 12:03:00,
2013-09-17 07:04:00,78.6,54.2,0.00,South,180,6.3,13.0,43,0.00,,---,0.00,VWS V14.01,2013-09-17 12:04:00,
2013-09-17 07:05:00,78.4,54.7,0.00,SW,225,4.9,13.0,44,0.00,,---,0.00,VWS V14.01,2013-09-17 12:05:00,
2013-09-17 07:06:00,78.4,54.7,0.00,SSE,158,6.9,13.0,44,0.00,,---,0.00,VWS V14.01,2013-09-17 12:06:00,
2013-09-17 07:07:00,78.4,54.1,0.00,South,180,5.8,13.0,43,0.00,,---,0.00,VWS V14.01,2013-09-17 12:07:00,
2013-09-17 07:08:00,78.2,54.5,0.00,South,180,9.8,13.0,44,0.00,,---,0.00,VWS V14.01,2013-09-17 12:08:00,
2013-09-17 07:09:00,78.2,54.5,0.00,South,180,6.0,13.0,44,0.00,,---,0.00,VWS V14.01,2013-09-17 12:09:00,
2013-09-17 07:10:00,78.0,54.4,0.00,South,180,5.4,13.0,44,0.00,,---,0.00,VWS V14.01,2013-09-17 12:10:00,
2013-09-17 07:11:00,78.0,54.4,0.00,South,180,5.4,13.0,44,0.00,,---,0.00,VWS V14.01,2013-09-17 12:11:00,
2013-09-17 07:12:00,77.9,54.2,0.00,SW,225,6.7,13.0,44,0.00,,---,0.00,VWS V14.01,2013-09-17 12:12:00,
2013-09-17 07:13:00,77.9,54.2,0.00,South,180,5.8,13.0,44,0.00,,---,0.00,VWS V14.01,2013-09-17 12:13:00,
2013-09-17 07:15:00,77.7,54.1,0.00,South,180,5.6,13.0,44,0.00,,---,0.00,VWS V14.01,2013-09-17 12:15:00,
2013-09-17 07:16:00,77.5,53.9,0.00,SSW,202,5.6,6.3,44,0.00,,---,0.00,VWS V14.01,2013-09-17 12:16:00,
2013-09-17 07:17:00,77.5,53.9,0.00,SSW,202,5.6,6.3,44,0.00,,---,0.00,VWS V14.01,2013-09-17 12:17:00,
2013-09-17 07:18:00,77.5,53.9,0.00,SSW,202,5.6,6.3,44,0.00,,---,0.00,VWS V14.01,2013-09-17 12:18:00,
2013-09-17 07:19:00,77.3,53.7,0.00,SW,225,6.3,6.3,44,0.00,,---,0.00,VWS V14.01,2013-09-17 12:19:00,
2013-09-17 07:20:00,77.1,54.2,0.00,SSW,202,4.0,6.3,45,0.00,,---,0.00,VWS V14.01,2013-09-17 12:20:00,
2013-09-17 07:21:00,77.1,54.2,0.00,South,180,4.0,6.3,45,0.00,,---,0.00,VWS V14.01,2013-09-17 12:21:00,
2013-09-17 07:22:00,77.0,54.0,0.00,South,180,3.4,6.3,45,0.00,,---,0.00,VWS V14.01,2013-09-17 12:22:00,
2013-09-17 07:23:00,76.8,53.9,0.00,SW,225,3.8,6.3,45,0.00,,---,0.00,VWS V14.01,2013-09-17 12:23:00,
2013-09-17 07:24:00,76.8,53.9,0.00,SW,225,3.6,6.3,45,0.00,,---,0.00,VWS V14.01,2013-09-17 12:24:00,
2013-09-17 07:25:00,76.8,53.9,0.00,SW,225,3.6,6.3,45,0.00,,---,0.00,VWS V14.01,2013-09-17 12:25:00,
2013-09-17 07:26:00,76.8,53.9,0.00,SW,225,3.6,6.3,45,0.00,,---,0.00,VWS V14.01,2013-09-17 12:26:00,
2013-09-17 07:27:00,76.2,54.0,0.00,SW,225,4.3,6.3,46,0.00,,---,0.00,VWS V14.01,2013-09-17 12:27:00,
2013-09-17 07:28:00,76.1,53.8,0.00,SW,225,4.0,6.3,46,0.00,,---,0.00,VWS V14.01,2013-09-17 12:28:00,
2013-09-17 07:29:00,76.1,53.8,0.00,SW,225,3.4,6.3,46,0.00,,---,0.00,VWS V14.01,2013-09-17 12:29:00,
2013-09-17 07:30:00,75.9,53.6,0.00,South,180,3.6,6.3,46,0.00,,---,0.00,VWS V14.01,2013-09-17 12:30:00,
2013-09-17 07:31:00,75.9,53.6,0.00,South,180,3.4,4.0,46,0.00,,---,0.00,VWS V14.01,2013-09-17 12:31:00,
2013-09-17 07:32:00,75.5,53.9,0.00,South,180,2.9,4.0,47,0.00,,---,0.00,VWS V14.01,2013-09-17 12:32:00,
2013-09-17 07:33:00,75.5,53.9,0.00,South,180,3.1,4.0,47,0.00,,---,0.00,VWS V14.01,2013-09-17 12:33:00,
2013-09-17 07:34:00,75.5,53.9,0.00,South,180,3.4,4.0,47,0.00,,---,0.00,VWS V14.01,2013-09-17 12:34:00,
2013-09-17 07:35:00,75.5,53.9,0.00,South,180,3.4,4.0,47,0.00,,---,0.00,VWS V14.01,2013-09-17 12:35:00,
2013-09-17 07:36:00,75.0,54.0,0.00,South,180,2.9,4.0,48,0.00,,---,0.00,VWS V14.01,2013-09-17 12:36:00,
2013-09-17 07:37:00,75.0,54.0,0.00,South,180,3.1,4.0,48,0.00,,---,0.00,VWS V14.01,2013-09-17 12:37:00,
2013-09-17 07:38:00,75.0,54.0,0.00,South,180,3.1,4.0,48,0.00,,---,0.00,VWS V14.01,2013-09-17 12:38:00,
2013-09-17 07:39:00,74.6,53.7,0.00,South,180,3.4,4.0,48,0.00,,---,0.00,VWS V14.01,2013-09-17 12:39:00,
2013-09-17 07:40:00,74.6,53.7,0.00,South,180,3.8,4.0,48,0.00,,---,0.00,VWS V14.01,2013-09-17 12:40:00,
2013-09-17 07:41:00,74.4,54.0,0.00,South,180,2.5,4.0,49,0.00,,---,0.00,VWS V14.01,2013-09-17 12:41:00,
2013-09-17 07:42:00,74.4,54.0,0.00,South,180,2.7,4.0,49,0.00,,---,0.00,VWS V14.01,2013-09-17 12:42:00,
2013-09-17 07:43:00,74.3,53.9,0.00,South,180,2.5,4.0,49,0.00,,---,0.00,VWS V14.01,2013-09-17 12:43:00,
2013-09-17 07:44:00,74.3,53.9,0.00,South,180,2.5,4.0,49,0.00,,---,0.00,VWS V14.01,2013-09-17 12:44:00,
2013-09-17 07:46:00,74.1,54.3,0.00,South,180,2.5,4.0,50,0.00,,---,0.00,VWS V14.01,2013-09-17 12:46:00,
2013-09-17 07:47:00,73.9,54.1,0.00,South,180,2.2,4.0,50,0.00,,---,0.00,VWS V14.01,2013-09-17 12:47:00,
2013-09-17 07:48:00,73.9,54.1,0.00,South,180,2.5,4.0,50,0.00,,---,0.00,VWS V14.01,2013-09-17 12:48:00,
2013-09-17 07:49:00,73.9,54.1,0.00,South,180,2.5,4.0,50,0.00,,---,0.00,VWS V14.01,2013-09-17 12:49:00,
2013-09-17 07:50:00,73.7,54.5,0.00,South,180,2.2,4.0,51,0.00,,---,0.00,VWS V14.01,2013-09-17 12:50:00,
2013-09-17 07:52:00,73.5,54.3,0.00,South,180,2.2,4.0,51,0.00,,---,0.00,VWS V14.01,2013-09-17 12:52:00,
2013-09-17 07:53:00,73.5,54.3,0.00,South,180,1.6,4.0,51,0.00,,---,0.00,VWS V14.01,2013-09-17 12:53:00,
2013-09-17 07:54:00,73.4,54.7,0.00,South,180,1.6,4.0,52,0.00,,---,0.00,VWS V14.01,2013-09-17 12:54:00,
2013-09-17 07:55:00,73.4,54.7,0.00,South,180,1.6,4.0,52,0.00,,---,0.00,VWS V14.01,2013-09-17 12:55:00,
2013-09-17 07:56:00,73.2,54.5,0.00,South,180,1.6,4.0,52,0.00,,---,0.00,VWS V14.01,2013-09-17 12:56:00,
2013-09-17 07:57:00,73.2,54.5,0.00,South,180,2.7,4.0,52,0.00,,---,0.00,VWS V14.01,2013-09-17 12:57:00,
2013-09-17 07:58:00,73.0,54.4,0.00,South,180,2.0,4.0,52,0.00,,---,0.00,VWS V14.01,2013-09-17 12:58:00,
2013-09-17 07:59:00,73.0,54.4,0.00,South,180,1.3,4.0,52,0.00,,---,0.00,VWS V14.01,2013-09-17 12:59:00,
2013-09-17 08:00:00,73.0,54.9,0.00,South,180,1.6,4.0,53,0.00,,---,0.00,VWS V14.01,2013-09-17 13:00:00,
2013-09-17 08:01:00,72.8,54.7,0.00,South,180,2.2,2.2,53,0.00,,---,0.00,VWS V14.01,2013-09-17 13:01:00,
2013-09-17 08:02:00,72.8,54.7,0.00,South,180,1.6,2.2,53,0.00,,---,0.00,VWS V14.01,2013-09-17 13:02:00,
2013-09-17 08:04:00,72.8,54.7,0.00,South,180,2.0,2.2,53,0.00,,---,0.00,VWS V14.01,2013-09-17 13:04:00,
2013-09-17 08:05:00,72.6,55.1,0.00,South,180,2.5,2.5,54,0.00,,---,0.00,VWS V14.01,2013-09-17 13:05:00,
2013-09-17 08:06:00,72.6,55.1,0.00,South,180,2.0,2.5,54,0.00,,---,0.00,VWS V14.01,2013-09-17 13:06:00,
2013-09-17 08:07:00,72.6,55.1,0.00,South,180,2.2,2.5,54,0.00,,---,0.00,VWS V14.01,2013-09-17 13:07:00,
2013-09-17 08:08:00,72.5,54.9,0.00,South,180,2.7,2.7,54,0.00,,---,0.00,VWS V14.01,2013-09-17 13:08:00,
2013-09-17 08:09:00,72.5,54.9,0.00,SSE,158,2.5,2.7,54,0.00,,---,0.00,VWS V14.01,2013-09-17 13:09:00,
2013-09-17 08:10:00,72.3,54.7,0.00,SSE,158,2.0,2.7,54,0.00,,---,0.00,VWS V14.01,2013-09-17 13:10:00,
2013-09-17 08:11:00,72.3,54.7,0.00,SSE,158,1.6,2.7,54,0.00,,---,0.00,VWS V14.01,2013-09-17 13:11:00,
2013-09-17 08:12:00,72.1,54.6,0.00,SSE,158,2.2,2.7,54,0.00,,---,0.00,VWS V14.01,2013-09-17 13:12:00,
2013-09-17 08:13:00,72.1,54.6,0.00,SSE,158,1.6,2.7,54,0.00,,---,0.00,VWS V14.01,2013-09-17 13:13:00,
2013-09-17 08:14:00,71.9,54.9,0.00,SSE,158,1.1,2.7,55,0.00,,---,0.00,VWS V14.01,2013-09-17 13:14:00,
2013-09-17 08:15:00,71.9,54.9,0.00,SSE,158,1.1,2.7,55,0.00,,---,0.00,VWS V14.01,2013-09-17 13:15:00,
2013-09-17 08:16:00,71.9,55.4,0.00,SSE,158,1.3,1.6,56,0.00,,---,0.00,VWS V14.01,2013-09-17 13:16:00,
2013-09-17 08:17:00,71.7,54.7,0.00,SSE,158,0.0,1.6,55,0.00,,---,0.00,VWS V14.01,2013-09-17 13:17:00,
2013-09-17 08:18:00,71.7,54.7,0.00,SSE,158,0.0,1.6,55,0.00,,---,0.00,VWS V14.01,2013-09-17 13:18:00,
2013-09-17 08:19:00,71.7,54.7,0.00,SSE,158,0.0,1.6,55,0.00,,---,0.00,VWS V14.01,2013-09-17 13:19:00,
2013-09-17 08:20:00,71.2,54.2,0.00,SSE,158,0.0,1.6,55,0.00,,---,0.00,VWS V14.01,2013-09-17 13:20:00,
2013-09-17 08:21:00,71.0,54.1,0.00,SSE,158,0.0,1.6,55,0.00,,---,0.00,VWS V14.01,2013-09-17 13:21:00,
2013-09-17 08:22:00,70.8,53.9,0.00,SSE,158,0.0,1.6,55,0.00,,---,0.00,VWS V14.01,2013-09-17 13:22:00,
2013-09-17 08:23:00,70.7,54.2,0.00,SSE,158,0.0,1.6,56,0.00,,---,0.00,VWS V14.01,2013-09-17 13:23:00,
2013-09-17 08:24:00,70.5,54.0,0.00,East,90,0.9,1.6,56,0.00,,---,0.00,VWS V14.01,2013-09-17 13:24:00,
2013-09-17 08:26:00,70.3,54.4,0.00,East,90,0.0,1.6,57,0.00,,---,0.00,VWS V14.01,2013-09-17 13:26:00,
2013-09-17 08:27:00,69.9,54.0,0.00,East,90,0.0,1.6,57,0.00,,---,0.00,VWS V14.01,2013-09-17 13:27:00,
2013-09-17 08:28:00,69.8,53.9,0.00,East,90,0.0,1.6,57,0.00,,---,0.00,VWS V14.01,2013-09-17 13:28:00,
2013-09-17 08:29:00,69.6,54.2,0.00,East,90,0.0,1.6,58,0.00,,---,0.00,VWS V14.01,2013-09-17 13:29:00,
2013-09-17 08:30:00,69.4,53.5,0.00,East,90,0.0,1.6,57,0.00,,---,0.00,VWS V14.01,2013-09-17 13:30:00,
2013-09-17 08:31:00,69.4,54.0,0.00,East,90,0.0,0.0,58,0.00,,---,0.00,VWS V14.01,2013-09-17 13:31:00,
2013-09-17 08:32:00,69.2,53.8,0.00,East,90,0.0,0.0,58,0.00,,---,0.00,VWS V14.01,2013-09-17 13:32:00,
2013-09-17 08:33:00,69.2,53.8,0.00,East,90,0.0,0.0,58,0.00,,---,0.00,VWS V14.01,2013-09-17 13:33:00,
2013-09-17 08:34:00,69.2,53.8,0.00,East,90,0.0,0.0,58,0.00,,---,0.00,VWS V14.01,2013-09-17 13:34:00,
2013-09-17 08:35:00,68.9,54.0,0.00,East,90,0.0,0.0,59,0.00,,---,0.00,VWS V14.01,2013-09-17 13:35:00,
2013-09-17 08:36:00,68.9,54.0,0.00,East,90,0.0,0.0,59,0.00,,---,0.00,VWS V14.01,2013-09-17 13:36:00,
2013-09-17 08:37:00,68.9,54.0,0.00,East,90,0.0,0.0,59,0.00,,---,0.00,VWS V14.01,2013-09-17 13:37:00,
2013-09-17 08:38:00,68.7,53.8,0.00,East,90,0.0,0.0,59,0.00,,---,0.00,VWS V14.01,2013-09-17 13:38:00,
2013-09-17 08:39:00,68.7,54.2,0.00,East,90,0.0,0.0,60,0.00,,---,0.00,VWS V14.01,2013-09-17 13:39:00,
2013-09-17 08:40:00,68.7,54.2,0.00,East,90,0.0,0.0,60,0.00,,---,0.00,VWS V14.01,2013-09-17 13:40:00,
2013-09-17 08:41:00,68.7,54.2,0.00,East,90,0.0,0.0,60,0.00,,---,0.00,VWS V14.01,2013-09-17 13:41:00,
2013-09-17 08:42:00,68.5,54.1,0.00,East,90,0.0,0.0,60,0.00,,---,0.00,VWS V14.01,2013-09-17 13:42:00,
2013-09-17 08:43:00,68.5,54.1,0.00,East,90,0.0,0.0,60,0.00,,---,0.00,VWS V14.01,2013-09-17 13:43:00,
2013-09-17 08:44:00,68.5,54.1,0.00,East,90,0.0,0.0,60,0.00,,---,0.00,VWS V14.01,2013-09-17 13:44:00,
2013-09-17 08:45:00,68.3,54.4,0.00,East,90,0.0,0.0,61,0.00,,---,0.00,VWS V14.01,2013-09-17 13:45:00,
2013-09-17 08:46:00,68.3,54.4,0.00,East,90,0.0,0.0,61,0.00,,---,0.00,VWS V14.01,2013-09-17 13:46:00,
2013-09-17 08:48:00,68.1,54.2,0.00,East,90,0.0,0.0,61,0.00,,---,0.00,VWS V14.01,2013-09-17 13:48:00,
2013-09-17 08:49:00,68.0,54.5,0.00,East,90,0.0,0.0,62,0.00,,---,0.00,VWS V14.01,2013-09-17 13:49:00,
2013-09-17 08:50:00,68.0,54.5,0.00,East,90,0.0,0.0,62,0.00,,---,0.00,VWS V14.01,2013-09-17 13:50:00,
2013-09-17 08:51:00,67.8,54.3,0.00,East,90,0.0,0.0,62,0.00,,---,0.00,VWS V14.01,2013-09-17 13:51:00,
2013-09-17 08:53:00,67.8,54.3,0.00,East,90,0.0,0.0,62,0.00,,---,0.00,VWS V14.01,2013-09-17 13:53:00,
2013-09-17 08:54:00,67.6,54.6,0.00,East,90,0.0,0.0,63,0.00,,---,0.00,VWS V14.01,2013-09-17 13:54:00,
2013-09-17 08:55:00,67.6,54.6,0.00,East,90,0.0,0.0,63,0.00,,---,0.00,VWS V14.01,2013-09-17 13:55:00,
2013-09-17 08:57:00,67.6,54.6,0.00,East,90,0.0,0.0,63,0.00,,---,0.00,VWS V14.01,2013-09-17 13:57:00,
2013-09-17 08:58:00,67.6,54.6,0.00,East,90,0.0,0.0,63,0.00,,---,0.00,VWS V14.01,2013-09-17 13:58:00,
2013-09-17 08:59:00,67.6,54.6,0.00,East,90,0.0,0.0,63,0.00,,---,0.00,VWS V14.01,2013-09-17 13:59:00,
2013-09-17 09:00:00,67.6,55.0,0.00,ESE,112,0.9,1.1,64,0.00,,---,0.00,VWS V14.01,2013-09-17 14:00:00,
2013-09-17 09:01:00,67.6,55.0,0.00,ESE,112,0.9,1.1,64,0.00,,---,0.00,VWS V14.01,2013-09-17 14:01:00,
2013-09-17 09:02:00,67.6,55.0,0.00,ESE,112,0.0,1.1,64,0.00,,---,0.00,VWS V14.01,2013-09-17 14:02:00,
2013-09-17 09:03:00,67.4,55.3,0.00,ESE,112,1.1,1.1,65,0.00,,---,0.00,VWS V14.01,2013-09-17 14:03:00,
2013-09-17 09:04:00,67.4,55.3,0.00,ESE,112,0.0,1.1,65,0.00,,---,0.00,VWS V14.01,2013-09-17 14:04:00,
2013-09-17 09:06:00,67.4,55.3,0.00,ESE,112,0.0,1.1,65,0.00,,---,0.00,VWS V14.01,2013-09-17 14:06:00,
2013-09-17 09:07:00,67.2,55.1,0.00,ESE,112,0.0,1.1,65,0.00,,---,0.00,VWS V14.01,2013-09-17 14:07:00,
2013-09-17 09:08:00,67.2,55.1,0.00,ESE,112,0.0,1.1,65,0.00,,---,0.00,VWS V14.01,2013-09-17 14:08:00,
2013-09-17 09:09:00,67.2,55.1,0.00,ESE,112,0.0,1.1,65,0.00,,---,0.00,VWS V14.01,2013-09-17 14:09:00,
2013-09-17 09:10:00,66.9,54.8,0.00,ESE,112,0.0,1.1,65,0.00,,---,0.00,VWS V14.01,2013-09-17 14:10:00,
2013-09-17 09:11:00,66.9,54.8,0.00,ESE,112,0.0,1.1,65,0.00,,---,0.00,VWS V14.01,2013-09-17 14:11:00,
2013-09-17 09:12:00,66.9,54.8,0.00,ESE,112,0.0,1.1,65,0.00,,---,0.00,VWS V14.01,2013-09-17 14:12:00,
2013-09-17 09:13:00,66.7,55.0,0.00,ESE,112,0.0,2.0,66,0.00,,---,0.00,VWS V14.01,2013-09-17 14:13:00,
2013-09-17 09:14:00,66.7,55.0,0.00,SE,135,2.0,2.0,66,0.00,,---,0.00,VWS V14.01,2013-09-17 14:14:00,
2013-09-17 09:15:00,66.7,55.4,0.00,SE,135,1.6,2.2,67,0.00,,---,0.00,VWS V14.01,2013-09-17 14:15:00,
2013-09-17 09:16:00,66.7,55.4,0.00,SE,135,0.0,1.6,67,0.00,,---,0.00,VWS V14.01,2013-09-17 14:16:00,
2013-09-17 09:17:00,66.7,55.4,0.00,SE,135,0.0,1.6,67,0.00,,---,0.00,VWS V14.01,2013-09-17 14:17:00,
2013-09-17 09:18:00,66.5,55.2,0.00,SE,135,0.0,1.6,67,0.00,,---,0.00,VWS V14.01,2013-09-17 14:18:00,
2013-09-17 09:19:00,66.5,55.2,0.00,SE,135,0.0,1.6,67,0.00,,---,0.00,VWS V14.01,2013-09-17 14:19:00,
2013-09-17 09:20:00,66.5,55.2,0.00,SE,135,0.0,1.6,67,0.00,,---,0.00,VWS V14.01,2013-09-17 14:20:00,
2013-09-17 09:21:00,66.3,55.1,0.00,SE,135,0.0,1.6,67,0.00,,---,0.00,VWS V14.01,2013-09-17 14:21:00,
2013-09-17 09:22:00,66.3,55.1,0.00,SE,135,0.0,1.6,67,0.00,,---,0.00,VWS V14.01,2013-09-17 14:22:00,
2013-09-17 09:23:00,66.3,55.1,0.00,SE,135,0.0,1.6,67,0.00,,---,0.00,VWS V14.01,2013-09-17 14:23:00,
2013-09-17 09:24:00,66.2,55.3,0.00,SE,135,0.0,1.6,68,0.00,,---,0.00,VWS V14.01,2013-09-17 14:24:00,
2013-09-17 09:25:00,66.2,55.3,0.00,SE,135,0.0,1.6,68,0.00,,---,0.00,VWS V14.01,2013-09-17 14:25:00,
2013-09-17 09:26:00,66.2,55.3,0.00,SE,135,0.0,1.6,68,0.00,,---,0.00,VWS V14.01,2013-09-17 14:26:00,
2013-09-17 09:27:00,66.2,55.3,0.00,SE,135,0.0,1.6,68,0.00,,---,0.00,VWS V14.01,2013-09-17 14:27:00,
2013-09-17 09:28:00,65.8,55.0,0.00,SE,135,0.0,1.6,68,0.00,,---,0.00,VWS V14.01,2013-09-17 14:28:00,
2013-09-17 09:30:00,65.8,55.0,0.00,SE,135,0.0,1.6,68,0.00,,---,0.00,VWS V14.01,2013-09-17 14:30:00,
2013-09-17 09:31:00,65.6,55.2,0.00,SE,135,0.0,0.0,69,0.00,,---,0.00,VWS V14.01,2013-09-17 14:31:00,
2013-09-17 09:32:00,65.6,55.2,0.00,SE,135,0.0,0.0,69,0.00,,---,0.00,VWS V14.01,2013-09-17 14:32:00,
2013-09-17 09:33:00,65.4,55.0,0.00,SE,135,0.0,0.0,69,0.00,,---,0.00,VWS V14.01,2013-09-17 14:33:00,
2013-09-17 09:34:00,65.4,55.0,0.00,SE,135,0.0,0.0,69,0.00,,---,0.00,VWS V14.01,2013-09-17 14:34:00,
2013-09-17 09:35:00,65.4,55.0,0.00,SE,135,0.0,0.0,69,0.00,,---,0.00,VWS V14.01,2013-09-17 14:35:00,
2013-09-17 09:36:00,65.4,55.0,0.00,SE,135,0.0,0.0,69,0.00,,---,0.00,VWS V14.01,2013-09-17 14:36:00,
2013-09-17 09:37:00,65.4,55.4,0.00,SE,135,0.0,0.0,70,0.00,,---,0.00,VWS V14.01,2013-09-17 14:37:00,
2013-09-17 09:39:00,65.4,55.4,0.00,SE,135,0.0,0.0,70,0.00,,---,0.00,VWS V14.01,2013-09-17 14:39:00,
2013-09-17 09:40:00,65.3,55.2,0.00,SE,135,2.0,2.0,70,0.00,,---,0.00,VWS V14.01,2013-09-17 14:40:00,
2013-09-17 09:41:00,65.3,55.2,0.00,SE,135,3.1,3.1,70,0.00,,---,0.00,VWS V14.01,2013-09-17 14:41:00,
2013-09-17 09:42:00,65.3,55.6,0.00,SE,135,3.6,3.6,71,0.00,,---,0.00,VWS V14.01,2013-09-17 14:42:00,
2013-09-17 09:43:00,65.3,56.0,0.00,ESE,112,3.1,3.6,72,0.00,,---,0.00,VWS V14.01,2013-09-17 14:43:00,
2013-09-17 09:44:00,65.3,56.4,0.00,ESE,112,3.4,3.6,73,0.00,,---,0.00,VWS V14.01,2013-09-17 14:44:00,
2013-09-17 09:45:00,65.3,57.1,0.00,SE,135,3.6,4.3,75,0.00,,---,0.00,VWS V14.01,2013-09-17 14:45:00,
2013-09-17 09:46:00,65.4,57.3,0.00,SE,135,3.8,3.8,75,0.00,,---,0.00,VWS V14.01,2013-09-17 14:46:00,
2013-09-17 09:47:00,65.4,57.3,0.00,SE,135,3.1,4.7,75,0.00,,---,0.00,VWS V14.01,2013-09-17 14:47:00,
2013-09-17 09:48:00,65.6,57.5,0.00,SE,135,2.9,4.7,75,0.00,,---,0.00,VWS V14.01,2013-09-17 14:48:00,
2013-09-17 09:49:00,65.6,57.5,0.00,SE,135,1.1,4.7,75,0.00,,---,0.00,VWS V14.01,2013-09-17 14:49:00,
2013-09-17 09:50:00,65.6,57.1,0.00,SW,225,1.6,4.7,74,0.00,,---,0.00,VWS V14.01,2013-09-17 14:50:00,
2013-09-17 09:51:00,65.6,57.1,0.00,South,180,0.0,4.7,74,0.00,,---,0.00,VWS V14.01,2013-09-17 14:51:00,
2013-09-17 09:52:00,65.3,56.4,0.00,South,180,0.0,4.7,73,0.00,,---,0.00,VWS V14.01,2013-09-17 14:52:00,
2013-09-17 09:53:00,65.1,56.2,0.00,SE,135,0.0,4.7,73,0.00,,---,0.00,VWS V14.01,2013-09-17 14:53:00,
2013-09-17 09:54:00,64.9,56.0,0.00,SE,135,1.6,4.7,73,0.00,,---,0.00,VWS V14.01,2013-09-17 14:54:00,
2013-09-17 09:55:00,64.9,56.0,0.00,SE,135,1.3,4.7,73,0.00,,---,0.00,VWS V14.01,2013-09-17 14:55:00,
2013-09-17 09:56:00,64.9,56.0,0.00,ESE,112,1.1,4.7,73,0.00,,---,0.00,VWS V14.01,2013-09-17 14:56:00,
2013-09-17 09:57:00,64.9,56.0,0.00,East,90,1.3,4.7,73,0.00,,---,0.00,VWS V14.01,2013-09-17 14:57:00,
2013-09-17 09:58:00,64.9,56.0,0.00,East,90,2.5,4.7,73,0.00,,---,0.00,VWS V14.01,2013-09-17 14:58:00,
2013-09-17 09:59:00,64.9,56.4,0.00,East,90,1.1,4.7,74,0.00,,---,0.00,VWS V14.01,2013-09-17 14:59:00,
2013-09-17 10:00:00,64.9,56.4,0.00,East,90,1.3,4.7,74,0.00,,---,0.00,VWS V14.01,2013-09-17 15:00:00,
2013-09-17 10:01:00,65.1,57.0,0.00,East,90,1.1,2.0,75,0.00,,---,0.00,VWS V14.01,2013-09-17 15:01:00,
2013-09-17 10:02:00,65.1,57.0,0.00,ESE,112,1.6,2.7,75,0.00,,---,0.00,VWS V14.01,2013-09-17 15:02:00,
2013-09-17 10:03:00,65.1,57.3,0.00,East,90,2.0,2.7,76,0.00,,---,0.00,VWS V14.01,2013-09-17 15:03:00,
2013-09-17 10:04:00,65.1,57.3,0.00,East,90,2.0,2.7,76,0.00,,---,0.00,VWS V14.01,2013-09-17 15:04:00,
2013-09-17 10:05:00,65.1,57.3,0.00,East,90,1.6,2.7,76,0.00,,---,0.00,VWS V14.01,2013-09-17 15:05:00,
2013-09-17 10:06:00,65.1,57.3,0.00,East,90,1.3,2.7,76,0.00,,---,0.00,VWS V14.01,2013-09-17 15:06:00,
2013-09-17 10:07:00,65.1,57.3,0.00,East,90,1.6,2.7,76,0.00,,---,0.00,VWS V14.01,2013-09-17 15:07:00,
2013-09-17 10:08:00,65.1,57.3,0.00,East,90,1.3,2.7,76,0.00,,---,0.00,VWS V14.01,2013-09-17 15:08:00,
2013-09-17 10:09:00,65.1,57.3,0.00,ESE,112,3.4,3.4,76,0.00,,---,0.00,VWS V14.01,2013-09-17 15:09:00,
2013-09-17 10:10:00,65.1,57.3,0.00,SE,135,2.9,3.4,76,0.00,,---,0.00,VWS V14.01,2013-09-17 15:10:00,
2013-09-17 10:11:00,65.1,57.3,0.00,SE,135,2.9,3.4,76,0.00,,---,0.00,VWS V14.01,2013-09-17 15:11:00,
2013-09-17 10:12:00,65.1,57.3,0.00,SE,135,2.5,3.4,76,0.00,,---,0.00,VWS V14.01,2013-09-17 15:12:00,
2013-09-17 10:13:00,65.1,57.3,0.00,SE,135,2.5,3.4,76,0.00,,---,0.00,VWS V14.01,2013-09-17 15:13:00,
2013-09-17 10:14:00,65.1,57.3,0.00,SE,135,1.1,3.4,76,0.00,,---,0.00,VWS V14.01,2013-09-17 15:14:00,
2013-09-17 10:15:00,65.1,57.3,0.00,SE,135,1.6,1.6,76,0.00,,---,0.00,VWS V14.01,2013-09-17 15:15:00,
2013-09-17 10:16:00,65.1,57.7,0.00,SE,135,2.9,3.8,77,0.00,,---,0.00,VWS V14.01,2013-09-17 15:16:00,
2013-09-17 10:17:00,65.1,57.7,0.00,SE,135,3.1,3.8,77,0.00,,---,0.00,VWS V14.01,2013-09-17 15:17:00,
2013-09-17 10:18:00,65.1,57.7,0.00,SE,135,2.7,3.8,77,0.00,,---,0.00,VWS V14.01,2013-09-17 15:18:00,
2013-09-17 10:19:00,65.1,57.7,0.00,SE,135,3.1,3.8,77,0.00,,---,0.00,VWS V14.01,2013-09-17 15:19:00,
2013-09-17 10:20:00,65.1,58.1,0.00,ESE,112,2.9,3.8,78,0.00,,---,0.00,VWS V14.01,2013-09-17 15:20:00,
2013-09-17 10:21:00,65.3,58.2,0.00,SE,135,3.8,3.8,78,0.00,,---,0.00,VWS V14.01,2013-09-17 15:21:00,
2013-09-17 10:22:00,65.3,58.2,0.00,SE,135,3.1,3.8,78,0.00,,---,0.00,VWS V14.01,2013-09-17 15:22:00,
2013-09-17 10:23:00,65.3,58.2,0.00,SE,135,3.1,3.8,78,0.00,,---,0.00,VWS V14.01,2013-09-17 15:23:00,
2013-09-17 10:24:00,65.3,58.2,0.00,SE,135,3.6,4.0,78,0.00,,---,0.00,VWS V14.01,2013-09-17 15:24:00,
2013-09-17 10:25:00,65.3,58.2,0.00,SE,135,5.4,5.6,78,0.00,,---,0.00,VWS V14.01,2013-09-17 15:25:00,
2013-09-17 10:26:00,65.3,58.6,0.00,SE,135,3.8,5.6,79,0.00,,---,0.00,VWS V14.01,2013-09-17 15:26:00,
2013-09-17 10:28:00,65.3,58.6,0.00,SE,135,4.0,5.6,79,0.00,,---,0.00,VWS V14.01,2013-09-17 15:28:00,
2013-09-17 10:29:00,65.4,58.4,0.00,SE,135,2.7,5.6,78,0.00,,---,0.00,VWS V14.01,2013-09-17 15:29:00,
2013-09-17 10:31:00,65.3,58.2,0.00,SE,135,3.1,5.6,78,0.00,,---,0.00,VWS V14.01,2013-09-17 15:31:00,
2013-09-17 10:32:00,65.3,58.2,0.00,SE,135,2.7,5.6,78,0.00,,---,0.00,VWS V14.01,2013-09-17 15:32:00,
2013-09-17 10:33:00,65.3,58.2,0.00,SE,135,2.7,5.6,78,0.00,,---,0.00,VWS V14.01,2013-09-17 15:33:00,
2013-09-17 10:34:00,65.3,58.2,0.00,SE,135,3.8,5.6,78,0.00,,---,0.00,VWS V14.01,2013-09-17 15:34:00,
2013-09-17 10:35:00,65.3,58.2,0.00,SE,135,3.4,5.6,78,0.00,,---,0.00,VWS V14.01,2013-09-17 15:35:00,
2013-09-17 10:36:00,65.3,58.2,0.00,SE,135,2.9,5.6,78,0.00,,---,0.00,VWS V14.01,2013-09-17 15:36:00,
2013-09-17 10:37:00,65.1,58.1,0.00,SE,135,2.7,5.6,78,0.00,,---,0.00,VWS V14.01,2013-09-17 15:37:00,
2013-09-17 10:39:00,65.1,58.1,0.00,SE,135,4.0,5.6,78,0.00,,---,0.00,VWS V14.01,2013-09-17 15:39:00,
2013-09-17 10:40:00,65.1,58.1,0.00,SE,135,3.4,5.6,78,0.00,,---,0.00,VWS V14.01,2013-09-17 15:40:00,
2013-09-17 10:41:00,65.1,58.1,0.00,SSE,158,3.8,5.6,78,0.00,,---,0.00,VWS V14.01,2013-09-17 15:41:00,
2013-09-17 10:42:00,65.3,58.2,0.00,SE,135,4.3,5.6,78,0.00,,---,0.00,VWS V14.01,2013-09-17 15:42:00,
2013-09-17 10:43:00,65.3,58.2,0.00,South,180,3.8,5.6,78,0.00,,---,0.00,VWS V14.01,2013-09-17 15:43:00,
2013-09-17 10:44:00,65.3,58.2,0.00,SSE,158,4.5,5.6,78,0.00,,---,0.00,VWS V14.01,2013-09-17 15:44:00,
2013-09-17 10:45:00,65.3,58.2,0.00,South,180,4.3,5.6,78,0.00,,---,0.00,VWS V14.01,2013-09-17 15:45:00,
2013-09-17 10:46:00,65.3,58.2,0.00,South,180,4.3,4.9,78,0.00,,---,0.00,VWS V14.01,2013-09-17 15:46:00,
2013-09-17 10:47:00,65.1,58.1,0.00,South,180,3.6,4.9,78,0.00,,---,0.00,VWS V14.01,2013-09-17 15:47:00,
2013-09-17 10:48:00,65.1,58.1,0.00,South,180,3.1,4.9,78,0.00,,---,0.00,VWS V14.01,2013-09-17 15:48:00,
2013-09-17 10:49:00,65.1,58.1,0.00,South,180,3.4,4.9,78,0.00,,---,0.00,VWS V14.01,2013-09-17 15:49:00,
2013-09-17 10:50:00,65.1,58.1,0.00,South,180,2.7,4.9,78,0.00,,---,0.00,VWS V14.01,2013-09-17 15:50:00,
2013-09-17 10:51:00,65.1,58.1,0.00,SSE,158,4.3,4.9,78,0.00,,---,0.00,VWS V14.01,2013-09-17 15:51:00,
2013-09-17 10:52:00,65.1,58.1,0.00,SSE,158,5.6,5.6,78,0.00,,---,0.00,VWS V14.01,2013-09-17 15:52:00,
2013-09-17 10:53:00,65.1,58.1,0.00,SSE,158,4.3,5.8,78,0.00,,---,0.00,VWS V14.01,2013-09-17 15:53:00,
2013-09-17 10:55:00,65.3,58.2,0.00,SE,135,4.9,5.8,78,0.00,,---,0.00,VWS V14.01,2013-09-17 15:55:00,
2013-09-17 10:56:00,65.1,58.1,0.00,SSE,158,3.6,5.8,78,0.00,,---,0.00,VWS V14.01,2013-09-17 15:56:00,
2013-09-17 10:57:00,65.1,58.1,0.00,SE,135,4.0,5.8,78,0.00,,---,0.00,VWS V14.01,2013-09-17 15:57:00,
2013-09-17 10:58:00,65.3,58.6,0.00,South,180,5.4,5.8,79,0.00,,---,0.00,VWS V14.01,2013-09-17 15:58:00,
2013-09-17 10:59:00,65.3,58.6,0.00,South,180,4.9,6.3,79,0.00,,---,0.00,VWS V14.01,2013-09-17 15:59:00,
2013-09-17 11:00:00,65.3,58.6,0.00,South,180,3.8,6.3,79,0.00,,---,0.00,VWS V14.01,2013-09-17 16:00:00,
2013-09-17 11:01:00,65.3,58.6,0.00,South,180,3.6,3.8,79,0.00,,---,0.00,VWS V14.01,2013-09-17 16:01:00,
2013-09-17 11:02:00,65.3,58.6,0.00,South,180,3.6,3.8,79,0.00,,---,0.00,VWS V14.01,2013-09-17 16:02:00,
2013-09-17 11:03:00,65.3,58.6,0.00,SE,135,4.0,5.4,79,0.00,,---,0.00,VWS V14.01,2013-09-17 16:03:00,
2013-09-17 11:05:00,65.3,58.6,0.00,SE,135,3.6,5.4,79,0.00,,---,0.00,VWS V14.01,2013-09-17 16:05:00,
2013-09-17 11:06:00,65.3,58.6,0.00,SE,135,4.3,5.4,79,0.00,,---,0.00,VWS V14.01,2013-09-17 16:06:00,
2013-09-17 11:07:00,65.3,58.6,0.00,SSE,158,3.1,5.4,79,0.00,,---,0.00,VWS V14.01,2013-09-17 16:07:00,
2013-09-17 11:08:00,65.3,58.6,0.00,South,180,3.8,5.4,79,0.00,,---,0.00,VWS V14.01,2013-09-17 16:08:00,
2013-09-17 11:09:00,65.3,58.6,0.00,South,180,3.6,5.6,79,0.00,,---,0.00,VWS V14.01,2013-09-17 16:09:00,
2013-09-17 11:11:00,65.3,58.6,0.00,SSE,158,4.0,5.6,79,0.00,,---,0.00,VWS V14.01,2013-09-17 16:11:00,
2013-09-17 11:12:00,65.3,58.6,0.00,South,180,6.3,7.4,79,0.00,,---,0.00,VWS V14.01,2013-09-17 16:12:00,
2013-09-17 11:14:00,65.3,58.2,0.00,SSE,158,4.9,7.4,78,0.00,,---,0.00,VWS V14.01,2013-09-17 16:14:00,
2013-09-17 11:15:00,65.3,58.2,0.00,SSE,158,5.8,7.4,78,0.00,,---,0.00,VWS V14.01,2013-09-17 16:15:00,
2013-09-17 11:16:00,65.3,58.2,0.00,South,180,8.1,8.1,78,0.00,,---,0.00,VWS V14.01,2013-09-17 16:16:00,
2013-09-17 11:17:00,65.4,58.4,0.00,SSE,158,6.0,8.1,78,0.00,,---,0.00,VWS V14.01,2013-09-17 16:17:00,
2013-09-17 11:18:00,65.4,58.4,0.00,South,180,5.8,8.1,78,0.00,,---,0.00,VWS V14.01,2013-09-17 16:18:00,
2013-09-17 11:19:00,65.4,58.4,0.00,SSE,158,6.9,8.1,78,0.00,,---,0.00,VWS V14.01,2013-09-17 16:19:00,
2013-09-17 11:21:00,65.4,58.4,0.00,SE,135,8.5,8.5,78,0.00,,---,0.00,VWS V14.01,2013-09-17 16:21:00,
2013-09-17 11:22:00,65.8,58.4,0.00,South,180,9.8,12.1,77,0.00,,---,0.00,VWS V14.01,2013-09-17 16:22:00,
2013-09-17 11:23:00,65.8,58.4,0.00,South,180,7.6,12.1,77,0.00,,---,0.00,VWS V14.01,2013-09-17 16:23:00,
2013-09-17 11:24:00,65.8,58.4,0.00,SSE,158,9.8,12.1,77,0.00,,---,0.00,VWS V14.01,2013-09-17 16:24:00,
2013-09-17 11:25:00,65.8,58.4,0.00,SSE,158,7.8,12.1,77,0.00,,---,0.00,VWS V14.01,2013-09-17 16:25:00,
2013-09-17 11:26:00,65.8,58.4,0.00,SSE,158,7.4,12.1,77,0.00,,---,0.00,VWS V14.01,2013-09-17 16:26:00,
2013-09-17 11:27:00,65.8,58.4,0.00,South,180,7.6,12.1,77,0.00,,---,0.00,VWS V14.01,2013-09-17 16:27:00,
2013-09-17 11:29:00,64.5,59.9,0.00,South,180,7.8,13.0,85,0.00,,---,0.00,VWS V14.01,2013-09-17 16:29:00,
2013-09-17 11:30:00,65.8,58.0,0.00,South,180,10.1,12.1,76,0.00,,---,0.00,VWS V14.01,2013-09-17 16:30:00,
2013-09-17 11:31:00,65.8,58.0,0.00,South,180,6.3,10.7,76,0.00,,---,0.00,VWS V14.01,2013-09-17 16:31:00,
2013-09-17 11:32:00,66.0,58.2,0.00,South,180,9.0,11.4,76,0.00,,---,0.00,VWS V14.01,2013-09-17 16:32:00,
2013-09-17 11:33:00,66.0,58.2,0.00,South,180,7.2,11.4,76,0.00,,---,0.00,VWS V14.01,2013-09-17 16:33:00,
2013-09-17 11:34:00,66.2,58.4,0.00,South,180,6.3,11.4,76,0.00,,---,0.00,VWS V14.01,2013-09-17 16:34:00,
2013-09-17 11:35:00,66.2,58.4,0.00,SW,225,6.5,11.4,76,0.00,,---,0.00,VWS V14.01,2013-09-17 16:35:00,
2013-09-17 11:36:00,66.0,58.2,0.00,South,180,9.8,12.5,76,0.00,,---,0.00,VWS V14.01,2013-09-17 16:36:00,
2013-09-17 11:38:00,66.0,58.2,0.00,South,180,9.2,12.5,76,0.00,,---,0.00,VWS V14.01,2013-09-17 16:38:00,
2013-09-17 11:39:00,66.2,58.4,0.00,South,180,8.1,12.5,76,0.00,,---,0.00,VWS V14.01,2013-09-17 16:39:00,
2013-09-17 11:40:00,66.2,58.4,0.00,SW,225,10.3,12.5,76,0.00,,---,0.00,VWS V14.01,2013-09-17 16:40:00,
2013-09-17 11:41:00,66.2,58.4,0.00,South,180,8.5,12.5,76,0.00,,---,0.00,VWS V14.01,2013-09-17 16:41:00,
2013-09-17 11:42:00,66.3,58.2,0.00,South,180,8.5,12.5,75,0.00,,---,0.00,VWS V14.01,2013-09-17 16:42:00,
2013-09-17 11:43:00,66.3,58.2,0.00,South,180,7.8,12.5,75,0.00,,---,0.00,VWS V14.01,2013-09-17 16:43:00,
2013-09-17 11:44:00,66.5,58.4,0.00,South,180,8.1,12.5,75,0.00,,---,0.00,VWS V14.01,2013-09-17 16:44:00,
2013-09-17 11:45:00,66.5,58.4,0.00,South,180,7.4,12.5,75,0.00,,---,0.00,VWS V14.01,2013-09-17 16:45:00,
2013-09-17 11:46:00,66.5,58.4,0.00,South,180,7.2,8.5,75,0.00,,---,0.00,VWS V14.01,2013-09-17 16:46:00,
2013-09-17 11:47:00,66.5,58.4,0.00,South,180,8.7,8.7,75,0.00,,---,0.00,VWS V14.01,2013-09-17 16:47:00,
2013-09-17 11:48:00,66.5,58.4,0.00,South,180,7.4,8.7,75,0.00,,---,0.00,VWS V14.01,2013-09-17 16:48:00,
2013-09-17 11:49:00,66.5,58.4,0.00,South,180,10.1,10.1,75,0.00,,---,0.00,VWS V14.01,2013-09-17 16:49:00,
2013-09-17 11:50:00,66.3,57.8,0.00,South,180,8.1,10.1,74,0.00,,---,0.00,VWS V14.01,2013-09-17 16:50:00,
2013-09-17 11:51:00,66.3,57.8,0.00,South,180,8.7,10.1,74,0.00,,---,0.00,VWS V14.01,2013-09-17 16:51:00,
2013-09-17 11:52:00,66.3,57.8,0.00,South,180,8.7,10.1,74,0.00,,---,0.00,VWS V14.01,2013-09-17 16:52:00,
2013-09-17 11:53:00,66.5,58.0,0.00,South,180,7.4,12.5,74,0.00,,---,0.00,VWS V14.01,2013-09-17 16:53:00,
2013-09-17 11:54:00,66.5,58.0,0.00,South,180,8.7,12.5,74,0.00,,---,0.00,VWS V14.01,2013-09-17 16:54:00,
2013-09-17 11:55:00,66.5,58.4,0.00,South,180,9.0,12.5,75,0.00,,---,0.00,VWS V14.01,2013-09-17 16:55:00,
2013-09-17 11:56:00,66.5,58.4,0.00,South,180,7.4,12.5,75,0.00,,---,0.00,VWS V14.01,2013-09-17 16:56:00,
2013-09-17 11:57:00,66.5,58.4,0.00,South,180,9.6,12.5,75,0.00,,---,0.00,VWS V14.01,2013-09-17 16:57:00,
2013-09-17 11:58:00,66.5,58.4,0.00,South,180,9.6,12.5,75,0.00,,---,0.00,VWS V14.01,2013-09-17 16:58:00,
2013-09-17 11:59:00,66.5,58.4,0.00,South,180,6.3,12.5,75,0.00,,---,0.00,VWS V14.01,2013-09-17 16:59:00,
2013-09-17 12:00:00,66.5,58.4,0.00,South,180,6.3,12.5,75,0.00,,---,0.00,VWS V14.01,2013-09-17 17:00:00,
2013-09-17 12:01:00,66.5,58.4,0.00,SW,225,8.5,10.7,75,0.00,,---,0.00,VWS V14.01,2013-09-17 17:01:00,
2013-09-17 12:02:00,66.7,58.2,0.00,South,180,7.2,10.7,74,0.00,,---,0.00,VWS V14.01,2013-09-17 17:02:00,
2013-09-17 12:03:00,66.7,58.5,0.00,South,180,5.6,10.7,75,0.00,,---,0.00,VWS V14.01,2013-09-17 17:03:00,
2013-09-17 12:04:00,66.7,58.5,0.00,SW,225,8.5,10.7,75,0.00,,---,0.00,VWS V14.01,2013-09-17 17:04:00,
2013-09-17 12:06:00,66.7,58.5,0.00,South,180,7.8,10.7,75,0.00,,---,0.00,VWS V14.01,2013-09-17 17:06:00,
2013-09-17 12:07:00,66.7,58.5,0.00,SSW,202,4.9,10.7,75,0.00,,---,0.00,VWS V14.01,2013-09-17 17:07:00,
2013-09-17 12:08:00,66.7,58.5,0.00,South,180,9.8,10.7,75,0.00,,---,0.00,VWS V14.01,2013-09-17 17:08:00,
2013-09-17 12:09:00,66.7,58.5,0.00,SSW,202,6.5,10.7,75,0.00,,---,0.00,VWS V14.01,2013-09-17 17:09:00,
2013-09-17 12:10:00,66.7,58.5,0.00,South,180,7.8,10.7,75,0.00,,---,0.00,VWS V14.01,2013-09-17 17:10:00,
2013-09-17 12:11:00,66.5,58.0,0.00,South,180,6.5,10.7,74,0.00,,---,0.00,VWS V14.01,2013-09-17 17:11:00,
2013-09-17 12:12:00,66.5,58.4,0.00,SSW,202,5.8,10.7,75,0.00,,---,0.00,VWS V14.01,2013-09-17 17:12:00,
2013-09-17 12:13:00,66.5,58.4,0.00,South,180,7.4,10.7,75,0.00,,---,0.00,VWS V14.01,2013-09-17 17:13:00,
2013-09-17 12:14:00,66.5,58.4,0.00,SW,225,6.3,10.7,75,0.00,,---,0.00,VWS V14.01,2013-09-17 17:14:00,
2013-09-17 12:15:00,66.3,58.2,0.00,SW,225,6.3,10.7,75,0.00,,---,0.00,VWS V14.01,2013-09-17 17:15:00,
2013-09-17 12:16:00,66.3,58.2,0.00,SSE,158,4.3,6.3,75,0.00,,---,0.00,VWS V14.01,2013-09-17 17:16:00,
2013-09-17 12:17:00,66.3,58.2,0.00,South,180,5.8,7.4,75,0.00,,---,0.00,VWS V14.01,2013-09-17 17:17:00,
2013-09-17 12:18:00,66.2,58.0,0.00,South,180,5.6,7.4,75,0.00,,---,0.00,VWS V14.01,2013-09-17 17:18:00,
2013-09-17 12:19:00,66.2,58.0,0.00,South,180,5.8,7.4,75,0.00,,---,0.00,VWS V14.01,2013-09-17 17:19:00,
2013-09-17 12:20:00,66.2,58.4,0.00,South,180,5.6,7.4,76,0.00,,---,0.00,VWS V14.01,2013-09-17 17:20:00,
2013-09-17 12:21:00,66.2,58.4,0.00,South,180,4.9,7.4,76,0.00,,---,0.00,VWS V14.01,2013-09-17 17:21:00,
2013-09-17 12:22:00,66.0,58.2,0.00,South,180,5.6,7.4,76,0.00,,---,0.00,VWS V14.01,2013-09-17 17:22:00,
2013-09-17 12:23:00,66.0,58.2,0.00,South,180,6.3,9.0,76,0.00,,---,0.00,VWS V14.01,2013-09-17 17:23:00,
2013-09-17 12:24:00,66.0,58.2,0.00,South,180,5.8,9.0,76,0.00,,---,0.00,VWS V14.01,2013-09-17 17:24:00,
2013-09-17 12:25:00,66.0,58.2,0.00,South,180,4.9,9.0,76,0.00,,---,0.00,VWS V14.01,2013-09-17 17:25:00,
2013-09-17 12:26:00,65.8,58.0,0.00,South,180,4.0,9.0,76,0.00,,---,0.00,VWS V14.01,2013-09-17 17:26:00,
2013-09-17 12:27:00,65.8,58.0,0.00,South,180,4.9,9.0,76,0.00,,---,0.00,VWS V14.01,2013-09-17 17:27:00,
2013-09-17 12:28:00,65.8,58.4,0.00,South,180,10.1,10.1,77,0.00,,---,0.00,VWS V14.01,2013-09-17 17:28:00,
2013-09-17 12:29:00,65.8,58.4,0.00,South,180,4.9,10.1,77,0.00,,---,0.00,VWS V14.01,2013-09-17 17:29:00,
2013-09-17 12:30:00,65.6,58.2,0.00,SSW,202,4.3,10.1,77,0.00,,---,0.00,VWS V14.01,2013-09-17 17:30:00,
2013-09-17 12:31:00,65.6,58.6,0.00,South,180,3.8,4.3,78,0.00,,---,0.00,VWS V14.01,2013-09-17 17:31:00,
2013-09-17 12:32:00,65.4,58.4,0.00,SW,225,2.7,5.8,78,0.00,,---,0.00,VWS V14.01,2013-09-17 17:32:00,
2013-09-17 12:33:00,65.4,58.4,0.00,SW,225,5.8,5.8,78,0.00,,---,0.00,VWS V14.01,2013-09-17 17:33:00,
2013-09-17 12:34:00,65.4,58.4,0.00,South,180,3.1,5.8,78,0.00,,---,0.00,VWS V14.01,2013-09-17 17:34:00,
2013-09-17 12:35:00,65.4,58.4,0.00,South,180,4.9,5.8,78,0.00,,---,0.00,VWS V14.01,2013-09-17 17:35:00,
2013-09-17 12:36:00,65.4,58.4,0.00,South,180,6.5,7.4,78,0.00,,---,0.00,VWS V14.01,2013-09-17 17:36:00,
2013-09-17 12:37:00,65.4,58.4,0.00,SSW,202,6.3,9.8,78,0.00,,---,0.00,VWS V14.01,2013-09-17 17:37:00,
2013-09-17 12:38:00,65.4,58.4,0.00,SW,225,6.0,9.8,78,0.00,,---,0.00,VWS V14.01,2013-09-17 17:38:00,
2013-09-17 12:39:00,65.4,58.4,0.00,SSW,202,6.0,9.8,78,0.00,,---,0.00,VWS V14.01,2013-09-17 17:39:00,
2013-09-17 12:40:00,65.4,58.4,0.00,South,180,8.7,9.8,78,0.00,,---,0.00,VWS V14.01,2013-09-17 17:40:00,
2013-09-17 12:41:00,65.4,58.4,0.00,South,180,6.3,9.8,78,0.00,,---,0.00,VWS V14.01,2013-09-17 17:41:00,
2013-09-17 12:42:00,65.4,58.4,0.00,SW,225,6.0,10.3,78,0.00,,---,0.00,VWS V14.01,2013-09-17 17:42:00,
2013-09-17 12:43:00,65.4,58.4,0.00,SW,225,4.9,10.3,78,0.00,,---,0.00,VWS V14.01,2013-09-17 17:43:00,
2013-09-17 12:44:00,65.4,58.4,0.00,South,180,7.8,10.3,78,0.00,,---,0.00,VWS V14.01,2013-09-17 17:44:00,
2013-09-17 12:45:00,65.4,58.4,0.00,SW,225,4.0,10.3,78,0.00,,---,0.00,VWS V14.01,2013-09-17 17:45:00,
2013-09-17 12:46:00,65.4,58.4,0.00,SW,225,4.0,4.0,78,0.00,,---,0.00,VWS V14.01,2013-09-17 17:46:00,
2013-09-17 12:48:00,65.4,58.4,0.00,South,180,7.6,7.6,78,0.00,,---,0.00,VWS V14.01,2013-09-17 17:48:00,
2013-09-17 12:49:00,65.4,58.4,0.00,South,180,6.5,7.8,78,0.00,,---,0.00,VWS V14.01,2013-09-17 17:49:00,
2013-09-17 12:51:00,65.4,58.8,0.00,South,180,6.0,7.8,79,0.00,,---,0.00,VWS V14.01,2013-09-17 17:51:00,
2013-09-17 12:52:00,65.3,58.6,0.00,SW,225,6.0,7.8,79,0.00,,---,0.00,VWS V14.01,2013-09-17 17:52:00,
2013-09-17 12:53:00,65.3,58.6,0.00,South,180,3.8,7.8,79,0.00,,---,0.00,VWS V14.01,2013-09-17 17:53:00,
2013-09-17 12:54:00,65.3,58.6,0.00,South,180,3.8,7.8,79,0.00,,---,0.00,VWS V14.01,2013-09-17 17:54:00,
2013-09-17 12:55:00,65.1,58.4,0.00,South,180,6.3,7.8,79,0.00,,---,0.00,VWS V14.01,2013-09-17 17:55:00,
2013-09-17 12:56:00,65.1,58.4,0.00,South,180,7.8,9.8,79,0.00,,---,0.00,VWS V14.01,2013-09-17 17:56:00,
2013-09-17 12:57:00,65.1,58.4,0.00,South,180,10.5,10.5,79,0.00,,---,0.00,VWS V14.01,2013-09-17 17:57:00,
2013-09-17 12:58:00,65.3,58.6,0.00,SW,225,5.8,10.5,79,0.00,,---,0.00,VWS V14.01,2013-09-17 17:58:00,
2013-09-17 12:59:00,65.3,58.6,0.00,South,180,6.3,10.5,79,0.00,,---,0.00,VWS V14.01,2013-09-17 17:59:00,
2013-09-17 13:00:00,65.1,58.4,0.00,SSW,202,7.6,10.5,79,0.00,,---,0.00,VWS V14.01,2013-09-17 18:00:00,
2013-09-17 13:01:00,65.1,58.4,0.00,SSW,202,7.6,7.6,79,0.00,,---,0.00,VWS V14.01,2013-09-17 18:01:00,
2013-09-17 13:02:00,65.1,58.4,0.00,South,180,5.8,7.6,79,0.00,,---,0.00,VWS V14.01,2013-09-17 18:02:00,
2013-09-17 13:03:00,65.1,58.4,0.00,South,180,5.8,7.6,79,0.00,,---,0.00,VWS V14.01,2013-09-17 18:03:00,
2013-09-17 13:04:00,65.1,58.4,0.00,South,180,5.8,7.6,79,0.00,,---,0.00,VWS V14.01,2013-09-17 18:04:00,
2013-09-17 13:05:00,65.1,58.4,0.00,South,180,7.2,12.8,79,0.00,,---,0.00,VWS V14.01,2013-09-17 18:05:00,
2013-09-17 13:06:00,65.1,58.4,0.00,South,180,6.0,12.8,79,0.00,,---,0.00,VWS V14.01,2013-09-17 18:06:00,
2013-09-17 13:07:00,65.1,58.4,0.00,SW,225,7.2,12.8,79,0.00,,---,0.00,VWS V14.01,2013-09-17 18:07:00,
2013-09-17 13:08:00,65.1,58.4,0.00,SW,225,6.0,12.8,79,0.00,,---,0.00,VWS V14.01,2013-09-17 18:08:00,
2013-09-17 13:09:00,65.1,58.4,0.00,SW,225,6.0,12.8,79,0.00,,---,0.00,VWS V14.01,2013-09-17 18:09:00,
2013-09-17 13:10:00,65.1,58.4,0.00,SSW,202,6.3,12.8,79,0.00,,---,0.00,VWS V14.01,2013-09-17 18:10:00,
2013-09-17 13:11:00,64.9,58.2,0.00,SW,225,6.3,12.8,79,0.00,,---,0.00,VWS V14.01,2013-09-17 18:11:00,
2013-09-17 13:12:00,64.9,58.2,0.00,SSW,202,5.8,12.8,79,0.00,,---,0.00,VWS V14.01,2013-09-17 18:12:00,
2013-09-17 13:13:00,64.9,58.2,0.00,SW,225,6.0,12.8,79,0.00,,---,0.00,VWS V14.01,2013-09-17 18:13:00,
2013-09-17 13:14:00,64.9,58.2,0.00,SW,225,4.3,12.8,79,0.00,,---,0.00,VWS V14.01,2013-09-17 18:14:00,
2013-09-17 13:16:00,64.9,58.2,0.00,SW,225,4.3,12.8,79,0.00,,---,0.00,VWS V14.01,2013-09-17 18:16:00,
2013-09-17 13:17:00,64.9,58.2,0.00,South,180,4.0,12.8,79,0.00,,---,0.00,VWS V14.01,2013-09-17 18:17:00,
2013-09-17 13:18:00,64.9,58.2,0.00,South,180,5.4,12.8,79,0.00,,---,0.00,VWS V14.01,2013-09-17 18:18:00,
2013-09-17 13:19:00,64.9,58.2,0.00,SW,225,4.3,12.8,79,0.00,,---,0.00,VWS V14.01,2013-09-17 18:19:00,
2013-09-17 13:20:00,64.7,58.1,0.00,SW,225,3.8,12.8,79,0.00,,---,0.00,VWS V14.01,2013-09-17 18:20:00,
2013-09-17 13:21:00,64.7,58.1,0.00,SW,225,3.4,12.8,79,0.00,,---,0.00,VWS V14.01,2013-09-17 18:21:00,
2013-09-17 13:22:00,64.5,57.9,0.00,South,180,2.7,12.8,79,0.00,,---,0.00,VWS V14.01,2013-09-17 18:22:00,
2013-09-17 13:23:00,64.5,58.2,0.00,SW,225,4.3,12.8,80,0.00,,---,0.00,VWS V14.01,2013-09-17 18:23:00,
2013-09-17 13:24:00,64.5,58.2,0.00,SW,225,4.5,12.8,80,0.00,,---,0.00,VWS V14.01,2013-09-17 18:24:00,
2013-09-17 13:25:00,64.5,58.2,0.00,South,180,4.9,12.8,80,0.00,,---,0.00,VWS V14.01,2013-09-17 18:25:00,
2013-09-17 13:26:00,64.5,58.2,0.00,SW,225,3.6,12.8,80,0.00,,---,0.00,VWS V14.01,2013-09-17 18:26:00,
2013-09-17 13:27:00,64.5,58.2,0.00,SW,225,2.7,12.8,80,0.00,,---,0.00,VWS V14.01,2013-09-17 18:27:00,
2013-09-17 13:28:00,64.5,58.2,0.00,SW,225,1.6,12.8,80,0.00,,---,0.00,VWS V14.01,2013-09-17 18:28:00,
2013-09-17 13:29:00,64.4,58.1,0.00,SSW,202,3.6,12.8,80,0.00,,---,0.00,VWS V14.01,2013-09-17 18:29:00,
2013-09-17 13:30:00,64.4,58.1,0.00,SW,225,2.9,12.8,80,0.00,,---,0.00,VWS V14.01,2013-09-17 18:30:00,
2013-09-17 13:31:00,64.4,58.1,0.00,WSW,248,1.1,2.9,80,0.00,,---,0.00,VWS V14.01,2013-09-17 18:31:00,
2013-09-17 13:32:00,64.4,58.1,0.00,West,270,2.5,3.8,80,0.00,,---,0.00,VWS V14.01,2013-09-17 18:32:00,
2013-09-17 13:33:00,64.5,58.2,0.00,West,270,1.6,4.3,80,0.00,,---,0.00,VWS V14.01,2013-09-17 18:33:00,
2013-09-17 13:34:00,64.4,58.1,0.00,WSW,248,5.8,5.8,80,0.00,,---,0.00,VWS V14.01,2013-09-17 18:34:00,
2013-09-17 13:35:00,64.5,58.2,0.00,West,270,3.1,5.8,80,0.00,,---,0.00,VWS V14.01,2013-09-17 18:35:00,
2013-09-17 13:36:00,64.4,58.1,0.00,NW,315,0.9,5.8,80,0.00,,---,0.00,VWS V14.01,2013-09-17 18:36:00,
2013-09-17 13:37:00,64.4,58.1,0.00,West,270,2.7,5.8,80,0.00,,---,0.00,VWS V14.01,2013-09-17 18:37:00,
2013-09-17 13:38:00,64.4,58.1,0.00,NW,315,2.0,5.8,80,0.00,,---,0.00,VWS V14.01,2013-09-17 18:38:00,
2013-09-17 13:39:00,64.4,58.1,0.00,West,270,2.7,5.8,80,0.00,,---,0.00,VWS V14.01,2013-09-17 18:39:00,
2013-09-17 13:40:00,64.2,57.9,0.00,WNW,292,2.5,5.8,80,0.00,,---,0.00,VWS V14.01,2013-09-17 18:40:00,
2013-09-17 13:41:00,64.2,57.9,0.00,West,270,2.9,5.8,80,0.00,,---,0.00,VWS V14.01,2013-09-17 18:41:00,
2013-09-17 13:42:00,64.2,57.9,0.00,WNW,292,1.3,5.8,80,0.00,,---,0.00,VWS V14.01,2013-09-17 18:42:00,
2013-09-17 13:43:00,64.2,57.9,0.00,WNW,292,2.5,5.8,80,0.00,,---,0.00,VWS V14.01,2013-09-17 18:43:00,
2013-09-17 13:44:00,64.2,57.9,0.00,West,270,1.1,5.8,80,0.00,,---,0.00,VWS V14.01,2013-09-17 18:44:00,
2013-09-17 13:45:00,64.0,57.7,0.00,SW,225,1.3,5.8,80,0.00,,---,0.00,VWS V14.01,2013-09-17 18:45:00,
2013-09-17 13:46:00,64.0,57.7,0.00,South,180,2.7,2.7,80,0.00,,---,0.00,VWS V14.01,2013-09-17 18:46:00,
2013-09-17 13:47:00,64.0,57.7,0.00,WNW,292,2.0,2.7,80,0.00,,---,0.00,VWS V14.01,2013-09-17 18:47:00,
2013-09-17 13:48:00,64.0,57.7,0.00,NW,315,2.7,3.1,80,0.00,,---,0.00,VWS V14.01,2013-09-17 18:48:00,
2013-09-17 13:49:00,64.0,57.7,0.00,West,270,3.4,3.4,80,0.00,,---,0.00,VWS V14.01,2013-09-17 18:49:00,
2013-09-17 13:50:00,64.0,58.1,0.00,SW,225,4.9,4.9,81,0.00,,---,0.00,VWS V14.01,2013-09-17 18:50:00,
2013-09-17 13:51:00,64.0,58.1,0.00,SW,225,4.3,4.9,81,0.00,,---,0.00,VWS V14.01,2013-09-17 18:51:00,
2013-09-17 13:52:00,64.0,58.1,0.00,South,180,3.8,4.9,81,0.00,,---,0.00,VWS V14.01,2013-09-17 18:52:00,
2013-09-17 13:53:00,64.0,58.1,0.00,SW,225,4.3,4.9,81,0.00,,---,0.00,VWS V14.01,2013-09-17 18:53:00,
2013-09-17 13:54:00,64.0,58.1,0.00,SW,225,5.4,6.3,81,0.00,,---,0.00,VWS V14.01,2013-09-17 18:54:00,
2013-09-17 13:55:00,64.0,58.1,0.00,SW,225,4.9,6.3,81,0.00,,---,0.00,VWS V14.01,2013-09-17 18:55:00,
2013-09-17 13:56:00,64.0,58.1,0.00,SW,225,4.9,6.3,81,0.00,,---,0.00,VWS V14.01,2013-09-17 18:56:00,
2013-09-17 13:57:00,64.0,58.1,0.00,SSW,202,6.0,6.3,81,0.00,,---,0.00,VWS V14.01,2013-09-17 18:57:00,
2013-09-17 13:58:00,64.2,58.2,0.00,South,180,5.4,6.5,81,0.00,,---,0.00,VWS V14.01,2013-09-17 18:58:00,
2013-09-17 13:59:00,64.2,58.2,0.00,South,180,4.9,6.5,81,0.00,,---,0.00,VWS V14.01,2013-09-17 18:59:00,
2013-09-17 14:00:00,64.2,58.2,0.00,South,180,5.4,6.5,81,0.00,,---,0.00,VWS V14.01,2013-09-17 19:00:00,
2013-09-17 14:01:00,64.2,58.2,0.00,SSW,202,6.0,6.0,81,0.00,,---,0.00,VWS V14.01,2013-09-17 19:01:00,
2013-09-17 14:02:00,80.4,59.5,0.00,SW,225,7.6,10.3,49,0.00,,---,0.00,VWS V14.01,2013-09-17 19:02:00,
2013-09-17 14:03:00,64.4,58.4,0.00,South,180,8.1,8.7,81,0.00,,---,0.00,VWS V14.01,2013-09-17 19:03:00,
2013-09-17 14:04:00,64.4,58.4,0.00,South,180,5.8,8.7,81,0.00,,---,0.00,VWS V14.01,2013-09-17 19:04:00,
2013-09-17 14:05:00,64.2,58.2,0.00,South,180,8.5,8.7,81,0.00,,---,0.00,VWS V14.01,2013-09-17 19:05:00,
2013-09-17 14:07:00,64.2,58.2,0.00,South,180,9.0,9.0,81,0.00,,---,0.00,VWS V14.01,2013-09-17 19:07:00,
2013-09-17 14:08:00,64.2,58.2,0.00,South,180,7.8,9.8,81,0.00,,---,0.00,VWS V14.01,2013-09-17 19:08:00,
2013-09-17 14:10:00,64.2,58.2,0.00,SSE,158,11.0,11.0,81,0.00,,---,0.00,VWS V14.01,2013-09-17 19:10:00,
2013-09-17 14:11:00,64.2,58.2,0.00,South,180,11.9,12.3,81,0.00,,---,0.00,VWS V14.01,2013-09-17 19:11:00,
2013-09-17 14:12:00,64.7,58.4,0.00,SSW,202,10.5,14.1,80,0.00,,---,0.00,VWS V14.01,2013-09-17 19:12:00,
2013-09-17 14:13:00,64.7,58.4,0.00,South,180,7.8,14.1,80,0.00,,---,0.00,VWS V14.01,2013-09-17 19:13:00,
2013-09-17 14:14:00,64.7,58.4,0.00,South,180,9.8,14.1,80,0.00,,---,0.00,VWS V14.01,2013-09-17 19:14:00,
2013-09-17 14:15:00,64.5,58.6,0.00,South,180,12.1,14.1,81,0.00,,---,0.00,VWS V14.01,2013-09-17 19:15:00,
2013-09-17 14:16:00,64.5,58.6,0.00,SSW,202,7.8,12.1,81,0.00,,---,0.00,VWS V14.01,2013-09-17 19:16:00,
2013-09-17 14:17:00,64.5,58.6,0.00,South,180,8.1,12.1,81,0.00,,---,0.00,VWS V14.01,2013-09-17 19:17:00,
2013-09-17 14:18:00,64.5,58.6,0.00,South,180,7.4,13.0,81,0.00,,---,0.00,VWS V14.01,2013-09-17 19:18:00,
2013-09-17 14:19:00,64.5,58.6,0.00,South,180,10.1,13.0,81,0.00,,---,0.00,VWS V14.01,2013-09-17 19:19:00,
2013-09-17 14:20:00,64.5,58.2,0.00,South,180,9.8,13.0,80,0.00,,---,0.00,VWS V14.01,2013-09-17 19:20:00,
2013-09-17 14:21:00,64.5,58.6,0.00,SSW,202,11.9,13.0,81,0.00,,---,0.00,VWS V14.01,2013-09-17 19:21:00,
2013-09-17 14:22:00,64.5,58.6,0.00,South,180,13.4,13.4,81,0.00,,---,0.00,VWS V14.01,2013-09-17 19:22:00,
2013-09-17 14:23:00,64.5,58.6,0.00,SW,225,10.5,13.4,81,0.00,,---,0.00,VWS V14.01,2013-09-17 19:23:00,
2013-09-17 14:24:00,64.5,58.6,0.00,South,180,8.1,13.4,81,0.00,,---,0.00,VWS V14.01,2013-09-17 19:24:00,
2013-09-17 14:25:00,64.7,58.8,0.00,South,180,11.0,13.4,81,0.00,,---,0.00,VWS V14.01,2013-09-17 19:25:00,
2013-09-17 14:26:00,64.7,58.8,0.00,South,180,8.7,13.4,81,0.00,,---,0.00,VWS V14.01,2013-09-17 19:26:00,
2013-09-17 14:27:00,64.5,58.6,0.00,SSW,202,7.8,13.4,81,0.00,,---,0.00,VWS V14.01,2013-09-17 19:27:00,
2013-09-17 14:29:00,64.5,58.6,0.00,South,180,12.3,13.4,81,0.00,,---,0.00,VWS V14.01,2013-09-17 19:29:00,
2013-09-17 14:30:00,64.4,58.4,0.00,South,180,13.0,13.4,81,0.00,,---,0.00,VWS V14.01,2013-09-17 19:30:00,
2013-09-17 14:31:00,64.4,58.4,0.00,SSW,202,8.7,13.0,81,0.00,,---,0.00,VWS V14.01,2013-09-17 19:31:00,
2013-09-17 14:32:00,64.4,58.4,0.00,South,180,8.1,13.0,81,0.00,,---,0.00,VWS V14.01,2013-09-17 19:32:00,
2013-09-17 14:33:00,64.4,58.4,0.00,South,180,8.1,13.0,81,0.00,,---,0.00,VWS V14.01,2013-09-17 19:33:00,
2013-09-17 14:34:00,64.5,58.6,0.00,South,180,10.1,13.0,81,0.00,,---,0.00,VWS V14.01,2013-09-17 19:34:00,
2013-09-17 14:35:00,64.5,58.6,0.00,South,180,9.6,13.0,81,0.00,,---,0.00,VWS V14.01,2013-09-17 19:35:00,
2013-09-17 14:36:00,64.5,58.6,0.00,South,180,12.5,13.0,81,0.00,,---,0.00,VWS V14.01,2013-09-17 19:36:00,
2013-09-17 14:37:00,64.5,58.6,0.00,SSW,202,7.6,13.0,81,0.00,,---,0.00,VWS V14.01,2013-09-17 19:37:00,
2013-09-17 14:38:00,64.5,58.6,0.00,South,180,8.7,13.0,81,0.00,,---,0.00,VWS V14.01,2013-09-17 19:38:00,
2013-09-17 14:39:00,64.5,58.6,0.00,SSW,202,8.1,13.0,81,0.00,,---,0.00,VWS V14.01,2013-09-17 19:39:00,
2013-09-17 14:41:00,64.5,58.6,0.00,South,180,10.1,13.0,81,0.00,,---,0.00,VWS V14.01,2013-09-17 19:41:00,
2013-09-17 14:42:00,64.4,58.4,0.00,South,180,6.0,13.0,81,0.00,,---,0.00,VWS V14.01,2013-09-17 19:42:00,
2013-09-17 14:43:00,64.2,58.2,0.00,South,180,6.3,13.0,81,0.00,,---,0.00,VWS V14.01,2013-09-17 19:43:00,
2013-09-17 14:44:00,64.2,58.2,0.00,South,180,6.3,13.0,81,0.00,,---,0.00,VWS V14.01,2013-09-17 19:44:00,
2013-09-17 14:45:00,64.2,58.2,0.00,South,180,9.8,13.0,81,0.00,,---,0.00,VWS V14.01,2013-09-17 19:45:00,
2013-09-17 14:46:00,64.4,58.4,0.00,South,180,9.4,9.8,81,0.00,,---,0.00,VWS V14.01,2013-09-17 19:46:00,
2013-09-17 14:47:00,64.4,58.8,0.00,SW,225,7.8,9.8,82,0.00,,---,0.00,VWS V14.01,2013-09-17 19:47:00,
2013-09-17 14:48:00,64.4,58.8,0.00,SSW,202,8.5,11.0,82,0.00,,---,0.00,VWS V14.01,2013-09-17 19:48:00,
2013-09-17 14:49:00,64.4,58.8,0.00,SSW,202,8.5,11.0,82,0.00,,---,0.00,VWS V14.01,2013-09-17 19:49:00,
2013-09-17 14:50:00,64.5,58.6,0.00,South,180,6.3,11.0,81,0.00,,---,0.00,VWS V14.01,2013-09-17 19:50:00,
2013-09-17 14:51:00,64.4,58.8,0.00,SW,225,8.7,11.0,82,0.00,,---,0.00,VWS V14.01,2013-09-17 19:51:00,
2013-09-17 14:52:00,64.4,58.8,0.00,SW,225,6.5,11.0,82,0.00,,---,0.00,VWS V14.01,2013-09-17 19:52:00,
2013-09-17 14:53:00,64.4,58.8,0.00,SW,225,8.1,11.0,82,0.00,,---,0.00,VWS V14.01,2013-09-17 19:53:00,
2013-09-17 14:54:00,64.4,58.8,0.00,SSW,202,12.3,12.3,82,0.00,,---,0.00,VWS V14.01,2013-09-17 19:54:00,
2013-09-17 14:56:00,64.4,58.8,0.00,SW,225,11.0,12.3,82,0.00,,---,0.00,VWS V14.01,2013-09-17 19:56:00,
2013-09-17 14:57:00,64.4,58.8,0.00,South,180,6.3,12.3,82,0.00,,---,0.00,VWS V14.01,2013-09-17 19:57:00,
2013-09-17 14:58:00,64.4,58.8,0.00,SW,225,6.9,12.3,82,0.00,,---,0.00,VWS V14.01,2013-09-17 19:58:00,
2013-09-17 14:59:00,64.4,58.8,0.00,SW,225,10.3,12.3,82,0.00,,---,0.00,VWS V14.01,2013-09-17 19:59:00,
2013-09-17 15:00:00,64.4,58.8,0.00,SW,225,8.7,12.3,82,0.00,,---,0.00,VWS V14.01,2013-09-17 20:00:00,
2013-09-17 15:01:00,64.4,58.8,0.00,SW,225,5.6,8.7,82,0.00,,---,0.00,VWS V14.01,2013-09-17 20:01:00,
2013-09-17 15:02:00,64.4,58.8,0.00,SW,225,4.0,8.7,82,0.00,,---,0.00,VWS V14.01,2013-09-17 20:02:00,
2013-09-17 15:03:00,64.4,58.8,0.00,SW,225,5.8,8.7,82,0.00,,---,0.00,VWS V14.01,2013-09-17 20:03:00,
2013-09-17 15:04:00,64.4,58.8,0.00,SW,225,4.3,8.7,82,0.00,,---,0.00,VWS V14.01,2013-09-17 20:04:00,
2013-09-17 15:05:00,64.4,58.8,0.00,SW,225,4.9,8.7,82,0.00,,---,0.00,VWS V14.01,2013-09-17 20:05:00,
2013-09-17 15:06:00,64.4,58.8,0.00,SW,225,4.9,8.7,82,0.00,,---,0.00,VWS V14.01,2013-09-17 20:06:00,
2013-09-17 15:07:00,64.2,58.6,0.00,West,270,5.6,8.7,82,0.00,,---,0.00,VWS V14.01,2013-09-17 20:07:00,
2013-09-17 15:08:00,64.2,58.6,0.00,WNW,292,4.3,8.7,82,0.00,,---,0.00,VWS V14.01,2013-09-17 20:08:00,
2013-09-17 15:09:00,64.2,58.6,0.00,South,180,6.3,8.7,82,0.00,,---,0.00,VWS V14.01,2013-09-17 20:09:00,
2013-09-17 15:10:00,64.2,58.6,0.00,SW,225,5.6,8.7,82,0.00,,---,0.00,VWS V14.01,2013-09-17 20:10:00,
2013-09-17 15:11:00,64.2,58.6,0.00,NW,315,2.0,8.7,82,0.00,,---,0.00,VWS V14.01,2013-09-17 20:11:00,
2013-09-17 15:12:00,64.2,58.6,0.00,NW,315,4.3,8.7,82,0.00,,---,0.00,VWS V14.01,2013-09-17 20:12:00,
2013-09-17 15:13:00,64.2,58.6,0.00,SW,225,4.5,8.7,82,0.00,,---,0.00,VWS V14.01,2013-09-17 20:13:00,
2013-09-17 15:14:00,64.2,58.6,0.00,WNW,292,5.4,8.7,82,0.00,,---,0.00,VWS V14.01,2013-09-17 20:14:00,
2013-09-17 15:15:00,64.2,58.6,0.00,West,270,3.8,8.7,82,0.00,,---,0.00,VWS V14.01,2013-09-17 20:15:00,
2013-09-17 15:16:00,64.0,58.4,0.00,West,270,2.5,4.0,82,0.00,,---,0.00,VWS V14.01,2013-09-17 20:16:00,
2013-09-17 15:17:00,64.0,58.4,0.00,NW,315,2.5,4.0,82,0.00,,---,0.00,VWS V14.01,2013-09-17 20:17:00,
2013-09-17 15:19:00,63.8,58.6,0.00,NW,315,2.0,4.0,83,0.00,,---,0.00,VWS V14.01,2013-09-17 20:19:00,
2013-09-17 15:20:00,63.8,58.6,0.00,North,0,2.5,4.0,83,0.00,,---,0.00,VWS V14.01,2013-09-17 20:20:00,
2013-09-17 15:21:00,63.8,58.6,0.00,SW,225,3.6,4.0,83,0.00,,---,0.00,VWS V14.01,2013-09-17 20:21:00,
2013-09-17 15:22:00,63.8,58.6,0.00,NW,315,4.0,4.0,83,0.00,,---,0.00,VWS V14.01,2013-09-17 20:22:00,
2013-09-17 15:23:00,63.8,58.6,0.00,NW,315,5.4,5.8,83,0.00,,---,0.00,VWS V14.01,2013-09-17 20:23:00,
2013-09-17 15:24:00,63.8,58.6,0.00,SW,225,3.6,5.8,83,0.00,,---,0.00,VWS V14.01,2013-09-17 20:24:00,
2013-09-17 15:25:00,63.8,58.6,0.00,SW,225,2.7,5.8,83,0.00,,---,0.00,VWS V14.01,2013-09-17 20:25:00,
2013-09-17 15:26:00,63.6,58.4,0.00,WSW,248,3.4,5.8,83,0.00,,---,0.00,VWS V14.01,2013-09-17 20:26:00,
2013-09-17 15:27:00,63.6,58.4,0.00,SW,225,4.0,5.8,83,0.00,,---,0.00,VWS V14.01,2013-09-17 20:27:00,
2013-09-17 15:28:00,63.5,58.2,0.00,SW,225,3.8,5.8,83,0.00,,---,0.00,VWS V14.01,2013-09-17 20:28:00,
2013-09-17 15:29:00,63.5,58.2,0.00,SW,225,4.3,5.8,83,0.00,,---,0.00,VWS V14.01,2013-09-17 20:29:00,
2013-09-17 15:30:00,63.5,58.5,0.00,SW,225,3.4,5.8,84,0.00,,---,0.00,VWS V14.01,2013-09-17 20:30:00,
2013-09-17 15:31:00,63.5,58.5,0.00,SW,225,3.8,5.4,84,0.00,,---,0.00,VWS V14.01,2013-09-17 20:31:00,
2013-09-17 15:32:00,63.3,58.4,0.00,SW,225,6.0,6.0,84,0.00,,---,0.00,VWS V14.01,2013-09-17 20:32:00,
2013-09-17 15:33:00,63.3,58.7,0.00,SW,225,5.8,6.0,85,0.00,,---,0.00,VWS V14.01,2013-09-17 20:33:00,
2013-09-17 15:34:00,63.3,58.7,0.00,SW,225,5.6,6.9,85,0.00,,---,0.00,VWS V14.01,2013-09-17 20:34:00,
2013-09-17 15:35:00,63.3,58.7,0.00,SW,225,6.5,7.6,85,0.00,,---,0.00,VWS V14.01,2013-09-17 20:35:00,
2013-09-17 15:36:00,63.3,58.7,0.00,SSW,202,6.0,9.6,85,0.00,,---,0.00,VWS V14.01,2013-09-17 20:36:00,
2013-09-17 15:37:00,63.3,58.7,0.00,SW,225,6.0,9.6,85,0.00,,---,0.00,VWS V14.01,2013-09-17 20:37:00,
2013-09-17 15:38:00,63.3,58.7,0.00,SW,225,6.5,9.6,85,0.00,,---,0.00,VWS V14.01,2013-09-17 20:38:00,
2013-09-17 15:39:00,83.4,58.6,0.00,South,180,10.3,15.2,43,0.00,,---,0.00,VWS V14.01,2013-09-17 20:39:00,
2013-09-17 15:40:00,63.5,58.9,0.00,SW,225,7.8,9.6,85,0.00,,---,0.00,VWS V14.01,2013-09-17 20:40:00,
2013-09-17 15:41:00,63.5,58.9,0.00,SW,225,6.0,9.6,85,0.00,,---,0.00,VWS V14.01,2013-09-17 20:41:00,
2013-09-17 15:42:00,63.3,58.7,0.00,South,180,6.5,9.6,85,0.00,,---,0.00,VWS V14.01,2013-09-17 20:42:00,
2013-09-17 15:43:00,63.3,58.7,0.00,SW,225,6.0,9.6,85,0.00,,---,0.00,VWS V14.01,2013-09-17 20:43:00,
2013-09-17 15:44:00,63.3,58.7,0.00,NW,315,6.3,9.6,85,0.00,,---,0.00,VWS V14.01,2013-09-17 20:44:00,
2013-09-17 15:45:00,63.3,59.0,0.00,SW,225,5.4,9.6,86,0.00,,---,0.00,VWS V14.01,2013-09-17 20:45:00,
2013-09-17 15:46:00,63.3,59.0,0.00,SW,225,5.8,5.8,86,0.00,,---,0.00,VWS V14.01,2013-09-17 20:46:00,
2013-09-17 15:47:00,63.3,59.0,0.00,WSW,248,3.4,5.8,86,0.00,,---,0.00,VWS V14.01,2013-09-17 20:47:00,
2013-09-17 15:48:00,63.3,59.0,0.00,SW,225,5.6,5.8,86,0.00,,---,0.00,VWS V14.01,2013-09-17 20:48:00,
2013-09-17 15:49:00,63.3,59.0,0.00,NW,315,3.6,5.8,86,0.00,,---,0.00,VWS V14.01,2013-09-17 20:49:00,
2013-09-17 15:50:00,63.3,59.0,0.00,WNW,292,3.4,5.8,86,0.00,,---,0.00,VWS V14.01,2013-09-17 20:50:00,
2013-09-17 15:51:00,63.3,59.0,0.00,NW,315,3.1,5.8,86,0.00,,---,0.00,VWS V14.01,2013-09-17 20:51:00,
2013-09-17 15:52:00,63.3,59.0,0.00,NW,315,3.8,5.8,86,0.00,,---,0.00,VWS V14.01,2013-09-17 20:52:00,
2013-09-17 15:53:00,63.3,59.0,0.00,WSW,248,1.6,5.8,86,0.00,,---,0.00,VWS V14.01,2013-09-17 20:53:00,
2013-09-17 15:54:00,63.1,58.8,0.00,WSW,248,3.6,5.8,86,0.00,,---,0.00,VWS V14.01,2013-09-17 20:54:00,
2013-09-17 15:55:00,63.1,58.8,0.00,SW,225,2.5,5.8,86,0.00,,---,0.00,VWS V14.01,2013-09-17 20:55:00,
2013-09-17 15:56:00,63.1,58.8,0.00,SW,225,2.2,5.8,86,0.00,,---,0.00,VWS V14.01,2013-09-17 20:56:00,
2013-09-17 15:57:00,63.1,58.8,0.00,West,270,5.4,5.8,86,0.00,,---,0.00,VWS V14.01,2013-09-17 20:57:00,
2013-09-17 15:58:00,63.1,58.8,0.00,SW,225,3.8,5.8,86,0.00,,---,0.00,VWS V14.01,2013-09-17 20:58:00,
2013-09-17 15:59:00,63.1,58.8,0.00,SW,225,3.8,5.8,86,0.00,,---,0.00,VWS V14.01,2013-09-17 20:59:00,
2013-09-17 16:00:00,63.1,58.8,0.00,SW,225,1.6,5.8,86,0.00,,---,0.00,VWS V14.01,2013-09-17 21:00:00,
2013-09-17 16:01:00,63.1,58.8,0.00,NW,315,5.6,5.6,86,0.00,,---,0.00,VWS V14.01,2013-09-17 21:01:00,
2013-09-17 16:02:00,62.9,58.7,0.00,SW,225,4.7,5.6,86,0.00,,---,0.00,VWS V14.01,2013-09-17 21:02:00,
2013-09-17 16:03:00,62.9,58.7,0.00,West,270,4.0,5.6,86,0.00,,---,0.00,VWS V14.01,2013-09-17 21:03:00,
2013-09-17 16:04:00,62.7,58.5,0.00,SW,225,4.0,5.6,86,0.00,,---,0.00,VWS V14.01,2013-09-17 21:04:00,
2013-09-17 16:05:00,62.7,58.5,0.00,SW,225,6.3,6.3,86,0.00,,---,0.00,VWS V14.01,2013-09-17 21:05:00,
2013-09-17 16:06:00,62.7,58.5,0.00,SW,225,5.8,6.3,86,0.00,,---,0.00,VWS V14.01,2013-09-17 21:06:00,
2013-09-17 16:07:00,62.7,58.8,0.00,SW,225,6.0,7.4,87,0.00,,---,0.00,VWS V14.01,2013-09-17 21:07:00,
2013-09-17 16:08:00,62.7,58.8,0.00,SW,225,3.8,7.4,87,0.00,,---,0.00,VWS V14.01,2013-09-17 21:08:00,
2013-09-17 16:09:00,62.7,58.8,0.00,SW,225,4.3,7.4,87,0.00,,---,0.00,VWS V14.01,2013-09-17 21:09:00,
2013-09-17 16:10:00,62.7,58.8,0.00,NW,315,3.8,7.4,87,0.00,,---,0.00,VWS V14.01,2013-09-17 21:10:00,
2013-09-17 16:11:00,62.7,58.8,0.00,SW,225,4.0,7.4,87,0.00,,---,0.00,VWS V14.01,2013-09-17 21:11:00,
2013-09-17 16:12:00,62.7,58.8,0.00,NW,315,3.1,7.4,87,0.00,,---,0.00,VWS V14.01,2013-09-17 21:12:00,
2013-09-17 16:14:00,62.7,58.8,0.00,NW,315,4.9,7.4,87,0.00,,---,0.00,VWS V14.01,2013-09-17 21:14:00,
2013-09-17 16:15:00,62.7,58.8,0.00,West,270,3.1,7.4,87,0.00,,---,0.00,VWS V14.01,2013-09-17 21:15:00,
2013-09-17 16:16:00,62.6,58.3,0.00,WNW,292,4.3,4.3,86,0.00,,---,0.00,VWS V14.01,2013-09-17 21:16:00,
2013-09-17 16:17:00,62.4,58.1,0.00,West,270,2.7,4.3,86,0.00,,---,0.00,VWS V14.01,2013-09-17 21:17:00,
2013-09-17 16:19:00,62.4,58.1,0.00,West,270,3.4,4.3,86,0.00,,---,0.00,VWS V14.01,2013-09-17 21:19:00,
2013-09-17 16:20:00,62.4,58.1,0.00,West,270,4.0,4.3,86,0.00,,---,0.00,VWS V14.01,2013-09-17 21:20:00,
2013-09-17 16:21:00,62.2,58.3,0.00,West,270,3.6,4.3,87,0.00,,---,0.00,VWS V14.01,2013-09-17 21:21:00,
2013-09-17 16:22:00,62.2,58.3,0.00,NW,315,4.0,4.3,87,0.00,,---,0.00,VWS V14.01,2013-09-17 21:22:00,
2013-09-17 16:23:00,62.2,58.6,0.00,NW,315,2.7,4.3,88,0.00,,---,0.00,VWS V14.01,2013-09-17 21:23:00,
2013-09-17 16:24:00,62.2,58.6,0.00,NW,315,3.1,4.3,88,0.00,,---,0.00,VWS V14.01,2013-09-17 21:24:00,
2013-09-17 16:25:00,62.2,58.6,0.00,NW,315,2.9,4.3,88,0.00,,---,0.00,VWS V14.01,2013-09-17 21:25:00,
2013-09-17 16:27:00,62.2,58.6,0.00,WNW,292,2.2,4.3,88,0.00,,---,0.00,VWS V14.01,2013-09-17 21:27:00,
2013-09-17 16:28:00,62.0,58.4,0.00,SW,225,4.7,4.7,88,0.00,,---,0.00,VWS V14.01,2013-09-17 21:28:00,
2013-09-17 16:29:00,61.8,58.2,0.00,West,270,3.8,4.7,88,0.00,,---,0.00,VWS V14.01,2013-09-17 21:29:00,
2013-09-17 16:30:00,61.8,58.2,0.00,SW,225,3.6,4.7,88,0.00,,---,0.00,VWS V14.01,2013-09-17 21:30:00,
2013-09-17 16:31:00,61.8,58.2,0.00,SSW,202,4.3,4.9,88,0.00,,---,0.00,VWS V14.01,2013-09-17 21:31:00,
2013-09-17 16:32:00,61.8,58.6,0.00,South,180,5.8,5.8,89,0.00,,---,0.00,VWS V14.01,2013-09-17 21:32:00,
2013-09-17 16:33:00,61.8,58.6,0.00,SW,225,4.9,5.8,89,0.00,,---,0.00,VWS V14.01,2013-09-17 21:33:00,
2013-09-17 16:34:00,61.8,58.6,0.00,SW,225,3.1,5.8,89,0.00,,---,0.00,VWS V14.01,2013-09-17 21:34:00,
2013-09-17 16:35:00,61.8,58.6,0.00,SW,225,3.1,5.8,89,0.00,,---,0.00,VWS V14.01,2013-09-17 21:35:00,
2013-09-17 16:36:00,61.7,58.4,0.00,West,270,0.0,5.8,89,0.00,,---,0.00,VWS V14.01,2013-09-17 21:36:00,
2013-09-17 16:37:00,61.7,58.4,0.00,NW,315,0.0,5.8,89,0.00,,---,0.00,VWS V14.01,2013-09-17 21:37:00,
2013-09-17 16:38:00,61.7,58.4,0.00,West,270,1.3,5.8,89,0.00,,---,0.00,VWS V14.01,2013-09-17 21:38:00,
2013-09-17 16:39:00,61.7,58.4,0.00,West,270,2.7,5.8,89,0.00,,---,0.00,VWS V14.01,2013-09-17 21:39:00,
2013-09-17 16:40:00,61.5,58.2,0.00,NW,315,0.0,5.8,89,0.00,,---,0.00,VWS V14.01,2013-09-17 21:40:00,
2013-09-17 16:41:00,61.5,58.2,0.00,NW,315,0.0,5.8,89,0.00,,---,0.00,VWS V14.01,2013-09-17 21:41:00,
2013-09-17 16:42:00,61.5,58.2,0.00,SW,225,3.1,5.8,89,0.00,,---,0.00,VWS V14.01,2013-09-17 21:42:00,
2013-09-17 16:43:00,61.5,57.9,0.00,NW,315,2.5,5.8,88,0.00,,---,0.00,VWS V14.01,2013-09-17 21:43:00,
2013-09-17 16:44:00,61.3,58.0,0.00,NW,315,0.0,5.8,89,0.00,,---,0.00,VWS V14.01,2013-09-17 21:44:00,
2013-09-17 16:45:00,61.3,58.0,0.00,West,270,0.9,5.8,89,0.00,,---,0.00,VWS V14.01,2013-09-17 21:45:00,
2013-09-17 16:46:00,61.3,58.0,0.00,West,270,1.1,1.3,89,0.00,,---,0.00,VWS V14.01,2013-09-17 21:46:00,
2013-09-17 16:47:00,61.3,58.0,0.00,NW,315,2.7,2.7,89,0.00,,---,0.00,VWS V14.01,2013-09-17 21:47:00,
2013-09-17 16:48:00,61.1,57.9,0.00,WSW,248,0.9,2.7,89,0.00,,---,0.00,VWS V14.01,2013-09-17 21:48:00,
2013-09-17 16:49:00,61.1,57.9,0.00,SW,225,3.4,3.4,89,0.00,,---,0.00,VWS V14.01,2013-09-17 21:49:00,
2013-09-17 16:50:00,61.1,57.9,0.00,South,180,1.3,3.4,89,0.00,,---,0.00,VWS V14.01,2013-09-17 21:50:00,
2013-09-17 16:51:00,61.1,57.9,0.00,SW,225,2.5,3.4,89,0.00,,---,0.00,VWS V14.01,2013-09-17 21:51:00,
2013-09-17 16:52:00,61.1,58.2,0.00,SW,225,1.6,3.4,90,0.00,,---,0.00,VWS V14.01,2013-09-17 21:52:00,
2013-09-17 16:53:00,61.1,57.9,0.00,SSW,202,0.9,3.4,89,0.00,,---,0.00,VWS V14.01,2013-09-17 21:53:00,
2013-09-17 16:54:00,61.1,57.9,0.00,SW,225,0.9,3.4,89,0.00,,---,0.00,VWS V14.01,2013-09-17 21:54:00,
2013-09-17 16:55:00,60.9,58.0,0.00,SSW,202,1.6,3.4,90,0.00,,---,0.00,VWS V14.01,2013-09-17 21:55:00,
2013-09-17 16:56:00,60.9,58.0,0.00,SW,225,0.0,3.4,90,0.00,,---,0.00,VWS V14.01,2013-09-17 21:56:00,
2013-09-17 16:58:00,60.8,57.5,0.00,SW,225,0.0,3.4,89,0.00,,---,0.00,VWS V14.01,2013-09-17 21:58:00,
2013-09-17 16:59:00,60.6,57.3,0.00,SW,225,0.0,3.4,89,0.00,,---,0.00,VWS V14.01,2013-09-17 21:59:00,
2013-09-17 17:00:00,60.6,57.3,0.00,SW,225,0.0,3.4,89,0.00,,---,0.00,VWS V14.01,2013-09-17 22:00:00,
2013-09-17 17:01:00,60.6,57.3,0.00,SW,225,0.0,0.0,89,0.00,,---,0.00,VWS V14.01,2013-09-17 22:01:00,
2013-09-17 17:02:00,60.6,57.3,0.00,West,270,0.0,0.0,89,0.00,,---,0.00,VWS V14.01,2013-09-17 22:02:00,
2013-09-17 17:03:00,60.6,57.3,0.00,West,270,1.3,1.3,89,0.00,,---,0.00,VWS V14.01,2013-09-17 22:03:00,
2013-09-17 17:04:00,60.6,57.3,0.00,West,270,0.0,1.3,89,0.00,,---,0.00,VWS V14.01,2013-09-17 22:04:00,
2013-09-17 17:05:00,60.6,57.3,0.00,West,270,0.9,1.3,89,0.00,,---,0.00,VWS V14.01,2013-09-17 22:05:00,
2013-09-17 17:06:00,60.6,57.3,0.00,NW,315,0.0,1.3,89,0.00,,---,0.00,VWS V14.01,2013-09-17 22:06:00,
2013-09-17 17:07:00,60.6,57.6,0.00,SW,225,1.3,1.6,90,0.00,,---,0.00,VWS V14.01,2013-09-17 22:07:00,
2013-09-17 17:08:00,60.6,57.6,0.00,SW,225,1.6,1.6,90,0.00,,---,0.00,VWS V14.01,2013-09-17 22:08:00,
2013-09-17 17:09:00,60.6,57.6,0.00,SW,225,2.7,2.7,90,0.00,,---,0.00,VWS V14.01,2013-09-17 22:09:00,
2013-09-17 17:10:00,84.7,57.0,0.00,SW,225,6.0,13.4,39,0.00,,---,0.00,VWS V14.01,2013-09-17 22:10:00,
2013-09-17 17:11:00,60.6,57.6,0.00,West,270,1.3,2.7,90,0.00,,---,0.00,VWS V14.01,2013-09-17 22:11:00,
2013-09-17 17:13:00,60.6,57.6,0.00,SW,225,2.0,2.7,90,0.00,,---,0.00,VWS V14.01,2013-09-17 22:13:00,
2013-09-17 17:14:00,60.6,57.6,0.00,SW,225,2.0,2.7,90,0.00,,---,0.00,VWS V14.01,2013-09-17 22:14:00,
2013-09-17 17:15:00,60.6,57.6,0.00,SW,225,2.0,2.7,90,0.00,,---,0.00,VWS V14.01,2013-09-17 22:15:00,
2013-09-17 17:16:00,60.6,57.9,0.00,SW,225,2.0,2.5,91,0.00,,---,0.00,VWS V14.01,2013-09-17 22:16:00,
2013-09-17 17:17:00,60.6,57.9,0.00,SW,225,2.5,2.5,91,0.00,,---,0.00,VWS V14.01,2013-09-17 22:17:00,
2013-09-17 17:18:00,60.6,57.9,0.00,SW,225,2.5,2.5,91,0.00,,---,0.00,VWS V14.01,2013-09-17 22:18:00,
2013-09-17 17:19:00,60.4,57.8,0.00,SW,225,0.9,2.5,91,0.00,,---,0.00,VWS V14.01,2013-09-17 22:19:00,
2013-09-17 17:20:00,60.4,57.8,0.00,West,270,1.1,2.5,91,0.00,,---,0.00,VWS V14.01,2013-09-17 22:20:00,
2013-09-17 17:21:00,85.1,56.6,0.00,South,180,9.6,12.1,38,0.00,,---,0.00,VWS V14.01,2013-09-17 22:21:00,
2013-09-17 17:22:00,60.4,57.8,0.00,West,270,0.9,2.5,91,0.00,,---,0.00,VWS V14.01,2013-09-17 22:22:00,
2013-09-17 17:23:00,60.4,57.8,0.00,West,270,0.0,2.5,91,0.00,,---,0.00,VWS V14.01,2013-09-17 22:23:00,
2013-09-17 17:24:00,60.4,57.8,0.00,West,270,0.0,2.5,91,0.00,,---,0.00,VWS V14.01,2013-09-17 22:24:00,
2013-09-17 17:25:00,60.2,57.6,0.00,SW,225,2.0,2.5,91,0.00,,---,0.00,VWS V14.01,2013-09-17 22:25:00,
2013-09-17 17:26:00,60.2,57.6,0.00,SW,225,2.5,2.5,91,0.00,,---,0.00,VWS V14.01,2013-09-17 22:26:00,
2013-09-17 17:27:00,60.2,57.6,0.00,SW,225,2.0,2.5,91,0.00,,---,0.00,VWS V14.01,2013-09-17 22:27:00,
2013-09-17 17:28:00,60.2,57.6,0.00,SW,225,1.6,2.5,91,0.00,,---,0.00,VWS V14.01,2013-09-17 22:28:00,
2013-09-17 17:29:00,60.2,57.6,0.00,SW,225,0.0,2.5,91,0.00,,---,0.00,VWS V14.01,2013-09-17 22:29:00,
2013-09-17 17:30:00,60.0,57.4,0.00,ESE,112,0.0,2.5,91,0.00,,---,0.00,VWS V14.01,2013-09-17 22:30:00,
2013-09-17 17:31:00,59.9,57.2,0.00,ESE,112,0.0,0.0,91,0.00,,---,0.00,VWS V14.01,2013-09-17 22:31:00,
2013-09-17 17:32:00,59.9,57.2,0.00,ESE,112,0.0,0.0,91,0.00,,---,0.00,VWS V14.01,2013-09-17 22:32:00,
2013-09-17 17:33:00,59.7,57.0,0.00,SE,135,0.0,1.1,91,0.00,,---,0.00,VWS V14.01,2013-09-17 22:33:00,
2013-09-17 17:34:00,59.7,57.0,0.00,SE,135,2.0,2.0,91,0.00,,---,0.00,VWS V14.01,2013-09-17 22:34:00,
2013-09-17 17:35:00,59.5,56.9,0.00,SE,135,2.0,2.2,91,0.00,,---,0.00,VWS V14.01,2013-09-17 22:35:00,
2013-09-17 17:36:00,59.5,56.9,0.00,SSE,158,3.4,3.4,91,0.00,,---,0.00,VWS V14.01,2013-09-17 22:36:00,
2013-09-17 17:37:00,59.5,56.9,0.00,South,180,2.9,3.4,91,0.00,,---,0.00,VWS V14.01,2013-09-17 22:37:00,
2013-09-17 17:38:00,59.5,56.9,0.00,SSE,158,3.4,3.4,91,0.00,,---,0.00,VWS V14.01,2013-09-17 22:38:00,
2013-09-17 17:39:00,59.3,56.7,0.00,SE,135,2.5,3.4,91,0.00,,---,0.00,VWS V14.01,2013-09-17 22:39:00,
2013-09-17 17:40:00,59.3,56.7,0.00,SE,135,0.0,3.4,91,0.00,,---,0.00,VWS V14.01,2013-09-17 22:40:00,
2013-09-17 17:41:00,59.1,56.5,0.00,SE,135,0.0,3.4,91,0.00,,---,0.00,VWS V14.01,2013-09-17 22:41:00,
2013-09-17 17:42:00,59.1,56.5,0.00,SE,135,0.0,3.4,91,0.00,,---,0.00,VWS V14.01,2013-09-17 22:42:00,
2013-09-17 17:43:00,59.1,56.5,0.00,SE,135,0.0,3.4,91,0.00,,---,0.00,VWS V14.01,2013-09-17 22:43:00,
2013-09-17 17:44:00,59.0,56.3,0.00,SE,135,0.0,3.4,91,0.00,,---,0.00,VWS V14.01,2013-09-17 22:44:00,
2013-09-17 17:45:00,59.0,56.3,0.00,SE,135,0.0,3.4,91,0.00,,---,0.00,VWS V14.01,2013-09-17 22:45:00,
2013-09-17 17:46:00,59.0,56.3,0.00,SE,135,0.0,0.0,91,0.00,,---,0.00,VWS V14.01,2013-09-17 22:46:00,
2013-09-17 17:47:00,59.0,56.6,0.00,SE,135,0.0,0.0,92,0.00,,---,0.00,VWS V14.01,2013-09-17 22:47:00,
2013-09-17 17:48:00,58.8,56.5,0.00,SE,135,0.0,0.0,92,0.00,,---,0.00,VWS V14.01,2013-09-17 22:48:00,
2013-09-17 17:49:00,58.6,56.3,0.00,SE,135,0.0,0.0,92,0.00,,---,0.00,VWS V14.01,2013-09-17 22:49:00,
2013-09-17 17:50:00,58.6,56.3,0.00,SE,135,0.0,0.0,92,0.00,,---,0.00,VWS V14.01,2013-09-17 22:50:00,
2013-09-17 17:51:00,58.6,56.3,0.00,SE,135,0.0,0.0,92,0.00,,---,0.00,VWS V14.01,2013-09-17 22:51:00,
2013-09-17 17:52:00,58.6,56.3,0.00,SE,135,0.0,0.0,92,0.00,,---,0.00,VWS V14.01,2013-09-17 22:52:00,
2013-09-17 17:53:00,58.6,56.3,0.00,SSE,158,1.3,1.6,92,0.00,,---,0.00,VWS V14.01,2013-09-17 22:53:00,
2013-09-17 17:54:00,58.6,56.0,0.00,SE,135,1.3,2.0,91,0.00,,---,0.00,VWS V14.01,2013-09-17 22:54:00,
2013-09-17 17:55:00,58.6,56.0,0.00,SE,135,1.3,2.0,91,0.00,,---,0.00,VWS V14.01,2013-09-17 22:55:00,
2013-09-17 17:56:00,58.6,56.0,0.00,SE,135,2.0,2.0,91,0.00,,---,0.00,VWS V14.01,2013-09-17 22:56:00,
2013-09-17 17:58:00,58.4,55.8,0.00,SE,135,1.6,2.2,91,0.00,,---,0.00,VWS V14.01,2013-09-17 22:58:00,
2013-09-17 17:59:00,58.4,55.8,0.00,SE,135,1.6,2.2,91,0.00,,---,0.00,VWS V14.01,2013-09-17 22:59:00,
2013-09-17 18:00:00,58.4,55.8,0.00,SE,135,1.6,2.2,91,0.00,,---,0.00,VWS V14.01,2013-09-17 23:00:00,
2013-09-17 18:01:00,58.4,55.8,0.00,SE,135,2.2,2.2,91,0.00,,---,0.00,VWS V14.01,2013-09-17 23:01:00,
2013-09-17 18:02:00,58.4,55.8,0.00,SE,135,2.5,2.5,91,0.00,,---,0.00,VWS V14.01,2013-09-17 23:02:00,
2013-09-17 18:03:00,58.2,55.9,0.00,SE,135,2.9,2.9,92,0.00,,---,0.00,VWS V14.01,2013-09-17 23:03:00,
2013-09-17 18:04:00,58.2,55.9,0.00,SE,135,2.7,2.9,92,0.00,,---,0.00,VWS V14.01,2013-09-17 23:04:00,
2013-09-17 18:05:00,58.2,55.9,0.00,SE,135,2.5,2.9,92,0.00,,---,0.00,VWS V14.01,2013-09-17 23:05:00,
2013-09-17 18:06:00,58.2,55.9,0.00,SE,135,2.2,2.9,92,0.00,,---,0.00,VWS V14.01,2013-09-17 23:06:00,
2013-09-17 18:07:00,58.2,55.9,0.00,SSE,158,2.0,2.9,92,0.00,,---,0.00,VWS V14.01,2013-09-17 23:07:00,
2013-09-17 18:08:00,58.2,55.9,0.00,SSE,158,2.5,2.9,92,0.00,,---,0.00,VWS V14.01,2013-09-17 23:08:00,
2013-09-17 18:09:00,58.2,55.9,0.00,South,180,2.5,2.9,92,0.00,,---,0.00,VWS V14.01,2013-09-17 23:09:00,
2013-09-17 18:10:00,58.2,55.9,0.00,SSE,158,2.2,2.9,92,0.00,,---,0.00,VWS V14.01,2013-09-17 23:10:00,
2013-09-17 18:11:00,58.1,56.0,0.00,SSE,158,2.5,2.9,93,0.00,,---,0.00,VWS V14.01,2013-09-17 23:11:00,
2013-09-17 18:12:00,58.1,56.0,0.00,SSE,158,2.0,2.9,93,0.00,,---,0.00,VWS V14.01,2013-09-17 23:12:00,
2013-09-17 18:13:00,58.1,56.0,0.00,SSE,158,1.1,2.9,93,0.00,,---,0.00,VWS V14.01,2013-09-17 23:13:00,
2013-09-17 18:14:00,58.1,56.0,0.00,SSE,158,2.0,2.9,93,0.00,,---,0.00,VWS V14.01,2013-09-17 23:14:00,
2013-09-17 18:15:00,57.9,55.9,0.00,SE,135,0.0,2.9,93,0.00,,---,0.00,VWS V14.01,2013-09-17 23:15:00,
2013-09-17 18:16:00,57.9,55.9,0.00,SE,135,0.0,0.0,93,0.00,,---,0.00,VWS V14.01,2013-09-17 23:16:00,
2013-09-17 18:17:00,57.9,55.9,0.00,SE,135,0.0,0.0,93,0.00,,---,0.00,VWS V14.01,2013-09-17 23:17:00,
2013-09-17 18:18:00,57.9,55.9,0.00,SE,135,0.0,0.0,93,0.00,,---,0.00,VWS V14.01,2013-09-17 23:18:00,
2013-09-17 18:19:00,57.9,55.6,0.00,SE,135,0.0,0.0,92,0.00,,---,0.00,VWS V14.01,2013-09-17 23:19:00,
2013-09-17 18:20:00,57.7,55.4,0.00,SE,135,0.0,0.0,92,0.00,,---,0.00,VWS V14.01,2013-09-17 23:20:00,
2013-09-17 18:21:00,57.7,55.4,0.00,SE,135,0.0,0.0,92,0.00,,---,0.00,VWS V14.01,2013-09-17 23:21:00,
2013-09-17 18:22:00,57.7,55.4,0.00,SE,135,1.1,1.1,92,0.00,,---,0.00,VWS V14.01,2013-09-17 23:22:00,
2013-09-17 18:23:00,57.7,55.4,0.00,SE,135,0.0,1.3,92,0.00,,---,0.00,VWS V14.01,2013-09-17 23:23:00,
2013-09-17 18:24:00,57.7,55.4,0.00,SE,135,2.0,2.0,92,0.00,,---,0.00,VWS V14.01,2013-09-17 23:24:00,
2013-09-17 18:25:00,57.7,55.4,0.00,SE,135,2.7,2.7,92,0.00,,---,0.00,VWS V14.01,2013-09-17 23:25:00,
2013-09-17 18:26:00,57.7,55.4,0.00,SE,135,2.5,3.1,92,0.00,,---,0.00,VWS V14.01,2013-09-17 23:26:00,
2013-09-17 18:27:00,57.7,55.4,0.00,SE,135,2.5,3.1,92,0.00,,---,0.00,VWS V14.01,2013-09-17 23:27:00,
2013-09-17 18:28:00,57.7,55.4,0.00,SE,135,2.5,3.1,92,0.00,,---,0.00,VWS V14.01,2013-09-17 23:28:00,
2013-09-17 18:29:00,57.7,55.4,0.00,SSE,158,2.7,3.1,92,0.00,,---,0.00,VWS V14.01,2013-09-17 23:29:00,
2013-09-17 18:30:00,57.7,55.7,0.00,SE,135,1.6,3.1,93,0.00,,---,0.00,VWS V14.01,2013-09-17 23:30:00,
2013-09-17 18:31:00,57.7,55.7,0.00,SE,135,2.5,2.5,93,0.00,,---,0.00,VWS V14.01,2013-09-17 23:31:00,
2013-09-17 18:32:00,57.7,55.7,0.00,SE,135,2.0,2.5,93,0.00,,---,0.00,VWS V14.01,2013-09-17 23:32:00,
2013-09-17 18:33:00,57.7,55.7,0.00,SE,135,1.3,2.5,93,0.00,,---,0.00,VWS V14.01,2013-09-17 23:33:00,
2013-09-17 18:34:00,57.5,55.8,0.00,SE,135,1.3,2.5,94,0.00,,---,0.00,VWS V14.01,2013-09-17 23:34:00,
2013-09-17 18:35:00,57.5,55.8,0.00,SE,135,1.1,2.5,94,0.00,,---,0.00,VWS V14.01,2013-09-17 23:35:00,
2013-09-17 18:36:00,57.3,55.3,0.00,SE,135,1.6,2.5,93,0.00,,---,0.00,VWS V14.01,2013-09-17 23:36:00,
2013-09-17 18:37:00,57.3,55.3,0.00,SE,135,0.0,2.5,93,0.00,,---,0.00,VWS V14.01,2013-09-17 23:37:00,
2013-09-17 18:38:00,57.2,55.2,0.00,SE,135,0.0,2.5,93,0.00,,---,0.00,VWS V14.01,2013-09-17 23:38:00,
2013-09-17 18:40:00,57.2,55.2,0.00,SE,135,1.1,2.5,93,0.00,,---,0.00,VWS V14.01,2013-09-17 23:40:00,
2013-09-17 18:41:00,57.0,55.0,0.00,ESE,112,2.9,2.9,93,0.00,,---,0.00,VWS V14.01,2013-09-17 23:41:00,
2013-09-17 18:42:00,57.2,54.9,0.00,ESE,112,2.0,2.9,92,0.00,,---,0.00,VWS V14.01,2013-09-17 23:42:00,
2013-09-17 18:43:00,57.2,55.2,0.00,ESE,112,2.9,2.9,93,0.00,,---,0.00,VWS V14.01,2013-09-17 23:43:00,
2013-09-17 18:44:00,80.2,54.4,0.00,South,180,8.7,15.7,41,0.00,,---,0.00,VWS V14.01,2013-09-17 23:44:00,
2013-09-17 18:45:00,57.2,54.9,0.00,ESE,112,2.7,2.9,92,0.00,,---,0.00,VWS V14.01,2013-09-17 23:45:00,
2013-09-17 18:46:00,57.2,54.9,0.00,SE,135,3.4,3.4,92,0.00,,---,0.00,VWS V14.01,2013-09-17 23:46:00,
2013-09-17 18:47:00,57.2,54.9,0.00,SE,135,2.7,3.4,92,0.00,,---,0.00,VWS V14.01,2013-09-17 23:47:00,
2013-09-17 18:49:00,57.2,54.9,0.00,SE,135,4.0,4.0,92,0.00,,---,0.00,VWS V14.01,2013-09-17 23:49:00,
2013-09-17 18:50:00,57.2,54.9,0.00,SE,135,3.6,4.0,92,0.00,,---,0.00,VWS V14.01,2013-09-17 23:50:00,
2013-09-17 18:51:00,57.3,55.0,0.00,SE,135,3.4,4.0,92,0.00,,---,0.00,VWS V14.01,2013-09-17 23:51:00,
2013-09-17 18:52:00,57.3,55.0,0.00,SE,135,3.1,4.0,92,0.00,,---,0.00,VWS V14.01,2013-09-17 23:52:00,
2013-09-17 18:53:00,57.3,55.0,0.00,SE,135,3.8,4.0,92,0.00,,---,0.00,VWS V14.01,2013-09-17 23:53:00,
2013-09-17 18:54:00,57.3,55.0,0.00,SE,135,3.4,4.0,92,0.00,,---,0.00,VWS V14.01,2013-09-17 23:54:00,
2013-09-17 18:55:00,57.3,55.0,0.00,SE,135,4.3,4.3,92,0.00,,---,0.00,VWS V14.01,2013-09-17 23:55:00,
2013-09-17 18:56:00,57.5,55.2,0.00,SE,135,3.8,4.3,92,0.00,,---,0.00,VWS V14.01,2013-09-17 23:56:00,
2013-09-17 18:57:00,57.5,55.2,0.00,SE,135,3.8,4.3,92,0.00,,---,0.00,VWS V14.01,2013-09-17 23:57:00,
2013-09-17 18:58:00,57.5,55.2,0.00,SE,135,3.6,4.3,92,0.00,,---,0.00,VWS V14.01,2013-09-17 23:58:00,
2013-09-17 18:59:00,57.5,55.2,0.00,SE,135,3.4,4.3,92,0.00,,---,0.00,VWS V14.01,2013-09-17 23:59:00,
2013-09-17 19:00:00,57.3,55.0,0.00,SE,135,4.3,4.3,92,0.00,,---,0.00,VWS V14.01,2013-09-18 00:00:00,
2013-09-17 19:01:00,57.3,55.0,0.00,SE,135,4.3,4.3,92,0.00,,---,0.00,VWS V14.01,2013-09-18 00:01:00,
2013-09-17 19:02:00,57.3,55.0,0.00,SE,135,4.3,4.9,92,0.00,,---,0.00,VWS V14.01,2013-09-18 00:02:00,
2013-09-17 19:03:00,57.3,55.0,0.00,SE,135,4.3,4.9,92,0.00,,---,0.00,VWS V14.01,2013-09-18 00:03:00,
2013-09-17 19:04:00,57.3,55.0,0.00,SE,135,4.0,4.9,92,0.00,,---,0.00,VWS V14.01,2013-09-18 00:04:00,
2013-09-17 19:05:00,57.3,55.0,0.00,SE,135,3.6,4.9,92,0.00,,---,0.00,VWS V14.01,2013-09-18 00:05:00,
2013-09-17 19:06:00,57.3,55.0,0.00,SE,135,3.1,4.9,92,0.00,,---,0.00,VWS V14.01,2013-09-18 00:06:00,
2013-09-17 19:07:00,57.2,54.9,0.00,SE,135,2.9,4.9,92,0.00,,---,0.00,VWS V14.01,2013-09-18 00:07:00,
2013-09-17 19:08:00,57.2,54.9,0.00,SE,135,2.7,4.9,92,0.00,,---,0.00,VWS V14.01,2013-09-18 00:08:00,
2013-09-17 19:10:00,57.2,54.9,0.00,SE,135,3.4,4.9,92,0.00,,---,0.00,VWS V14.01,2013-09-18 00:10:00,
2013-09-17 19:11:00,57.0,54.7,0.00,SE,135,3.4,4.9,92,0.00,,---,0.00,VWS V14.01,2013-09-18 00:11:00,
2013-09-17 19:12:00,57.0,54.7,0.00,SE,135,3.4,4.9,92,0.00,,---,0.00,VWS V14.01,2013-09-18 00:12:00,
2013-09-17 19:13:00,57.0,54.7,0.00,SE,135,4.0,4.9,92,0.00,,---,0.00,VWS V14.01,2013-09-18 00:13:00,
2013-09-17 19:14:00,57.0,54.7,0.00,SE,135,4.0,4.9,92,0.00,,---,0.00,VWS V14.01,2013-09-18 00:14:00,
2013-09-17 19:15:00,77.7,54.1,0.00,South,180,5.6,13.0,44,0.00,,---,0.00,VWS V14.01,2013-09-18 00:15:00,
2013-09-17 19:16:00,57.0,54.7,0.00,SE,135,4.3,4.3,92,0.00,,---,0.00,VWS V14.01,2013-09-18 00:16:00,
2013-09-17 19:17:00,57.2,54.9,0.00,SE,135,4.5,4.9,92,0.00,,---,0.00,VWS V14.01,2013-09-18 00:17:00,
2013-09-17 19:18:00,57.2,54.9,0.00,SE,135,4.7,4.9,92,0.00,,---,0.00,VWS V14.01,2013-09-18 00:18:00,
2013-09-17 19:19:00,57.3,55.0,0.00,SE,135,4.3,4.9,92,0.00,,---,0.00,VWS V14.01,2013-09-18 00:19:00,
2013-09-17 19:20:00,57.3,55.0,0.00,SE,135,4.9,4.9,92,0.00,,---,0.00,VWS V14.01,2013-09-18 00:20:00,
2013-09-17 19:21:00,57.3,55.0,0.00,SE,135,4.9,4.9,92,0.00,,---,0.00,VWS V14.01,2013-09-18 00:21:00,
2013-09-17 19:22:00,57.3,55.0,0.00,SE,135,4.3,4.9,92,0.00,,---,0.00,VWS V14.01,2013-09-18 00:22:00,
2013-09-17 19:23:00,57.3,55.0,0.00,SE,135,4.3,4.9,92,0.00,,---,0.00,VWS V14.01,2013-09-18 00:23:00,
2013-09-17 19:24:00,57.3,55.0,0.00,SE,135,4.7,4.9,92,0.00,,---,0.00,VWS V14.01,2013-09-18 00:24:00,
2013-09-17 19:25:00,57.5,55.2,0.00,SE,135,4.3,4.9,92,0.00,,---,0.00,VWS V14.01,2013-09-18 00:25:00,
2013-09-17 19:26:00,57.5,55.2,0.00,SE,135,4.3,4.9,92,0.00,,---,0.00,VWS V14.01,2013-09-18 00:26:00,
2013-09-17 19:27:00,57.5,55.2,0.00,SE,135,3.8,4.9,92,0.00,,---,0.00,VWS V14.01,2013-09-18 00:27:00,
2013-09-17 19:28:00,57.5,55.2,0.00,SE,135,4.0,4.9,92,0.00,,---,0.00,VWS V14.01,2013-09-18 00:28:00,
2013-09-17 19:29:00,57.5,55.2,0.00,SE,135,3.8,5.4,92,0.00,,---,0.00,VWS V14.01,2013-09-18 00:29:00,
2013-09-17 19:30:00,57.5,55.2,0.00,SE,135,4.3,5.4,92,0.00,,---,0.00,VWS V14.01,2013-09-18 00:30:00,
2013-09-17 19:31:00,57.5,55.2,0.00,SE,135,3.8,4.3,92,0.00,,---,0.00,VWS V14.01,2013-09-18 00:31:00,
2013-09-17 19:33:00,57.5,55.2,0.00,SE,135,3.8,4.3,92,0.00,,---,0.00,VWS V14.01,2013-09-18 00:33:00,
2013-09-17 19:34:00,57.5,55.2,0.00,SE,135,4.7,4.7,92,0.00,,---,0.00,VWS V14.01,2013-09-18 00:34:00,
2013-09-17 19:35:00,75.5,53.9,0.00,South,180,3.1,4.0,47,0.00,,---,0.00,VWS V14.01,2013-09-18 00:35:00,
2013-09-17 19:38:00,57.5,55.2,0.00,SE,135,4.3,5.8,92,0.00,,---,0.00,VWS V14.01,2013-09-18 00:38:00,
2013-09-17 19:39:00,57.5,55.2,0.00,SE,135,4.3,5.8,92,0.00,,---,0.00,VWS V14.01,2013-09-18 00:39:00,
2013-09-17 19:40:00,57.5,55.2,0.00,SE,135,4.3,5.8,92,0.00,,---,0.00,VWS V14.01,2013-09-18 00:40:00,
2013-09-17 19:41:00,57.5,55.2,0.00,SE,135,3.6,5.8,92,0.00,,---,0.00,VWS V14.01,2013-09-18 00:41:00,
2013-09-17 19:42:00,57.5,55.2,0.00,SE,135,4.3,5.8,92,0.00,,---,0.00,VWS V14.01,2013-09-18 00:42:00,
2013-09-17 19:43:00,57.5,55.2,0.00,SE,135,3.1,5.8,92,0.00,,---,0.00,VWS V14.01,2013-09-18 00:43:00,
2013-09-17 19:44:00,57.7,55.4,0.00,SE,135,3.1,5.8,92,0.00,,---,0.00,VWS V14.01,2013-09-18 00:44:00,
2013-09-17 19:46:00,74.1,54.3,0.00,South,180,2.5,4.0,50,0.00,,---,0.00,VWS V14.01,2013-09-18 00:46:00,
2013-09-17 19:47:00,57.9,55.6,0.00,SE,135,2.5,5.8,92,0.00,,---,0.00,VWS V14.01,2013-09-18 00:47:00,
2013-09-17 19:48:00,58.1,55.8,0.00,SE,135,2.5,5.8,92,0.00,,---,0.00,VWS V14.01,2013-09-18 00:48:00,
2013-09-17 19:49:00,58.2,55.9,0.00,SE,135,2.9,5.8,92,0.00,,---,0.00,VWS V14.01,2013-09-18 00:49:00,
2013-09-17 19:50:00,58.2,55.9,0.00,SE,135,2.5,5.8,92,0.00,,---,0.00,VWS V14.01,2013-09-18 00:50:00,
2013-09-17 19:51:00,58.6,56.0,0.00,SE,135,3.1,5.8,91,0.00,,---,0.00,VWS V14.01,2013-09-18 00:51:00,
2013-09-17 19:52:00,58.8,56.2,0.00,SE,135,2.9,5.8,91,0.00,,---,0.00,VWS V14.01,2013-09-18 00:52:00,
2013-09-17 19:53:00,58.8,56.2,0.00,SE,135,2.9,5.8,91,0.00,,---,0.00,VWS V14.01,2013-09-18 00:53:00,
2013-09-17 19:55:00,59.0,56.3,0.00,SSE,158,3.6,5.8,91,0.00,,---,0.00,VWS V14.01,2013-09-18 00:55:00,
2013-09-17 19:56:00,59.1,56.5,0.00,SE,135,2.7,5.8,91,0.00,,---,0.00,VWS V14.01,2013-09-18 00:56:00,
2013-09-17 19:57:00,59.3,56.7,0.00,SE,135,2.5,5.8,91,0.00,,---,0.00,VWS V14.01,2013-09-18 00:57:00,
2013-09-17 19:58:00,59.5,56.9,0.00,SE,135,2.9,5.8,91,0.00,,---,0.00,VWS V14.01,2013-09-18 00:58:00,
2013-09-17 19:59:00,59.5,56.9,0.00,SE,135,2.2,5.8,91,0.00,,---,0.00,VWS V14.01,2013-09-18 00:59:00,
2013-09-17 20:00:00,59.9,57.2,0.00,SE,135,1.6,5.8,91,0.00,,---,0.00,VWS V14.01,2013-09-18 01:00:00,
2013-09-17 20:01:00,60.0,57.4,0.00,SSE,158,1.3,1.6,91,0.00,,---,0.00,VWS V14.01,2013-09-18 01:01:00,
2013-09-17 20:02:00,60.0,57.4,0.00,SSE,158,1.3,1.6,91,0.00,,---,0.00,VWS V14.01,2013-09-18 01:02:00,
2013-09-17 20:03:00,60.4,57.8,0.00,SE,135,1.6,2.0,91,0.00,,---,0.00,VWS V14.01,2013-09-18 01:03:00,
2013-09-17 20:04:00,60.6,57.9,0.00,SE,135,1.3,2.2,91,0.00,,---,0.00,VWS V14.01,2013-09-18 01:04:00,
2013-09-17 20:05:00,60.9,58.3,0.00,SE,135,2.0,2.2,91,0.00,,---,0.00,VWS V14.01,2013-09-18 01:05:00,
2013-09-17 20:06:00,61.1,58.5,0.00,SE,135,2.2,2.2,91,0.00,,---,0.00,VWS V14.01,2013-09-18 01:06:00,
2013-09-17 20:07:00,61.3,58.7,0.00,SE,135,2.5,2.7,91,0.00,,---,0.00,VWS V14.01,2013-09-18 01:07:00,
2013-09-17 20:08:00,61.3,58.7,0.00,SE,135,2.5,2.7,91,0.00,,---,0.00,VWS V14.01,2013-09-18 01:08:00,
2013-09-17 20:09:00,61.7,59.3,0.00,SE,135,1.3,2.7,92,0.00,,---,0.00,VWS V14.01,2013-09-18 01:09:00,
2013-09-17 20:10:00,61.8,59.5,0.00,SE,135,1.3,2.7,92,0.00,,---,0.00,VWS V14.01,2013-09-18 01:10:00,
2013-09-17 20:11:00,62.0,59.7,0.00,SE,135,2.7,2.9,92,0.00,,---,0.00,VWS V14.01,2013-09-18 01:11:00,
2013-09-17 20:12:00,62.2,59.8,0.00,SE,135,2.7,2.9,92,0.00,,---,0.00,VWS V14.01,2013-09-18 01:12:00,
2013-09-17 20:13:00,62.4,60.0,0.00,SE,135,2.9,3.1,92,0.00,,---,0.00,VWS V14.01,2013-09-18 01:13:00,
2013-09-17 20:14:00,62.6,60.2,0.00,SE,135,2.7,3.1,92,0.00,,---,0.00,VWS V14.01,2013-09-18 01:14:00,
2013-09-17 20:15:00,62.6,59.9,0.00,SE,135,2.9,3.1,91,0.00,,---,0.00,VWS V14.01,2013-09-18 01:15:00,
2013-09-17 20:17:00,62.6,59.9,0.00,SE,135,2.9,2.9,91,0.00,,---,0.00,VWS V14.01,2013-09-18 01:17:00,
2013-09-17 20:18:00,62.9,60.3,0.00,SE,135,3.1,3.8,91,0.00,,---,0.00,VWS V14.01,2013-09-18 01:18:00,
2013-09-17 20:19:00,63.1,60.1,0.00,SE,135,3.4,3.8,90,0.00,,---,0.00,VWS V14.01,2013-09-18 01:19:00,
2013-09-17 20:20:00,63.1,59.8,0.00,SSE,158,4.0,4.0,89,0.00,,---,0.00,VWS V14.01,2013-09-18 01:20:00,
2013-09-17 20:21:00,63.3,59.7,0.00,SE,135,3.1,4.0,88,0.00,,---,0.00,VWS V14.01,2013-09-18 01:21:00,
2013-09-17 20:22:00,63.3,59.7,0.00,South,180,3.4,4.0,88,0.00,,---,0.00,VWS V14.01,2013-09-18 01:22:00,
2013-09-17 20:23:00,63.5,59.5,0.00,South,180,3.4,4.9,87,0.00,,---,0.00,VWS V14.01,2013-09-18 01:23:00,
2013-09-17 20:24:00,63.5,59.5,0.00,SSE,158,2.9,4.9,87,0.00,,---,0.00,VWS V14.01,2013-09-18 01:24:00,
2013-09-17 20:26:00,63.6,59.7,0.00,SE,135,3.6,4.9,87,0.00,,---,0.00,VWS V14.01,2013-09-18 01:26:00,
2013-09-17 20:27:00,63.8,59.2,0.00,SSE,158,4.3,4.9,85,0.00,,---,0.00,VWS V14.01,2013-09-18 01:27:00,
2013-09-17 20:28:00,63.8,59.2,0.00,SE,135,4.9,5.6,85,0.00,,---,0.00,VWS V14.01,2013-09-18 01:28:00,
2013-09-17 20:29:00,64.0,59.1,0.00,SSE,158,4.0,5.6,84,0.00,,---,0.00,VWS V14.01,2013-09-18 01:29:00,
2013-09-17 20:30:00,64.0,59.1,0.00,SSE,158,4.7,5.8,84,0.00,,---,0.00,VWS V14.01,2013-09-18 01:30:00,
2013-09-17 20:31:00,64.0,58.7,0.00,SSE,158,5.4,5.4,83,0.00,,---,0.00,VWS V14.01,2013-09-18 01:31:00,
2013-09-17 20:32:00,64.0,58.7,0.00,South,180,4.0,5.4,83,0.00,,---,0.00,VWS V14.01,2013-09-18 01:32:00,
2013-09-17 20:33:00,64.0,58.7,0.00,SSE,158,5.6,6.0,83,0.00,,---,0.00,VWS V14.01,2013-09-18 01:33:00,
2013-09-17 20:34:00,64.0,58.7,0.00,South,180,4.3,6.3,83,0.00,,---,0.00,VWS V14.01,2013-09-18 01:34:00,
2013-09-17 20:35:00,64.2,58.6,0.00,South,180,5.8,6.3,82,0.00,,---,0.00,VWS V14.01,2013-09-18 01:35:00,
2013-09-17 20:36:00,64.2,58.6,0.00,South,180,3.6,6.3,82,0.00,,---,0.00,VWS V14.01,2013-09-18 01:36:00,
2013-09-17 20:37:00,64.2,58.6,0.00,South,180,3.6,6.3,82,0.00,,---,0.00,VWS V14.01,2013-09-18 01:37:00,
2013-09-17 20:38:00,64.4,58.8,0.00,South,180,5.8,6.3,82,0.00,,---,0.00,VWS V14.01,2013-09-18 01:38:00,
2013-09-17 20:39:00,64.4,58.8,0.00,SSE,158,4.3,7.8,82,0.00,,---,0.00,VWS V14.01,2013-09-18 01:39:00,
2013-09-17 20:40:00,64.4,58.8,0.00,South,180,4.3,7.8,82,0.00,,---,0.00,VWS V14.01,2013-09-18 01:40:00,
2013-09-17 20:41:00,64.5,58.9,0.00,SSE,158,5.4,7.8,82,0.00,,---,0.00,VWS V14.01,2013-09-18 01:41:00,
2013-09-17 20:42:00,64.7,59.1,0.00,SE,135,7.8,7.8,82,0.00,,---,0.00,VWS V14.01,2013-09-18 01:42:00,
2013-09-17 20:43:00,64.7,59.1,0.00,SE,135,5.6,7.8,82,0.00,,---,0.00,VWS V14.01,2013-09-18 01:43:00,
2013-09-17 20:44:00,64.9,59.3,0.00,South,180,3.8,7.8,82,0.00,,---,0.00,VWS V14.01,2013-09-18 01:44:00,
2013-09-17 20:45:00,64.9,59.3,0.00,South,180,5.4,7.8,82,0.00,,---,0.00,VWS V14.01,2013-09-18 01:45:00,
2013-09-17 20:46:00,64.9,58.9,0.00,South,180,3.8,6.0,81,0.00,,---,0.00,VWS V14.01,2013-09-18 01:46:00,
2013-09-17 20:47:00,65.1,59.5,0.00,South,180,3.8,6.0,82,0.00,,---,0.00,VWS V14.01,2013-09-18 01:47:00,
2013-09-17 20:48:00,65.3,59.3,0.00,South,180,6.5,6.5,81,0.00,,---,0.00,VWS V14.01,2013-09-18 01:48:00,
2013-09-17 20:49:00,65.3,59.3,0.00,South,180,4.7,6.5,81,0.00,,---,0.00,VWS V14.01,2013-09-18 01:49:00,
2013-09-17 20:50:00,65.4,59.1,0.00,South,180,5.4,6.5,80,0.00,,---,0.00,VWS V14.01,2013-09-18 01:50:00,
2013-09-17 20:51:00,65.4,59.1,0.00,South,180,4.9,6.5,80,0.00,,---,0.00,VWS V14.01,2013-09-18 01:51:00,
2013-09-17 20:52:00,65.6,59.3,0.00,South,180,6.3,6.5,80,0.00,,---,0.00,VWS V14.01,2013-09-18 01:52:00,
2013-09-17 20:53:00,67.8,54.3,0.00,East,90,0.0,0.0,62,0.00,,---,0.00,VWS V14.01,2013-09-18 01:53:00,
2013-09-17 20:54:00,65.6,59.3,0.00,South,180,5.4,6.5,80,0.00,,---,0.00,VWS V14.01,2013-09-18 01:54:00,
2013-09-17 20:55:00,65.8,59.1,0.00,South,180,5.6,6.5,79,0.00,,---,0.00,VWS V14.01,2013-09-18 01:55:00,
2013-09-17 20:56:00,66.0,59.3,0.00,South,180,6.3,6.5,79,0.00,,---,0.00,VWS V14.01,2013-09-18 01:56:00,
2013-09-17 20:57:00,66.0,59.3,0.00,SSW,202,5.4,6.5,79,0.00,,---,0.00,VWS V14.01,2013-09-18 01:57:00,
2013-09-17 20:58:00,66.2,59.5,0.00,South,180,4.7,6.5,79,0.00,,---,0.00,VWS V14.01,2013-09-18 01:58:00,
2013-09-17 20:59:00,66.2,59.5,0.00,SE,135,5.6,7.6,79,0.00,,---,0.00,VWS V14.01,2013-09-18 01:59:00,
2013-09-17 21:00:00,66.2,59.5,0.00,South,180,5.4,7.6,79,0.00,,---,0.00,VWS V14.01,2013-09-18 02:00:00,
2013-09-17 21:01:00,66.5,59.5,0.00,South,180,4.0,6.5,78,0.00,,---,0.00,VWS V14.01,2013-09-18 02:01:00,
2013-09-17 21:02:00,66.5,59.5,0.00,SE,135,5.4,6.5,78,0.00,,---,0.00,VWS V14.01,2013-09-18 02:02:00,
2013-09-17 21:04:00,66.5,59.5,0.00,South,180,6.3,6.5,78,0.00,,---,0.00,VWS V14.01,2013-09-18 02:04:00,
2013-09-17 21:05:00,66.9,59.4,0.00,South,180,7.4,10.1,77,0.00,,---,0.00,VWS V14.01,2013-09-18 02:05:00,
2013-09-17 21:07:00,66.9,59.4,0.00,South,180,6.0,10.1,77,0.00,,---,0.00,VWS V14.01,2013-09-18 02:07:00,
2013-09-17 21:08:00,66.9,59.4,0.00,SE,135,6.3,10.1,77,0.00,,---,0.00,VWS V14.01,2013-09-18 02:08:00,
2013-09-17 21:09:00,67.2,55.1,0.00,ESE,112,0.0,1.1,65,0.00,,---,0.00,VWS V14.01,2013-09-18 02:09:00,
2013-09-17 21:10:00,67.1,59.6,0.00,South,180,9.6,10.1,77,0.00,,---,0.00,VWS V14.01,2013-09-18 02:10:00,
2013-09-17 21:11:00,67.1,59.6,0.00,SSE,158,8.5,10.1,77,0.00,,---,0.00,VWS V14.01,2013-09-18 02:11:00,
2013-09-17 21:12:00,67.1,59.6,0.00,South,180,6.3,10.1,77,0.00,,---,0.00,VWS V14.01,2013-09-18 02:12:00,
2013-09-17 21:13:00,67.1,59.6,0.00,South,180,6.3,10.1,77,0.00,,---,0.00,VWS V14.01,2013-09-18 02:13:00,
2013-09-17 21:14:00,67.1,59.6,0.00,South,180,4.0,10.1,77,0.00,,---,0.00,VWS V14.01,2013-09-18 02:14:00,
2013-09-17 21:15:00,67.6,59.4,0.00,South,180,5.8,10.1,75,0.00,,---,0.00,VWS V14.01,2013-09-18 02:15:00,
2013-09-17 21:16:00,67.6,59.4,0.00,South,180,4.9,5.8,75,0.00,,---,0.00,VWS V14.01,2013-09-18 02:16:00,
2013-09-17 21:17:00,67.8,59.6,0.00,South,180,7.8,7.8,75,0.00,,---,0.00,VWS V14.01,2013-09-18 02:17:00,
2013-09-17 21:18:00,68.1,59.9,0.00,South,180,7.6,7.8,75,0.00,,---,0.00,VWS V14.01,2013-09-18 02:18:00,
2013-09-17 21:19:00,68.0,59.4,0.00,South,180,6.5,8.5,74,0.00,,---,0.00,VWS V14.01,2013-09-18 02:19:00,
2013-09-17 21:20:00,68.0,59.4,0.00,South,180,6.3,8.5,74,0.00,,---,0.00,VWS V14.01,2013-09-18 02:20:00,
2013-09-17 21:21:00,68.0,59.4,0.00,SW,225,7.6,10.1,74,0.00,,---,0.00,VWS V14.01,2013-09-18 02:21:00,
2013-09-17 21:22:00,68.0,59.0,0.00,South,180,7.6,10.1,73,0.00,,---,0.00,VWS V14.01,2013-09-18 02:22:00,
2013-09-17 21:23:00,68.0,59.0,0.00,South,180,8.5,10.1,73,0.00,,---,0.00,VWS V14.01,2013-09-18 02:23:00,
2013-09-17 21:24:00,68.1,58.8,0.00,South,180,8.7,10.1,72,0.00,,---,0.00,VWS V14.01,2013-09-18 02:24:00,
2013-09-17 21:26:00,68.1,58.8,0.00,South,180,12.3,12.3,72,0.00,,---,0.00,VWS V14.01,2013-09-18 02:26:00,
2013-09-17 21:27:00,68.0,58.6,0.00,South,180,7.4,12.3,72,0.00,,---,0.00,VWS V14.01,2013-09-18 02:27:00,
2013-09-17 21:28:00,68.3,59.0,0.00,SSE,158,10.7,12.3,72,0.00,,---,0.00,VWS V14.01,2013-09-18 02:28:00,
2013-09-17 21:29:00,68.5,59.1,0.00,South,180,7.8,12.3,72,0.00,,---,0.00,VWS V14.01,2013-09-18 02:29:00,
2013-09-17 21:30:00,68.5,58.7,0.00,South,180,6.3,12.3,71,0.00,,---,0.00,VWS V14.01,2013-09-18 02:30:00,
2013-09-17 21:31:00,68.7,58.9,0.00,South,180,10.5,11.0,71,0.00,,---,0.00,VWS V14.01,2013-09-18 02:31:00,
2013-09-17 21:32:00,68.5,58.7,0.00,South,180,6.0,11.0,71,0.00,,---,0.00,VWS V14.01,2013-09-18 02:32:00,
2013-09-17 21:33:00,65.6,55.2,0.00,SE,135,0.0,0.0,69,0.00,,---,0.00,VWS V14.01,2013-09-18 02:33:00,
2013-09-17 21:34:00,68.9,59.5,0.00,South,180,6.0,11.0,72,0.00,,---,0.00,VWS V14.01,2013-09-18 02:34:00,
2013-09-17 21:35:00,68.9,58.7,0.00,South,180,8.5,11.0,70,0.00,,---,0.00,VWS V14.01,2013-09-18 02:35:00,
2013-09-17 21:36:00,69.0,59.2,0.00,South,180,6.3,11.0,71,0.00,,---,0.00,VWS V14.01,2013-09-18 02:36:00,
2013-09-17 21:37:00,68.9,58.7,0.00,SW,225,8.1,11.0,70,0.00,,---,0.00,VWS V14.01,2013-09-18 02:37:00,
2013-09-17 21:38:00,69.0,58.9,0.00,SSW,202,7.6,11.0,70,0.00,,---,0.00,VWS V14.01,2013-09-18 02:38:00,
2013-09-17 21:39:00,69.2,59.0,0.00,SW,225,5.6,11.0,70,0.00,,---,0.00,VWS V14.01,2013-09-18 02:39:00,
2013-09-17 21:40:00,69.6,59.0,0.00,SW,225,7.8,11.0,69,0.00,,---,0.00,VWS V14.01,2013-09-18 02:40:00,
2013-09-17 21:41:00,69.6,59.0,0.00,SW,225,7.6,11.0,69,0.00,,---,0.00,VWS V14.01,2013-09-18 02:41:00,
2013-09-17 21:42:00,69.6,59.0,0.00,SW,225,6.0,11.0,69,0.00,,---,0.00,VWS V14.01,2013-09-18 02:42:00,
2013-09-17 21:43:00,69.8,59.1,0.00,South,180,6.0,11.0,69,0.00,,---,0.00,VWS V14.01,2013-09-18 02:43:00,
2013-09-17 21:44:00,70.1,59.1,0.00,SW,225,7.8,11.0,68,0.00,,---,0.00,VWS V14.01,2013-09-18 02:44:00,
2013-09-17 21:45:00,70.3,59.2,0.00,SW,225,6.5,11.0,68,0.00,,---,0.00,VWS V14.01,2013-09-18 02:45:00,
2013-09-17 21:46:00,70.5,59.0,0.00,SW,225,7.4,7.4,67,0.00,,---,0.00,VWS V14.01,2013-09-18 02:46:00,
2013-09-17 21:47:00,70.7,59.2,0.00,South,180,5.6,8.1,67,0.00,,---,0.00,VWS V14.01,2013-09-18 02:47:00,
2013-09-17 21:48:00,70.7,59.2,0.00,SW,225,4.9,8.1,67,0.00,,---,0.00,VWS V14.01,2013-09-18 02:48:00,
2013-09-17 21:49:00,70.7,59.2,0.00,SW,225,6.7,8.1,67,0.00,,---,0.00,VWS V14.01,2013-09-18 02:49:00,
2013-09-17 21:51:00,71.2,59.3,0.00,SW,225,7.8,8.1,66,0.00,,---,0.00,VWS V14.01,2013-09-18 02:51:00,
2013-09-17 21:52:00,71.4,59.4,0.00,West,270,5.4,8.1,66,0.00,,---,0.00,VWS V14.01,2013-09-18 02:52:00,
2013-09-17 21:53:00,71.6,58.8,0.00,SW,225,7.4,8.7,64,0.00,,---,0.00,VWS V14.01,2013-09-18 02:53:00,
2013-09-17 21:54:00,71.6,58.8,0.00,South,180,6.3,8.7,64,0.00,,---,0.00,VWS V14.01,2013-09-18 02:54:00,
2013-09-17 21:55:00,71.7,59.4,0.00,SW,225,10.5,10.5,65,0.00,,---,0.00,VWS V14.01,2013-09-18 02:55:00,
2013-09-17 21:56:00,71.7,58.9,0.00,SW,225,5.4,10.5,64,0.00,,---,0.00,VWS V14.01,2013-09-18 02:56:00,
2013-09-17 21:57:00,72.3,59.4,0.00,SW,225,5.6,10.5,64,0.00,,---,0.00,VWS V14.01,2013-09-18 02:57:00,
2013-09-17 21:58:00,72.5,58.7,0.00,SSW,202,6.3,10.5,62,0.00,,---,0.00,VWS V14.01,2013-09-18 02:58:00,
2013-09-17 21:59:00,72.5,59.2,0.00,West,270,3.8,10.5,63,0.00,,---,0.00,VWS V14.01,2013-09-18 02:59:00,
2013-09-17 22:01:00,72.8,59.5,0.00,SW,225,6.5,10.5,63,0.00,,---,0.00,VWS V14.01,2013-09-18 03:01:00,
2013-09-17 22:02:00,73.0,59.2,0.00,SW,225,7.4,10.5,62,0.00,,---,0.00,VWS V14.01,2013-09-18 03:02:00,
2013-09-17 22:03:00,73.2,59.4,0.00,SW,225,4.9,10.5,62,0.00,,---,0.00,VWS V14.01,2013-09-18 03:03:00,
2013-09-17 22:04:00,73.4,59.6,0.00,SW,225,5.4,10.5,62,0.00,,---,0.00,VWS V14.01,2013-09-18 03:04:00,
2013-09-17 22:05:00,73.4,59.1,0.00,SW,225,6.5,10.5,61,0.00,,---,0.00,VWS V14.01,2013-09-18 03:05:00,
2013-09-17 22:06:00,73.4,59.1,0.00,SW,225,8.1,10.5,61,0.00,,---,0.00,VWS V14.01,2013-09-18 03:06:00,
2013-09-17 22:08:00,73.4,59.1,0.00,SW,225,10.3,11.9,61,0.00,,---,0.00,VWS V14.01,2013-09-18 03:08:00,
2013-09-17 22:09:00,73.2,58.5,0.00,SW,225,7.6,11.9,60,0.00,,---,0.00,VWS V14.01,2013-09-18 03:09:00,
2013-09-17 22:10:00,73.4,58.2,0.00,West,270,6.3,11.9,59,0.00,,---,0.00,VWS V14.01,2013-09-18 03:10:00,
2013-09-17 22:11:00,73.5,58.3,0.00,West,270,6.0,11.9,59,0.00,,---,0.00,VWS V14.01,2013-09-18 03:11:00,
2013-09-17 22:12:00,73.5,58.3,0.00,West,270,6.0,11.9,59,0.00,,---,0.00,VWS V14.01,2013-09-18 03:12:00,
2013-09-17 22:13:00,73.7,58.5,0.00,SW,225,7.4,11.9,59,0.00,,---,0.00,VWS V14.01,2013-09-18 03:13:00,
2013-09-17 22:14:00,73.7,58.5,0.00,SW,225,6.3,11.9,59,0.00,,---,0.00,VWS V14.01,2013-09-18 03:14:00,
2013-09-17 22:15:00,74.3,59.0,0.00,SW,225,5.8,11.9,59,0.00,,---,0.00,VWS V14.01,2013-09-18 03:15:00,
2013-09-17 22:16:00,74.3,59.0,0.00,South,180,8.1,8.1,59,0.00,,---,0.00,VWS V14.01,2013-09-18 03:16:00,
2013-09-17 22:17:00,74.4,58.2,0.00,SW,225,7.6,8.1,57,0.00,,---,0.00,VWS V14.01,2013-09-18 03:17:00,
2013-09-17 22:19:00,74.4,58.7,0.00,SW,225,8.1,8.1,58,0.00,,---,0.00,VWS V14.01,2013-09-18 03:19:00,
2013-09-17 22:20:00,74.4,58.7,0.00,SW,225,4.0,8.1,58,0.00,,---,0.00,VWS V14.01,2013-09-18 03:20:00,
2013-09-17 22:22:00,74.8,59.0,0.00,SW,225,4.9,8.1,58,0.00,,---,0.00,VWS V14.01,2013-09-18 03:22:00,
2013-09-17 22:23:00,75.3,59.1,0.00,West,270,6.3,8.1,57,0.00,,---,0.00,VWS V14.01,2013-09-18 03:23:00,
2013-09-17 22:24:00,75.5,58.2,0.00,South,180,6.0,8.1,55,0.00,,---,0.00,VWS V14.01,2013-09-18 03:24:00,
2013-09-17 22:25:00,75.5,58.2,0.00,SW,225,6.5,8.5,55,0.00,,---,0.00,VWS V14.01,2013-09-18 03:25:00,
2013-09-17 22:26:00,75.5,58.7,0.00,SW,225,6.3,8.5,56,0.00,,---,0.00,VWS V14.01,2013-09-18 03:26:00,
2013-09-17 22:27:00,75.5,58.7,0.00,SW,225,6.5,8.5,56,0.00,,---,0.00,VWS V14.01,2013-09-18 03:27:00,
2013-09-17 22:28:00,75.7,57.9,0.00,NW,315,6.5,8.5,54,0.00,,---,0.00,VWS V14.01,2013-09-18 03:28:00,
2013-09-17 22:29:00,75.7,57.9,0.00,WSW,248,3.6,8.5,54,0.00,,---,0.00,VWS V14.01,2013-09-18 03:29:00,
2013-09-17 22:30:00,75.9,58.1,0.00,SW,225,5.6,8.5,54,0.00,,---,0.00,VWS V14.01,2013-09-18 03:30:00,
2013-09-17 22:31:00,65.3,58.2,0.00,SE,135,3.1,5.6,78,0.00,,---,0.00,VWS V14.01,2013-09-18 03:31:00,
2013-09-17 22:32:00,75.9,58.1,0.00,SW,225,6.3,8.7,54,0.00,,---,0.00,VWS V14.01,2013-09-18 03:32:00,
2013-09-17 22:33:00,75.9,58.1,0.00,SW,225,5.6,8.7,54,0.00,,---,0.00,VWS V14.01,2013-09-18 03:33:00,
2013-09-17 22:34:00,76.1,58.2,0.00,SW,225,3.1,8.7,54,0.00,,---,0.00,VWS V14.01,2013-09-18 03:34:00,
2013-09-17 22:35:00,76.2,58.4,0.00,SW,225,6.0,8.7,54,0.00,,---,0.00,VWS V14.01,2013-09-18 03:35:00,
2013-09-17 22:36:00,76.2,57.9,0.00,SW,225,5.4,8.7,53,0.00,,---,0.00,VWS V14.01,2013-09-18 03:36:00,
2013-09-17 22:37:00,76.4,58.6,0.00,SSW,202,3.1,8.7,54,0.00,,---,0.00,VWS V14.01,2013-09-18 03:37:00,
2013-09-17 22:38:00,76.6,58.2,0.00,SW,225,7.8,8.7,53,0.00,,---,0.00,VWS V14.01,2013-09-18 03:38:00,
2013-09-17 22:39:00,76.8,57.8,0.00,SW,225,3.4,8.7,52,0.00,,---,0.00,VWS V14.01,2013-09-18 03:39:00,
2013-09-17 22:41:00,77.0,58.5,0.00,SW,225,3.4,8.7,53,0.00,,---,0.00,VWS V14.01,2013-09-18 03:41:00,
2013-09-17 22:42:00,77.3,58.3,0.00,SW,225,4.9,8.7,52,0.00,,---,0.00,VWS V14.01,2013-09-18 03:42:00,
2013-09-17 22:43:00,77.3,58.3,0.00,SW,225,3.6,8.7,52,0.00,,---,0.00,VWS V14.01,2013-09-18 03:43:00,
2013-09-17 22:44:00,77.5,58.5,0.00,NW,315,6.3,8.7,52,0.00,,---,0.00,VWS V14.01,2013-09-18 03:44:00,
2013-09-17 22:45:00,77.5,58.0,0.00,SW,225,5.6,8.7,51,0.00,,---,0.00,VWS V14.01,2013-09-18 03:45:00,
2013-09-17 22:46:00,77.7,58.1,0.00,SW,225,7.2,7.2,51,0.00,,---,0.00,VWS V14.01,2013-09-18 03:46:00,
2013-09-17 22:47:00,77.7,58.1,0.00,SW,225,5.8,7.2,51,0.00,,---,0.00,VWS V14.01,2013-09-18 03:47:00,
2013-09-17 22:48:00,77.9,57.8,0.00,NW,315,5.4,8.5,50,0.00,,---,0.00,VWS V14.01,2013-09-18 03:48:00,
2013-09-17 22:49:00,77.9,57.8,0.00,SW,225,4.3,8.5,50,0.00,,---,0.00,VWS V14.01,2013-09-18 03:49:00,
2013-09-17 22:50:00,77.9,58.3,0.00,SW,225,5.8,8.5,51,0.00,,---,0.00,VWS V14.01,2013-09-18 03:50:00,
2013-09-17 22:52:00,77.9,57.8,0.00,WSW,248,6.0,8.5,50,0.00,,---,0.00,VWS V14.01,2013-09-18 03:52:00,
2013-09-17 22:54:00,78.0,57.9,0.00,SW,225,9.8,9.8,50,0.00,,---,0.00,VWS V14.01,2013-09-18 03:54:00,
2013-09-17 22:55:00,78.0,57.9,0.00,SW,225,4.3,9.8,50,0.00,,---,0.00,VWS V14.01,2013-09-18 03:55:00,
2013-09-17 22:56:00,78.2,58.1,0.00,SW,225,7.6,9.8,50,0.00,,---,0.00,VWS V14.01,2013-09-18 03:56:00,
2013-09-17 22:57:00,78.2,58.1,0.00,SSW,202,6.7,9.8,50,0.00,,---,0.00,VWS V14.01,2013-09-18 03:57:00,
2013-09-17 22:58:00,78.0,57.3,0.00,SW,225,3.4,9.8,49,0.00,,---,0.00,VWS V14.01,2013-09-18 03:58:00,
2013-09-17 22:59:00,78.0,57.3,0.00,SW,225,5.6,9.8,49,0.00,,---,0.00,VWS V14.01,2013-09-18 03:59:00,
2013-09-17 23:00:00,77.9,57.8,0.00,South,180,7.8,9.8,50,0.00,,---,0.00,VWS V14.01,2013-09-18 04:00:00,
2013-09-17 23:01:00,78.0,57.3,0.00,SW,225,6.5,8.1,49,0.00,,---,0.00,VWS V14.01,2013-09-18 04:01:00,
2013-09-17 23:02:00,78.2,57.5,0.00,SW,225,5.8,8.1,49,0.00,,---,0.00,VWS V14.01,2013-09-18 04:02:00,
2013-09-17 23:04:00,78.2,57.5,0.00,SW,225,2.5,8.1,49,0.00,,---,0.00,VWS V14.01,2013-09-18 04:04:00,
2013-09-17 23:05:00,65.3,58.6,0.00,South,180,3.8,5.4,79,0.00,,---,0.00,VWS V14.01,2013-09-18 04:05:00,
2013-09-17 23:07:00,78.2,57.5,0.00,South,180,6.0,8.1,49,0.00,,---,0.00,VWS V14.01,2013-09-18 04:07:00,
2013-09-17 23:08:00,79.3,57.9,0.00,SW,225,5.4,8.1,48,0.00,,---,0.00,VWS V14.01,2013-09-18 04:08:00,
2013-09-17 23:09:00,79.5,58.1,0.00,SW,225,6.5,8.1,48,0.00,,---,0.00,VWS V14.01,2013-09-18 04:09:00,
2013-09-17 23:10:00,79.5,58.1,0.00,SW,225,7.6,8.1,48,0.00,,---,0.00,VWS V14.01,2013-09-18 04:10:00,
2013-09-17 23:11:00,79.5,58.1,0.00,SW,225,6.5,8.1,48,0.00,,---,0.00,VWS V14.01,2013-09-18 04:11:00,
2013-09-17 23:12:00,79.3,57.9,0.00,West,270,5.6,8.1,48,0.00,,---,0.00,VWS V14.01,2013-09-18 04:12:00,
2013-09-17 23:13:00,79.5,58.1,0.00,SW,225,5.8,8.1,48,0.00,,---,0.00,VWS V14.01,2013-09-18 04:13:00,
2013-09-17 23:14:00,79.5,57.5,0.00,SW,225,6.0,8.1,47,0.00,,---,0.00,VWS V14.01,2013-09-18 04:14:00,
2013-09-17 23:15:00,79.3,57.3,0.00,West,270,6.5,9.6,47,0.00,,---,0.00,VWS V14.01,2013-09-18 04:15:00,
2013-09-17 23:16:00,79.5,57.5,0.00,SW,225,10.1,10.1,47,0.00,,---,0.00,VWS V14.01,2013-09-18 04:16:00,
2013-09-17 23:17:00,79.7,57.7,0.00,SW,225,7.2,10.1,47,0.00,,---,0.00,VWS V14.01,2013-09-18 04:17:00,
2013-09-17 23:18:00,79.7,57.7,0.00,SW,225,3.4,10.1,47,0.00,,---,0.00,VWS V14.01,2013-09-18 04:18:00,
2013-09-17 23:19:00,79.8,57.8,0.00,SW,225,6.0,10.1,47,0.00,,---,0.00,VWS V14.01,2013-09-18 04:19:00,
2013-09-17 23:20:00,79.7,57.1,0.00,SW,225,7.2,10.1,46,0.00,,---,0.00,VWS V14.01,2013-09-18 04:20:00,
2013-09-17 23:21:00,79.8,57.8,0.00,SW,225,7.2,10.1,47,0.00,,---,0.00,VWS V14.01,2013-09-18 04:21:00,
2013-09-17 23:22:00,79.8,57.8,0.00,SW,225,6.5,10.1,47,0.00,,---,0.00,VWS V14.01,2013-09-18 04:22:00,
2013-09-17 23:23:00,79.8,57.2,0.00,SW,225,7.6,10.1,46,0.00,,---,0.00,VWS V14.01,2013-09-18 04:23:00,
2013-09-17 23:24:00,79.8,57.8,0.00,SW,225,4.3,10.1,47,0.00,,---,0.00,VWS V14.01,2013-09-18 04:24:00,
2013-09-17 23:25:00,80.0,58.0,0.00,SW,225,5.4,10.1,47,0.00,,---,0.00,VWS V14.01,2013-09-18 04:25:00,
2013-09-17 23:26:00,80.0,57.4,0.00,SW,225,5.8,10.1,46,0.00,,---,0.00,VWS V14.01,2013-09-18 04:26:00,
2013-09-17 23:27:00,80.0,57.4,0.00,SW,225,5.6,10.1,46,0.00,,---,0.00,VWS V14.01,2013-09-18 04:27:00,
2013-09-17 23:28:00,80.2,57.6,0.00,SW,225,3.4,10.1,46,0.00,,---,0.00,VWS V14.01,2013-09-18 04:28:00,
2013-09-17 23:29:00,80.6,57.9,0.00,SW,225,5.8,10.1,46,0.00,,---,0.00,VWS V14.01,2013-09-18 04:29:00,
2013-09-17 23:30:00,80.7,57.4,0.00,West,270,3.4,10.1,45,0.00,,---,0.00,VWS V14.01,2013-09-18 04:30:00,
2013-09-17 23:31:00,80.9,57.6,0.00,SW,225,6.3,7.4,45,0.00,,---,0.00,VWS V14.01,2013-09-18 04:31:00,
2013-09-17 23:32:00,80.7,57.4,0.00,SW,225,5.8,7.4,45,0.00,,---,0.00,VWS V14.01,2013-09-18 04:32:00,
2013-09-17 23:34:00,80.9,57.6,0.00,WSW,248,2.5,7.4,45,0.00,,---,0.00,VWS V14.01,2013-09-18 04:34:00,
2013-09-17 23:35:00,81.3,58.5,0.00,SW,225,4.3,7.4,46,0.00,,---,0.00,VWS V14.01,2013-09-18 04:35:00,
2013-09-17 23:36:00,81.5,58.1,0.00,NW,315,6.3,7.4,45,0.00,,---,0.00,VWS V14.01,2013-09-18 04:36:00,
2013-09-17 23:37:00,81.8,58.4,0.00,SW,225,4.3,7.4,45,0.00,,---,0.00,VWS V14.01,2013-09-18 04:37:00,
2013-09-17 23:39:00,81.8,57.8,0.00,SW,225,5.4,7.8,44,0.00,,---,0.00,VWS V14.01,2013-09-18 04:39:00,
2013-09-17 23:40:00,81.8,57.8,0.00,West,270,3.1,7.8,44,0.00,,---,0.00,VWS V14.01,2013-09-18 04:40:00,
2013-09-17 23:41:00,81.8,57.8,0.00,SW,225,2.9,7.8,44,0.00,,---,0.00,VWS V14.01,2013-09-18 04:41:00,
2013-09-17 23:42:00,82.0,57.3,0.00,SW,225,2.9,7.8,43,0.00,,---,0.00,VWS V14.01,2013-09-18 04:42:00,
2013-09-17 23:43:00,82.2,58.1,0.00,SW,225,2.0,7.8,44,0.00,,---,0.00,VWS V14.01,2013-09-18 04:43:00,
2013-09-17 23:44:00,82.7,58.6,0.00,SW,225,2.5,7.8,44,0.00,,---,0.00,VWS V14.01,2013-09-18 04:44:00,
2013-09-17 23:46:00,82.7,58.6,0.00,NW,315,2.5,7.8,44,0.00,,---,0.00,VWS V14.01,2013-09-18 04:46:00,
2013-09-17 23:47:00,83.1,58.3,0.00,West,270,3.6,7.8,43,0.00,,---,0.00,VWS V14.01,2013-09-18 04:47:00,
2013-09-17 23:48:00,83.3,58.5,0.00,SE,135,2.7,7.8,43,0.00,,---,0.00,VWS V14.01,2013-09-18 04:48:00,
2013-09-17 23:49:00,83.4,58.6,0.00,SW,225,2.7,7.8,43,0.00,,---,0.00,VWS V14.01,2013-09-18 04:49:00,
2013-09-17 23:50:00,83.4,58.6,0.00,SSW,202,2.9,7.8,43,0.00,,---,0.00,VWS V14.01,2013-09-18 04:50:00,
2013-09-17 23:51:00,83.3,57.8,0.00,SW,225,4.9,7.8,42,0.00,,---,0.00,VWS V14.01,2013-09-18 04:51:00,
2013-09-17 23:52:00,83.1,57.6,0.00,SSE,158,8.5,8.5,42,0.00,,---,0.00,VWS V14.01,2013-09-18 04:52:00,
2013-09-17 23:53:00,83.1,57.6,0.00,South,180,3.1,8.5,42,0.00,,---,0.00,VWS V14.01,2013-09-18 04:53:00,
2013-09-17 23:54:00,83.1,57.0,0.00,SSE,158,5.6,8.5,41,0.00,,---,0.00,VWS V14.01,2013-09-18 04:54:00,
2013-09-17 23:55:00,83.1,57.0,0.00,SW,225,4.3,8.5,41,0.00,,---,0.00,VWS V14.01,2013-09-18 04:55:00,
2013-09-17 23:56:00,83.1,57.6,0.00,SW,225,2.0,8.5,42,0.00,,---,0.00,VWS V14.01,2013-09-18 04:56:00,
2013-09-17 23:57:00,83.4,58.0,0.00,SW,225,4.0,8.5,42,0.00,,---,0.00,VWS V14.01,2013-09-18 04:57:00,
2013-09-17 23:58:00,83.6,58.1,0.00,South,180,8.5,8.5,42,0.00,,---,0.00,VWS V14.01,2013-09-18 04:58:00,
2013-09-17 23:59:00,83.1,57.0,0.00,South,180,9.2,9.2,41,0.00,,---,0.00,VWS V14.01,2013-09-18 04:59:00,